<?xml version='1.0' encoding='UTF-8'?><gpx version="1.1" creator="JPX - https://github.com/jenetics/jpx" xmlns="http://www.topografix.com/GPX/1/1"><trk><trkseg><trkpt lat="44.3948329" lon="11.1774438"><ele>448.6</ele><time>2026-04-19T09:39:51.827Z</time></trkpt><trkpt lat="44.3947416" lon="11.1773491"><ele>453.2</ele><time>2026-04-19T09:39:53.827Z</time></trkpt><trkpt lat="44.3946456" lon="11.1772434"><ele>457.80000000000007</ele><time>2026-04-19T09:39:55.827Z</time></trkpt><trkpt lat="44.3945636" lon="11.1771824"><ele>462.40000000000003</ele><time>2026-04-19T09:39:57.827Z</time></trkpt><trkpt lat="44.3944766" lon="11.1771091"><ele>467.0</ele><time>2026-04-19T09:39:59.828Z</time></trkpt><trkpt lat="44.3943764" lon="11.17715"><ele>467.8</ele><time>2026-04-19T09:40:01.827Z</time></trkpt><trkpt lat="44.3942931" lon="11.1770997"><ele>468.6</ele><time>2026-04-19T09:40:03.827Z</time></trkpt><trkpt lat="44.3941948" lon="11.1770253"><ele>469.40000000000003</ele><time>2026-04-19T09:40:05.828Z</time></trkpt><trkpt lat="44.3941262" lon="11.1769653"><ele>470.20000000000005</ele><time>2026-04-19T09:40:06.827Z</time></trkpt><trkpt lat="44.3940462" lon="11.1768535"><ele>471.0</ele><time>2026-04-19T09:40:08.827Z</time></trkpt><trkpt lat="44.3939973" lon="11.1767973"><ele>471.0</ele><time>2026-04-19T09:40:09.827Z</time></trkpt><trkpt lat="44.3938799" lon="11.1767013"><ele>471.0</ele><time>2026-04-19T09:40:11.827Z</time></trkpt><trkpt lat="44.3938103" lon="11.1766415"><ele>471.0</ele><time>2026-04-19T09:40:12.828Z</time></trkpt><trkpt lat="44.3937172" lon="11.176597"><ele>471.0</ele><time>2026-04-19T09:40:13.828Z</time></trkpt><trkpt lat="44.3936477" lon="11.1765535"><ele>471.0</ele><time>2026-04-19T09:40:14.827Z</time></trkpt><trkpt lat="44.3935851" lon="11.1765109"><ele>472.25</ele><time>2026-04-19T09:40:15.828Z</time></trkpt><trkpt lat="44.3934602" lon="11.1763481"><ele>473.5</ele><time>2026-04-19T09:40:17.827Z</time></trkpt><trkpt lat="44.3934169" lon="11.1762039"><ele>474.75</ele><time>2026-04-19T09:40:19.827Z</time></trkpt><trkpt lat="44.3933759" lon="11.1760281"><ele>476.0</ele><time>2026-04-19T09:40:21.828Z</time></trkpt><trkpt lat="44.3933353" lon="11.1759275"><ele>476.0</ele><time>2026-04-19T09:40:23.828Z</time></trkpt><trkpt lat="44.3932456" lon="11.1757504"><ele>476.0</ele><time>2026-04-19T09:40:25.827Z</time></trkpt><trkpt lat="44.3931957" lon="11.1756283"><ele>476.0</ele><time>2026-04-19T09:40:26.828Z</time></trkpt><trkpt lat="44.3931652" lon="11.1755448"><ele>476.0</ele><time>2026-04-19T09:40:27.828Z</time></trkpt><trkpt lat="44.3931197" lon="11.1754725"><ele>476.0</ele><time>2026-04-19T09:40:28.828Z</time></trkpt><trkpt lat="44.393084" lon="11.1753382"><ele>477.75</ele><time>2026-04-19T09:40:30.827Z</time></trkpt><trkpt lat="44.3929848" lon="11.1752271"><ele>479.5</ele><time>2026-04-19T09:40:32.827Z</time></trkpt><trkpt lat="44.3929031" lon="11.1751622"><ele>481.25</ele><time>2026-04-19T09:40:33.828Z</time></trkpt><trkpt lat="44.3928366" lon="11.1750664"><ele>483.0</ele><time>2026-04-19T09:40:34.827Z</time></trkpt><trkpt lat="44.3927358" lon="11.1749203"><ele>486.4</ele><time>2026-04-19T09:40:35.827Z</time></trkpt><trkpt lat="44.3926796" lon="11.1747662"><ele>489.79999999999995</ele><time>2026-04-19T09:40:36.827Z</time></trkpt><trkpt lat="44.3926435" lon="11.1746553"><ele>493.2</ele><time>2026-04-19T09:40:37.827Z</time></trkpt><trkpt lat="44.3926307" lon="11.1744545"><ele>496.6</ele><time>2026-04-19T09:40:39.827Z</time></trkpt><trkpt lat="44.3926569" lon="11.1743398"><ele>500.0</ele><time>2026-04-19T09:40:40.827Z</time></trkpt><trkpt lat="44.3926883" lon="11.1742352"><ele>499.99999999999994</ele><time>2026-04-19T09:40:41.827Z</time></trkpt><trkpt lat="44.3926732" lon="11.1740968"><ele>500.0</ele><time>2026-04-19T09:40:42.827Z</time></trkpt><trkpt lat="44.3926964" lon="11.1739412"><ele>500.0</ele><time>2026-04-19T09:40:43.827Z</time></trkpt><trkpt lat="44.3927005" lon="11.1738484"><ele>500.0</ele><time>2026-04-19T09:40:44.827Z</time></trkpt><trkpt lat="44.3926514" lon="11.1737526"><ele>499.99999999999994</ele><time>2026-04-19T09:40:46.828Z</time></trkpt><trkpt lat="44.3925803" lon="11.1736881"><ele>500.0</ele><time>2026-04-19T09:40:48.828Z</time></trkpt><trkpt lat="44.3925082" lon="11.1736371"><ele>499.99999999999994</ele><time>2026-04-19T09:40:51.827Z</time></trkpt><trkpt lat="44.3924466" lon="11.173572"><ele>500.0</ele><time>2026-04-19T09:40:55.828Z</time></trkpt><trkpt lat="44.3923638" lon="11.1734699"><ele>500.0</ele><time>2026-04-19T09:40:57.828Z</time></trkpt><trkpt lat="44.392301" lon="11.1734336"><ele>500.0</ele><time>2026-04-19T09:40:59.828Z</time></trkpt><trkpt lat="44.3922307" lon="11.173394"><ele>499.99999999999994</ele><time>2026-04-19T09:41:02.827Z</time></trkpt><trkpt lat="44.3921542" lon="11.1733144"><ele>500.0</ele><time>2026-04-19T09:41:05.827Z</time></trkpt><trkpt lat="44.3920497" lon="11.1732726"><ele>500.0</ele><time>2026-04-19T09:41:07.828Z</time></trkpt><trkpt lat="44.3919706" lon="11.1732356"><ele>500.0</ele><time>2026-04-19T09:41:08.827Z</time></trkpt><trkpt lat="44.3918958" lon="11.1732051"><ele>500.0</ele><time>2026-04-19T09:41:09.827Z</time></trkpt><trkpt lat="44.3917896" lon="11.1731811"><ele>500.0</ele><time>2026-04-19T09:41:10.827Z</time></trkpt><trkpt lat="44.3916515" lon="11.1730879"><ele>500.0</ele><time>2026-04-19T09:41:11.828Z</time></trkpt><trkpt lat="44.391545" lon="11.1729941"><ele>498.4</ele><time>2026-04-19T09:41:12.827Z</time></trkpt><trkpt lat="44.3914436" lon="11.1729275"><ele>496.8</ele><time>2026-04-19T09:41:13.827Z</time></trkpt><trkpt lat="44.3913523" lon="11.172867"><ele>495.20000000000005</ele><time>2026-04-19T09:41:14.827Z</time></trkpt><trkpt lat="44.3912603" lon="11.1728463"><ele>493.6</ele><time>2026-04-19T09:41:15.828Z</time></trkpt><trkpt lat="44.3911503" lon="11.1727441"><ele>492.0</ele><time>2026-04-19T09:41:16.827Z</time></trkpt><trkpt lat="44.3910554" lon="11.1726475"><ele>492.0</ele><time>2026-04-19T09:41:17.827Z</time></trkpt><trkpt lat="44.390971" lon="11.1726071"><ele>492.00000000000006</ele><time>2026-04-19T09:41:18.827Z</time></trkpt><trkpt lat="44.3908497" lon="11.1725497"><ele>492.00000000000006</ele><time>2026-04-19T09:41:20.827Z</time></trkpt><trkpt lat="44.3907572" lon="11.1724365"><ele>492.0</ele><time>2026-04-19T09:41:22.828Z</time></trkpt><trkpt lat="44.3906846" lon="11.1723505"><ele>492.0</ele><time>2026-04-19T09:41:23.827Z</time></trkpt><trkpt lat="44.3905993" lon="11.1723108"><ele>496.20000000000005</ele><time>2026-04-19T09:41:24.827Z</time></trkpt><trkpt lat="44.39048" lon="11.1723023"><ele>500.40000000000003</ele><time>2026-04-19T09:41:26.827Z</time></trkpt><trkpt lat="44.3903873" lon="11.1722894"><ele>504.59999999999997</ele><time>2026-04-19T09:41:28.827Z</time></trkpt><trkpt lat="44.3903675" lon="11.1721895"><ele>508.79999999999995</ele><time>2026-04-19T09:41:30.827Z</time></trkpt><trkpt lat="44.3903112" lon="11.172031"><ele>513.0</ele><time>2026-04-19T09:41:32.827Z</time></trkpt><trkpt lat="44.3902508" lon="11.1719338"><ele>513.0</ele><time>2026-04-19T09:41:33.827Z</time></trkpt><trkpt lat="44.3901777" lon="11.1718548"><ele>513.0</ele><time>2026-04-19T09:41:34.827Z</time></trkpt><trkpt lat="44.3901002" lon="11.1717667"><ele>513.0</ele><time>2026-04-19T09:41:35.827Z</time></trkpt><trkpt lat="44.3900287" lon="11.171643"><ele>513.0</ele><time>2026-04-19T09:41:36.827Z</time></trkpt><trkpt lat="44.3899687" lon="11.1715456"><ele>513.0</ele><time>2026-04-19T09:41:37.828Z</time></trkpt><trkpt lat="44.3899251" lon="11.1714413"><ele>511.3333333333333</ele><time>2026-04-19T09:41:38.827Z</time></trkpt><trkpt lat="44.3898853" lon="11.1713151"><ele>509.66666666666663</ele><time>2026-04-19T09:41:39.827Z</time></trkpt><trkpt lat="44.389862" lon="11.1712175"><ele>508.0</ele><time>2026-04-19T09:41:40.827Z</time></trkpt><trkpt lat="44.389836" lon="11.1710905"><ele>506.3333333333333</ele><time>2026-04-19T09:41:41.827Z</time></trkpt><trkpt lat="44.3897969" lon="11.1709915"><ele>504.66666666666663</ele><time>2026-04-19T09:41:42.827Z</time></trkpt><trkpt lat="44.3897444" lon="11.1709125"><ele>503.0</ele><time>2026-04-19T09:41:43.827Z</time></trkpt><trkpt lat="44.3896915" lon="11.17085"><ele>507.8333333333333</ele><time>2026-04-19T09:41:44.827Z</time></trkpt><trkpt lat="44.389656" lon="11.1707375"><ele>512.6666666666666</ele><time>2026-04-19T09:41:45.827Z</time></trkpt><trkpt lat="44.389629" lon="11.1706466"><ele>517.5</ele><time>2026-04-19T09:41:46.828Z</time></trkpt><trkpt lat="44.3896035" lon="11.1705525"><ele>522.3333333333334</ele><time>2026-04-19T09:41:47.828Z</time></trkpt><trkpt lat="44.3895803" lon="11.1704323"><ele>527.1666666666667</ele><time>2026-04-19T09:41:48.828Z</time></trkpt><trkpt lat="44.3895317" lon="11.1702993"><ele>532.0</ele><time>2026-04-19T09:41:49.827Z</time></trkpt><trkpt lat="44.3894831" lon="11.1701783"><ele>532.4</ele><time>2026-04-19T09:41:50.828Z</time></trkpt><trkpt lat="44.3894485" lon="11.1700403"><ele>532.8000000000001</ele><time>2026-04-19T09:41:51.828Z</time></trkpt><trkpt lat="44.3893688" lon="11.1699375"><ele>533.2</ele><time>2026-04-19T09:41:53.827Z</time></trkpt><trkpt lat="44.3892553" lon="11.1699785"><ele>533.6</ele><time>2026-04-19T09:41:55.827Z</time></trkpt><trkpt lat="44.3892033" lon="11.1700796"><ele>534.0</ele><time>2026-04-19T09:41:56.828Z</time></trkpt><trkpt lat="44.3891553" lon="11.1701433"><ele>534.0</ele><time>2026-04-19T09:41:57.827Z</time></trkpt><trkpt lat="44.3890776" lon="11.1701968"><ele>534.0</ele><time>2026-04-19T09:41:58.827Z</time></trkpt><trkpt lat="44.3890005" lon="11.1702151"><ele>534.0</ele><time>2026-04-19T09:41:59.827Z</time></trkpt><trkpt lat="44.3889466" lon="11.1701539"><ele>534.0</ele><time>2026-04-19T09:42:01.828Z</time></trkpt><trkpt lat="44.3889106" lon="11.17005"><ele>534.0</ele><time>2026-04-19T09:42:03.827Z</time></trkpt><trkpt lat="44.3888828" lon="11.1699519"><ele>534.0</ele><time>2026-04-19T09:42:07.827Z</time></trkpt><trkpt lat="44.388859" lon="11.1698247"><ele>532.2</ele><time>2026-04-19T09:42:10.827Z</time></trkpt><trkpt lat="44.388855" lon="11.1697361"><ele>530.4</ele><time>2026-04-19T09:42:11.828Z</time></trkpt><trkpt lat="44.3888258" lon="11.1695665"><ele>528.6</ele><time>2026-04-19T09:42:13.827Z</time></trkpt><trkpt lat="44.3888081" lon="11.1694591"><ele>526.8</ele><time>2026-04-19T09:42:14.827Z</time></trkpt><trkpt lat="44.3887768" lon="11.1693378"><ele>525.0</ele><time>2026-04-19T09:42:15.828Z</time></trkpt><trkpt lat="44.3887548" lon="11.1692107"><ele>524.6</ele><time>2026-04-19T09:42:16.827Z</time></trkpt><trkpt lat="44.3887139" lon="11.1689992"><ele>524.2</ele><time>2026-04-19T09:42:17.827Z</time></trkpt><trkpt lat="44.3886948" lon="11.168859"><ele>523.8</ele><time>2026-04-19T09:42:18.827Z</time></trkpt><trkpt lat="44.3886597" lon="11.1687397"><ele>523.4</ele><time>2026-04-19T09:42:19.827Z</time></trkpt><trkpt lat="44.3886193" lon="11.1686158"><ele>523.0</ele><time>2026-04-19T09:42:20.827Z</time></trkpt><trkpt lat="44.388549" lon="11.1684883"><ele>523.0</ele><time>2026-04-19T09:42:22.828Z</time></trkpt><trkpt lat="44.3885053" lon="11.1684207"><ele>523.0</ele><time>2026-04-19T09:42:23.827Z</time></trkpt><trkpt lat="44.3884813" lon="11.168251"><ele>523.0</ele><time>2026-04-19T09:42:25.827Z</time></trkpt><trkpt lat="44.3884599" lon="11.1681609"><ele>523.0</ele><time>2026-04-19T09:42:26.827Z</time></trkpt><trkpt lat="44.3884157" lon="11.1679873"><ele>523.0</ele><time>2026-04-19T09:42:28.827Z</time></trkpt><trkpt lat="44.3884046" lon="11.1678744"><ele>524.0</ele><time>2026-04-19T09:42:29.827Z</time></trkpt><trkpt lat="44.388387" lon="11.1677668"><ele>525.0</ele><time>2026-04-19T09:42:30.827Z</time></trkpt><trkpt lat="44.3883667" lon="11.1676552"><ele>526.0</ele><time>2026-04-19T09:42:31.827Z</time></trkpt><trkpt lat="44.3883603" lon="11.1675664"><ele>527.0</ele><time>2026-04-19T09:42:32.828Z</time></trkpt><trkpt lat="44.3883746" lon="11.1674598"><ele>528.0</ele><time>2026-04-19T09:42:33.827Z</time></trkpt><trkpt lat="44.3883297" lon="11.1673205"><ele>529.0</ele><time>2026-04-19T09:42:35.828Z</time></trkpt><trkpt lat="44.3883067" lon="11.167233"><ele>531.2</ele><time>2026-04-19T09:42:36.827Z</time></trkpt><trkpt lat="44.3883065" lon="11.167069"><ele>533.4</ele><time>2026-04-19T09:42:38.827Z</time></trkpt><trkpt lat="44.3882605" lon="11.1668982"><ele>535.6</ele><time>2026-04-19T09:42:40.828Z</time></trkpt><trkpt lat="44.3882225" lon="11.1668254"><ele>537.8</ele><time>2026-04-19T09:42:41.827Z</time></trkpt><trkpt lat="44.3881433" lon="11.1667468"><ele>540.0</ele><time>2026-04-19T09:42:43.827Z</time></trkpt><trkpt lat="44.3880791" lon="11.1667045"><ele>541.6666666666666</ele><time>2026-04-19T09:42:45.827Z</time></trkpt><trkpt lat="44.388003" lon="11.1667041"><ele>543.3333333333334</ele><time>2026-04-19T09:42:47.827Z</time></trkpt><trkpt lat="44.3879115" lon="11.1666909"><ele>545.0</ele><time>2026-04-19T09:42:49.827Z</time></trkpt><trkpt lat="44.3877987" lon="11.1666655"><ele>546.6666666666667</ele><time>2026-04-19T09:42:51.827Z</time></trkpt><trkpt lat="44.3877366" lon="11.1666367"><ele>548.3333333333334</ele><time>2026-04-19T09:42:52.827Z</time></trkpt><trkpt lat="44.3876735" lon="11.1666166"><ele>550.0</ele><time>2026-04-19T09:42:53.828Z</time></trkpt><trkpt lat="44.3875461" lon="11.1665716"><ele>550.0</ele><time>2026-04-19T09:42:55.827Z</time></trkpt><trkpt lat="44.3874806" lon="11.1665669"><ele>550.0</ele><time>2026-04-19T09:42:56.827Z</time></trkpt><trkpt lat="44.3873608" lon="11.1665757"><ele>550.0</ele><time>2026-04-19T09:42:58.827Z</time></trkpt><trkpt lat="44.3872319" lon="11.1665908"><ele>550.0</ele><time>2026-04-19T09:43:00.827Z</time></trkpt><trkpt lat="44.3871371" lon="11.1665772"><ele>550.0</ele><time>2026-04-19T09:43:01.827Z</time></trkpt><trkpt lat="44.3870559" lon="11.1665597"><ele>551.2</ele><time>2026-04-19T09:43:02.827Z</time></trkpt><trkpt lat="44.3869782" lon="11.1665255"><ele>552.4</ele><time>2026-04-19T09:43:03.827Z</time></trkpt><trkpt lat="44.3869081" lon="11.1664431"><ele>553.6</ele><time>2026-04-19T09:43:04.827Z</time></trkpt><trkpt lat="44.3868387" lon="11.1663478"><ele>554.8</ele><time>2026-04-19T09:43:05.827Z</time></trkpt><trkpt lat="44.386783" lon="11.1662378"><ele>556.0</ele><time>2026-04-19T09:43:06.827Z</time></trkpt><trkpt lat="44.3867354" lon="11.166114"><ele>556.0</ele><time>2026-04-19T09:43:07.827Z</time></trkpt><trkpt lat="44.3866918" lon="11.1659916"><ele>556.0</ele><time>2026-04-19T09:43:08.827Z</time></trkpt><trkpt lat="44.3866505" lon="11.1658586"><ele>556.0</ele><time>2026-04-19T09:43:09.827Z</time></trkpt><trkpt lat="44.3866292" lon="11.1657199"><ele>556.0</ele><time>2026-04-19T09:43:10.827Z</time></trkpt><trkpt lat="44.3866144" lon="11.165575"><ele>556.0</ele><time>2026-04-19T09:43:11.827Z</time></trkpt><trkpt lat="44.3865948" lon="11.165438"><ele>555.2</ele><time>2026-04-19T09:43:12.828Z</time></trkpt><trkpt lat="44.3865661" lon="11.1653359"><ele>554.4000000000001</ele><time>2026-04-19T09:43:13.828Z</time></trkpt><trkpt lat="44.3865165" lon="11.1652414"><ele>553.6</ele><time>2026-04-19T09:43:14.827Z</time></trkpt><trkpt lat="44.3864438" lon="11.1651846"><ele>552.8000000000001</ele><time>2026-04-19T09:43:15.827Z</time></trkpt><trkpt lat="44.3862968" lon="11.1651513"><ele>552.0</ele><time>2026-04-19T09:43:17.827Z</time></trkpt><trkpt lat="44.3862229" lon="11.1651663"><ele>552.0</ele><time>2026-04-19T09:43:18.827Z</time></trkpt><trkpt lat="44.3861558" lon="11.1651263"><ele>552.0</ele><time>2026-04-19T09:43:19.827Z</time></trkpt><trkpt lat="44.3860756" lon="11.165066"><ele>552.0</ele><time>2026-04-19T09:43:20.827Z</time></trkpt><trkpt lat="44.3859923" lon="11.1649996"><ele>552.0</ele><time>2026-04-19T09:43:21.827Z</time></trkpt><trkpt lat="44.3859095" lon="11.1648828"><ele>552.0</ele><time>2026-04-19T09:43:22.827Z</time></trkpt><trkpt lat="44.3858297" lon="11.1647219"><ele>553.25</ele><time>2026-04-19T09:43:23.827Z</time></trkpt><trkpt lat="44.385749" lon="11.1646399"><ele>554.5</ele><time>2026-04-19T09:43:24.827Z</time></trkpt><trkpt lat="44.3856409" lon="11.1645816"><ele>555.75</ele><time>2026-04-19T09:43:25.827Z</time></trkpt><trkpt lat="44.3855199" lon="11.1645301"><ele>557.0</ele><time>2026-04-19T09:43:26.828Z</time></trkpt><trkpt lat="44.3854129" lon="11.1644747"><ele>557.0</ele><time>2026-04-19T09:43:27.828Z</time></trkpt><trkpt lat="44.38531" lon="11.1643942"><ele>557.0</ele><time>2026-04-19T09:43:28.827Z</time></trkpt><trkpt lat="44.385212" lon="11.1642931"><ele>557.0</ele><time>2026-04-19T09:43:29.827Z</time></trkpt><trkpt lat="44.3851451" lon="11.1641934"><ele>557.0</ele><time>2026-04-19T09:43:30.828Z</time></trkpt><trkpt lat="44.3850945" lon="11.1640856"><ele>557.0</ele><time>2026-04-19T09:43:31.827Z</time></trkpt><trkpt lat="44.3850734" lon="11.1639558"><ele>560.75</ele><time>2026-04-19T09:43:32.827Z</time></trkpt><trkpt lat="44.3850477" lon="11.1638061"><ele>564.5</ele><time>2026-04-19T09:43:33.828Z</time></trkpt><trkpt lat="44.3850059" lon="11.1636748"><ele>568.25</ele><time>2026-04-19T09:43:34.827Z</time></trkpt><trkpt lat="44.384961" lon="11.1635306"><ele>572.0</ele><time>2026-04-19T09:43:35.827Z</time></trkpt><trkpt lat="44.3849017" lon="11.1633576"><ele>572.0</ele><time>2026-04-19T09:43:36.828Z</time></trkpt><trkpt lat="44.3848393" lon="11.1632408"><ele>572.0</ele><time>2026-04-19T09:43:37.828Z</time></trkpt><trkpt lat="44.3847539" lon="11.1631294"><ele>572.0</ele><time>2026-04-19T09:43:38.827Z</time></trkpt><trkpt lat="44.3846725" lon="11.1630328"><ele>572.0</ele><time>2026-04-19T09:43:39.827Z</time></trkpt><trkpt lat="44.3845963" lon="11.1629248"><ele>572.0</ele><time>2026-04-19T09:43:40.827Z</time></trkpt><trkpt lat="44.3845256" lon="11.1628214"><ele>572.0</ele><time>2026-04-19T09:43:41.827Z</time></trkpt><trkpt lat="44.3844629" lon="11.1627093"><ele>572.0</ele><time>2026-04-19T09:43:42.827Z</time></trkpt><trkpt lat="44.3844084" lon="11.1625593"><ele>572.0</ele><time>2026-04-19T09:43:43.827Z</time></trkpt><trkpt lat="44.3843626" lon="11.1624124"><ele>572.0</ele><time>2026-04-19T09:43:44.828Z</time></trkpt><trkpt lat="44.3843059" lon="11.1622656"><ele>577.75</ele><time>2026-04-19T09:43:45.827Z</time></trkpt><trkpt lat="44.3842432" lon="11.1621332"><ele>583.5</ele><time>2026-04-19T09:43:46.827Z</time></trkpt><trkpt lat="44.3841582" lon="11.1620245"><ele>589.25</ele><time>2026-04-19T09:43:47.827Z</time></trkpt><trkpt lat="44.384047" lon="11.1619042"><ele>595.0</ele><time>2026-04-19T09:43:48.827Z</time></trkpt><trkpt lat="44.3839391" lon="11.1617905"><ele>595.5</ele><time>2026-04-19T09:43:49.828Z</time></trkpt><trkpt lat="44.3838227" lon="11.1616727"><ele>596.0</ele><time>2026-04-19T09:43:50.827Z</time></trkpt><trkpt lat="44.3837118" lon="11.1615634"><ele>596.5</ele><time>2026-04-19T09:43:51.828Z</time></trkpt><trkpt lat="44.383595" lon="11.1614454"><ele>597.0</ele><time>2026-04-19T09:43:52.827Z</time></trkpt><trkpt lat="44.3834865" lon="11.1613376"><ele>597.0</ele><time>2026-04-19T09:43:53.828Z</time></trkpt><trkpt lat="44.3833796" lon="11.1612327"><ele>597.0</ele><time>2026-04-19T09:43:54.827Z</time></trkpt><trkpt lat="44.3832723" lon="11.1611436"><ele>597.0</ele><time>2026-04-19T09:43:55.827Z</time></trkpt><trkpt lat="44.3831661" lon="11.1610433"><ele>597.0</ele><time>2026-04-19T09:43:56.827Z</time></trkpt><trkpt lat="44.383038" lon="11.1609384"><ele>599.5</ele><time>2026-04-19T09:43:57.827Z</time></trkpt><trkpt lat="44.3829307" lon="11.1608638"><ele>602.0</ele><time>2026-04-19T09:43:58.827Z</time></trkpt><trkpt lat="44.3828186" lon="11.1608058"><ele>604.5</ele><time>2026-04-19T09:43:59.827Z</time></trkpt><trkpt lat="44.3826828" lon="11.1607056"><ele>607.0</ele><time>2026-04-19T09:44:00.827Z</time></trkpt><trkpt lat="44.3825431" lon="11.160633"><ele>602.4</ele><time>2026-04-19T09:44:01.828Z</time></trkpt><trkpt lat="44.3824256" lon="11.1607481"><ele>597.8000000000001</ele><time>2026-04-19T09:44:02.827Z</time></trkpt><trkpt lat="44.3823161" lon="11.1607594"><ele>593.2</ele><time>2026-04-19T09:44:03.827Z</time></trkpt><trkpt lat="44.3822314" lon="11.16077"><ele>588.6</ele><time>2026-04-19T09:44:04.827Z</time></trkpt><trkpt lat="44.3821513" lon="11.1607588"><ele>584.0</ele><time>2026-04-19T09:44:05.828Z</time></trkpt><trkpt lat="44.3820654" lon="11.1607011"><ele>584.5</ele><time>2026-04-19T09:44:06.827Z</time></trkpt><trkpt lat="44.3819548" lon="11.1606344"><ele>585.0</ele><time>2026-04-19T09:44:07.828Z</time></trkpt><trkpt lat="44.3818347" lon="11.1605048"><ele>585.5</ele><time>2026-04-19T09:44:08.827Z</time></trkpt><trkpt lat="44.3817271" lon="11.1603707"><ele>586.0</ele><time>2026-04-19T09:44:09.828Z</time></trkpt><trkpt lat="44.3816207" lon="11.1602442"><ele>586.0</ele><time>2026-04-19T09:44:10.827Z</time></trkpt><trkpt lat="44.3815204" lon="11.1601297"><ele>586.0</ele><time>2026-04-19T09:44:11.827Z</time></trkpt><trkpt lat="44.3814431" lon="11.1600266"><ele>586.0</ele><time>2026-04-19T09:44:12.827Z</time></trkpt><trkpt lat="44.3813647" lon="11.1599672"><ele>586.0</ele><time>2026-04-19T09:44:13.827Z</time></trkpt><trkpt lat="44.3812841" lon="11.1598735"><ele>586.0</ele><time>2026-04-19T09:44:14.827Z</time></trkpt><trkpt lat="44.3812152" lon="11.1598033"><ele>582.4</ele><time>2026-04-19T09:44:15.827Z</time></trkpt><trkpt lat="44.3811673" lon="11.1597414"><ele>578.8</ele><time>2026-04-19T09:44:16.827Z</time></trkpt><trkpt lat="44.3810884" lon="11.15965"><ele>575.1999999999999</ele><time>2026-04-19T09:44:18.827Z</time></trkpt><trkpt lat="44.380998" lon="11.1595908"><ele>571.6</ele><time>2026-04-19T09:44:21.827Z</time></trkpt><trkpt lat="44.3808989" lon="11.1596112"><ele>568.0</ele><time>2026-04-19T09:44:23.828Z</time></trkpt><trkpt lat="44.3807853" lon="11.1596562"><ele>568.0</ele><time>2026-04-19T09:44:25.827Z</time></trkpt><trkpt lat="44.3807204" lon="11.1596876"><ele>568.0</ele><time>2026-04-19T09:44:26.827Z</time></trkpt><trkpt lat="44.3806522" lon="11.1597103"><ele>568.0</ele><time>2026-04-19T09:44:27.828Z</time></trkpt><trkpt lat="44.3805647" lon="11.159721"><ele>568.0</ele><time>2026-04-19T09:44:28.827Z</time></trkpt><trkpt lat="44.380499" lon="11.159719"><ele>568.0</ele><time>2026-04-19T09:44:29.828Z</time></trkpt><trkpt lat="44.3804321" lon="11.1597196"><ele>568.0</ele><time>2026-04-19T09:44:30.828Z</time></trkpt><trkpt lat="44.3803615" lon="11.159705"><ele>568.0</ele><time>2026-04-19T09:44:31.828Z</time></trkpt><trkpt lat="44.3802484" lon="11.1597035"><ele>565.1999999999999</ele><time>2026-04-19T09:44:33.827Z</time></trkpt><trkpt lat="44.3801237" lon="11.1597418"><ele>562.4</ele><time>2026-04-19T09:44:35.827Z</time></trkpt><trkpt lat="44.3800423" lon="11.1597521"><ele>559.5999999999999</ele><time>2026-04-19T09:44:36.828Z</time></trkpt><trkpt lat="44.3799197" lon="11.1597597"><ele>556.8</ele><time>2026-04-19T09:44:37.828Z</time></trkpt><trkpt lat="44.3798315" lon="11.1597762"><ele>554.0</ele><time>2026-04-19T09:44:38.828Z</time></trkpt><trkpt lat="44.3797588" lon="11.1597988"><ele>554.0</ele><time>2026-04-19T09:44:39.827Z</time></trkpt><trkpt lat="44.3797012" lon="11.1598492"><ele>554.0</ele><time>2026-04-19T09:44:40.827Z</time></trkpt><trkpt lat="44.3795871" lon="11.1599336"><ele>554.0</ele><time>2026-04-19T09:44:42.828Z</time></trkpt><trkpt lat="44.3794886" lon="11.1599349"><ele>554.0</ele><time>2026-04-19T09:44:43.828Z</time></trkpt><trkpt lat="44.3794274" lon="11.1599751"><ele>554.0</ele><time>2026-04-19T09:44:44.827Z</time></trkpt><trkpt lat="44.3793627" lon="11.1600156"><ele>554.0</ele><time>2026-04-19T09:44:45.827Z</time></trkpt><trkpt lat="44.3792928" lon="11.1600689"><ele>559.2</ele><time>2026-04-19T09:44:46.827Z</time></trkpt><trkpt lat="44.3792092" lon="11.160118"><ele>564.4</ele><time>2026-04-19T09:44:47.828Z</time></trkpt><trkpt lat="44.3790982" lon="11.1601923"><ele>569.6</ele><time>2026-04-19T09:44:49.827Z</time></trkpt><trkpt lat="44.379034" lon="11.1602405"><ele>574.8</ele><time>2026-04-19T09:44:50.827Z</time></trkpt><trkpt lat="44.3789794" lon="11.1602906"><ele>580.0</ele><time>2026-04-19T09:44:51.827Z</time></trkpt><trkpt lat="44.3788484" lon="11.1603794"><ele>580.0</ele><time>2026-04-19T09:44:53.827Z</time></trkpt><trkpt lat="44.3787632" lon="11.1604247"><ele>580.0</ele><time>2026-04-19T09:44:54.828Z</time></trkpt><trkpt lat="44.3786351" lon="11.160468"><ele>580.0</ele><time>2026-04-19T09:44:55.827Z</time></trkpt><trkpt lat="44.3785627" lon="11.1605094"><ele>580.0</ele><time>2026-04-19T09:44:56.827Z</time></trkpt><trkpt lat="44.3784513" lon="11.1605569"><ele>580.0</ele><time>2026-04-19T09:44:57.828Z</time></trkpt><trkpt lat="44.3783673" lon="11.1606167"><ele>580.0</ele><time>2026-04-19T09:44:58.828Z</time></trkpt><trkpt lat="44.3783016" lon="11.1606799"><ele>580.0</ele><time>2026-04-19T09:44:59.827Z</time></trkpt><trkpt lat="44.3782018" lon="11.1607395"><ele>580.0</ele><time>2026-04-19T09:45:00.828Z</time></trkpt><trkpt lat="44.3781185" lon="11.1608184"><ele>580.0</ele><time>2026-04-19T09:45:01.828Z</time></trkpt><trkpt lat="44.3779953" lon="11.1609036"><ele>580.0</ele><time>2026-04-19T09:45:02.828Z</time></trkpt><trkpt lat="44.3778867" lon="11.160982"><ele>583.0</ele><time>2026-04-19T09:45:03.827Z</time></trkpt><trkpt lat="44.377774" lon="11.1610332"><ele>586.0</ele><time>2026-04-19T09:45:04.827Z</time></trkpt><trkpt lat="44.3776923" lon="11.1611058"><ele>589.0</ele><time>2026-04-19T09:45:05.827Z</time></trkpt><trkpt lat="44.3776127" lon="11.1611698"><ele>592.0</ele><time>2026-04-19T09:45:06.827Z</time></trkpt><trkpt lat="44.3775291" lon="11.1612179"><ele>595.0</ele><time>2026-04-19T09:45:07.827Z</time></trkpt><trkpt lat="44.377465" lon="11.1612721"><ele>595.0</ele><time>2026-04-19T09:45:08.827Z</time></trkpt><trkpt lat="44.377408" lon="11.1613133"><ele>595.0</ele><time>2026-04-19T09:45:09.827Z</time></trkpt><trkpt lat="44.3773062" lon="11.1613374"><ele>595.0</ele><time>2026-04-19T09:45:10.828Z</time></trkpt><trkpt lat="44.3772117" lon="11.1613553"><ele>595.0</ele><time>2026-04-19T09:45:11.827Z</time></trkpt><trkpt lat="44.3771426" lon="11.1613609"><ele>595.0</ele><time>2026-04-19T09:45:12.827Z</time></trkpt><trkpt lat="44.3770498" lon="11.1613526"><ele>595.0</ele><time>2026-04-19T09:45:13.827Z</time></trkpt><trkpt lat="44.3769535" lon="11.1613899"><ele>596.5</ele><time>2026-04-19T09:45:15.827Z</time></trkpt><trkpt lat="44.37686" lon="11.1614544"><ele>598.0</ele><time>2026-04-19T09:45:17.827Z</time></trkpt><trkpt lat="44.3767722" lon="11.1615567"><ele>599.5</ele><time>2026-04-19T09:45:19.828Z</time></trkpt><trkpt lat="44.3766878" lon="11.1616728"><ele>601.0</ele><time>2026-04-19T09:45:21.828Z</time></trkpt><trkpt lat="44.3766383" lon="11.1618284"><ele>601.0</ele><time>2026-04-19T09:45:23.827Z</time></trkpt><trkpt lat="44.3765979" lon="11.1619856"><ele>601.0</ele><time>2026-04-19T09:45:25.827Z</time></trkpt><trkpt lat="44.3765763" lon="11.1620711"><ele>601.0</ele><time>2026-04-19T09:45:26.827Z</time></trkpt><trkpt lat="44.37655" lon="11.162235"><ele>601.0</ele><time>2026-04-19T09:45:28.827Z</time></trkpt><trkpt lat="44.3765334" lon="11.1623757"><ele>601.0</ele><time>2026-04-19T09:45:30.827Z</time></trkpt><trkpt lat="44.3765256" lon="11.1624674"><ele>600.6666666666667</ele><time>2026-04-19T09:45:32.827Z</time></trkpt><trkpt lat="44.3765168" lon="11.1625702"><ele>600.3333333333334</ele><time>2026-04-19T09:45:34.827Z</time></trkpt><trkpt lat="44.3764747" lon="11.1627219"><ele>600.0</ele><time>2026-04-19T09:45:36.827Z</time></trkpt><trkpt lat="44.3764492" lon="11.1628123"><ele>599.6666666666666</ele><time>2026-04-19T09:45:37.827Z</time></trkpt><trkpt lat="44.3764135" lon="11.1629131"><ele>599.3333333333333</ele><time>2026-04-19T09:45:38.828Z</time></trkpt><trkpt lat="44.3763749" lon="11.1630252"><ele>599.0</ele><time>2026-04-19T09:45:39.827Z</time></trkpt><trkpt lat="44.3763364" lon="11.163138"><ele>596.0</ele><time>2026-04-19T09:45:40.827Z</time></trkpt><trkpt lat="44.3762934" lon="11.1632557"><ele>593.0</ele><time>2026-04-19T09:45:41.828Z</time></trkpt><trkpt lat="44.3762529" lon="11.1633735"><ele>590.0</ele><time>2026-04-19T09:45:42.828Z</time></trkpt><trkpt lat="44.3762153" lon="11.1635047"><ele>587.0</ele><time>2026-04-19T09:45:43.828Z</time></trkpt><trkpt lat="44.3761748" lon="11.1636322"><ele>584.0</ele><time>2026-04-19T09:45:44.827Z</time></trkpt><trkpt lat="44.3761416" lon="11.1637661"><ele>584.0</ele><time>2026-04-19T09:45:45.827Z</time></trkpt><trkpt lat="44.3760893" lon="11.1638867"><ele>584.0</ele><time>2026-04-19T09:45:46.827Z</time></trkpt><trkpt lat="44.3760183" lon="11.1639934"><ele>584.0</ele><time>2026-04-19T09:45:47.827Z</time></trkpt><trkpt lat="44.3759365" lon="11.1640966"><ele>584.0</ele><time>2026-04-19T09:45:48.827Z</time></trkpt><trkpt lat="44.3758647" lon="11.1642055"><ele>584.0</ele><time>2026-04-19T09:45:49.828Z</time></trkpt><trkpt lat="44.3757762" lon="11.1643004"><ele>589.0</ele><time>2026-04-19T09:45:50.827Z</time></trkpt><trkpt lat="44.375692" lon="11.1643872"><ele>594.0</ele><time>2026-04-19T09:45:51.828Z</time></trkpt><trkpt lat="44.3755983" lon="11.164443"><ele>599.0</ele><time>2026-04-19T09:45:52.827Z</time></trkpt><trkpt lat="44.3754999" lon="11.1644661"><ele>604.0</ele><time>2026-04-19T09:45:53.827Z</time></trkpt><trkpt lat="44.3753964" lon="11.164443"><ele>609.0</ele><time>2026-04-19T09:45:54.827Z</time></trkpt><trkpt lat="44.3752954" lon="11.1644318"><ele>610.8</ele><time>2026-04-19T09:45:55.828Z</time></trkpt><trkpt lat="44.3751962" lon="11.1644091"><ele>612.5999999999999</ele><time>2026-04-19T09:45:56.828Z</time></trkpt><trkpt lat="44.3750983" lon="11.1643965"><ele>614.4</ele><time>2026-04-19T09:45:57.827Z</time></trkpt><trkpt lat="44.3749812" lon="11.1644563"><ele>616.1999999999999</ele><time>2026-04-19T09:45:59.827Z</time></trkpt><trkpt lat="44.3749295" lon="11.1645957"><ele>618.0</ele><time>2026-04-19T09:46:01.828Z</time></trkpt><trkpt lat="44.3750647" lon="11.1646824"><ele>618.0</ele><time>2026-04-19T09:46:04.828Z</time></trkpt><trkpt lat="44.3751464" lon="11.1647099"><ele>618.0</ele><time>2026-04-19T09:46:05.827Z</time></trkpt><trkpt lat="44.3752126" lon="11.1647783"><ele>618.0</ele><time>2026-04-19T09:46:06.828Z</time></trkpt><trkpt lat="44.3752619" lon="11.1648868"><ele>618.0</ele><time>2026-04-19T09:46:07.827Z</time></trkpt><trkpt lat="44.375316" lon="11.1649887"><ele>618.0</ele><time>2026-04-19T09:46:08.827Z</time></trkpt><trkpt lat="44.3753629" lon="11.1651027"><ele>618.0</ele><time>2026-04-19T09:46:09.827Z</time></trkpt><trkpt lat="44.3753844" lon="11.1652586"><ele>622.6666666666666</ele><time>2026-04-19T09:46:10.827Z</time></trkpt><trkpt lat="44.3754075" lon="11.165394"><ele>627.3333333333334</ele><time>2026-04-19T09:46:11.827Z</time></trkpt><trkpt lat="44.3754311" lon="11.1655428"><ele>632.0</ele><time>2026-04-19T09:46:12.828Z</time></trkpt><trkpt lat="44.3754452" lon="11.1656652"><ele>636.6666666666667</ele><time>2026-04-19T09:46:13.827Z</time></trkpt><trkpt lat="44.3754483" lon="11.1657747"><ele>641.3333333333334</ele><time>2026-04-19T09:46:14.827Z</time></trkpt><trkpt lat="44.3754559" lon="11.1658682"><ele>646.0</ele><time>2026-04-19T09:46:15.828Z</time></trkpt><trkpt lat="44.3754588" lon="11.1660194"><ele>648.5999999999999</ele><time>2026-04-19T09:46:17.828Z</time></trkpt><trkpt lat="44.3754513" lon="11.1661118"><ele>651.2</ele><time>2026-04-19T09:46:18.827Z</time></trkpt><trkpt lat="44.3754704" lon="11.1662881"><ele>653.8</ele><time>2026-04-19T09:46:20.828Z</time></trkpt><trkpt lat="44.3755016" lon="11.1664004"><ele>656.4000000000001</ele><time>2026-04-19T09:46:21.827Z</time></trkpt><trkpt lat="44.3755278" lon="11.1665263"><ele>659.0</ele><time>2026-04-19T09:46:22.828Z</time></trkpt><trkpt lat="44.375565" lon="11.1666755"><ele>661.25</ele><time>2026-04-19T09:46:23.827Z</time></trkpt><trkpt lat="44.3756091" lon="11.1668308"><ele>663.5</ele><time>2026-04-19T09:46:24.828Z</time></trkpt><trkpt lat="44.375664" lon="11.1669895"><ele>665.75</ele><time>2026-04-19T09:46:25.827Z</time></trkpt><trkpt lat="44.3757148" lon="11.1671655"><ele>668.0</ele><time>2026-04-19T09:46:26.827Z</time></trkpt><trkpt lat="44.3757542" lon="11.1673505"><ele>664.0</ele><time>2026-04-19T09:46:27.828Z</time></trkpt><trkpt lat="44.3757901" lon="11.1675475"><ele>660.0</ele><time>2026-04-19T09:46:28.828Z</time></trkpt><trkpt lat="44.3758516" lon="11.1677506"><ele>656.0</ele><time>2026-04-19T09:46:29.828Z</time></trkpt><trkpt lat="44.3759122" lon="11.1679516"><ele>656.0</ele><time>2026-04-19T09:46:30.828Z</time></trkpt><trkpt lat="44.3759821" lon="11.1681619"><ele>656.0</ele><time>2026-04-19T09:46:31.827Z</time></trkpt><trkpt lat="44.3760587" lon="11.168363"><ele>656.0</ele><time>2026-04-19T09:46:32.827Z</time></trkpt><trkpt lat="44.3761364" lon="11.1685546"><ele>652.5</ele><time>2026-04-19T09:46:33.827Z</time></trkpt><trkpt lat="44.3762174" lon="11.1687304"><ele>649.0</ele><time>2026-04-19T09:46:34.828Z</time></trkpt><trkpt lat="44.3762889" lon="11.1688958"><ele>645.5</ele><time>2026-04-19T09:46:35.827Z</time></trkpt><trkpt lat="44.3763648" lon="11.1690595"><ele>642.0</ele><time>2026-04-19T09:46:36.827Z</time></trkpt><trkpt lat="44.3764412" lon="11.1692178"><ele>641.75</ele><time>2026-04-19T09:46:37.827Z</time></trkpt><trkpt lat="44.37652" lon="11.1693888"><ele>641.5</ele><time>2026-04-19T09:46:38.827Z</time></trkpt><trkpt lat="44.3765944" lon="11.1695431"><ele>641.25</ele><time>2026-04-19T09:46:39.827Z</time></trkpt><trkpt lat="44.3766655" lon="11.1696956"><ele>641.0</ele><time>2026-04-19T09:46:40.827Z</time></trkpt><trkpt lat="44.3767293" lon="11.1698423"><ele>639.8333333333333</ele><time>2026-04-19T09:46:41.828Z</time></trkpt><trkpt lat="44.3767808" lon="11.1699855"><ele>638.6666666666666</ele><time>2026-04-19T09:46:42.827Z</time></trkpt><trkpt lat="44.3768172" lon="11.1701132"><ele>637.5</ele><time>2026-04-19T09:46:43.827Z</time></trkpt><trkpt lat="44.3768474" lon="11.1702194"><ele>636.3333333333334</ele><time>2026-04-19T09:46:44.827Z</time></trkpt><trkpt lat="44.3768496" lon="11.1703122"><ele>635.1666666666667</ele><time>2026-04-19T09:46:45.827Z</time></trkpt><trkpt lat="44.3768262" lon="11.170401"><ele>634.0</ele><time>2026-04-19T09:46:46.827Z</time></trkpt><trkpt lat="44.3767787" lon="11.1704853"><ele>634.0</ele><time>2026-04-19T09:46:47.827Z</time></trkpt><trkpt lat="44.3767105" lon="11.170567"><ele>634.0</ele><time>2026-04-19T09:46:48.827Z</time></trkpt><trkpt lat="44.376622" lon="11.1706386"><ele>634.0</ele><time>2026-04-19T09:46:49.827Z</time></trkpt><trkpt lat="44.3765346" lon="11.1707063"><ele>634.0</ele><time>2026-04-19T09:46:50.827Z</time></trkpt><trkpt lat="44.3764434" lon="11.1707727"><ele>634.0</ele><time>2026-04-19T09:46:51.827Z</time></trkpt><trkpt lat="44.3763525" lon="11.1708367"><ele>632.6</ele><time>2026-04-19T09:46:52.828Z</time></trkpt><trkpt lat="44.3762643" lon="11.1709072"><ele>631.2</ele><time>2026-04-19T09:46:53.828Z</time></trkpt><trkpt lat="44.3761813" lon="11.1709764"><ele>629.8000000000001</ele><time>2026-04-19T09:46:54.827Z</time></trkpt><trkpt lat="44.376099" lon="11.1710403"><ele>628.4</ele><time>2026-04-19T09:46:55.827Z</time></trkpt><trkpt lat="44.3760233" lon="11.1711042"><ele>627.0</ele><time>2026-04-19T09:46:56.828Z</time></trkpt><trkpt lat="44.3759533" lon="11.1711589"><ele>627.0</ele><time>2026-04-19T09:46:57.828Z</time></trkpt><trkpt lat="44.3758951" lon="11.171215"><ele>627.0</ele><time>2026-04-19T09:46:58.827Z</time></trkpt><trkpt lat="44.3758089" lon="11.1712943"><ele>627.0</ele><time>2026-04-19T09:47:00.827Z</time></trkpt><trkpt lat="44.3757334" lon="11.1712928"><ele>627.0</ele><time>2026-04-19T09:48:54.828Z</time></trkpt><trkpt lat="44.3756437" lon="11.1712109"><ele>627.0</ele><time>2026-04-19T09:48:57.827Z</time></trkpt><trkpt lat="44.3755621" lon="11.1711113"><ele>628.2857142857143</ele><time>2026-04-19T09:48:59.828Z</time></trkpt><trkpt lat="44.3755105" lon="11.1710602"><ele>629.5714285714286</ele><time>2026-04-19T09:49:00.828Z</time></trkpt><trkpt lat="44.3754552" lon="11.1710034"><ele>630.8571428571429</ele><time>2026-04-19T09:49:01.828Z</time></trkpt><trkpt lat="44.3753918" lon="11.1709433"><ele>632.1428571428571</ele><time>2026-04-19T09:49:02.827Z</time></trkpt><trkpt lat="44.3753312" lon="11.1708828"><ele>633.4285714285714</ele><time>2026-04-19T09:49:03.827Z</time></trkpt><trkpt lat="44.3752711" lon="11.1708257"><ele>634.7142857142857</ele><time>2026-04-19T09:49:04.828Z</time></trkpt><trkpt lat="44.3752071" lon="11.1707709"><ele>636.0</ele><time>2026-04-19T09:49:05.827Z</time></trkpt><trkpt lat="44.3751476" lon="11.1707129"><ele>635.6666666666666</ele><time>2026-04-19T09:49:06.827Z</time></trkpt><trkpt lat="44.3750882" lon="11.1706583"><ele>635.3333333333334</ele><time>2026-04-19T09:49:07.828Z</time></trkpt><trkpt lat="44.3750274" lon="11.1706021"><ele>635.0</ele><time>2026-04-19T09:49:08.828Z</time></trkpt><trkpt lat="44.3749675" lon="11.1705459"><ele>634.6666666666667</ele><time>2026-04-19T09:49:09.828Z</time></trkpt><trkpt lat="44.3749128" lon="11.1704934"><ele>634.3333333333334</ele><time>2026-04-19T09:49:10.828Z</time></trkpt><trkpt lat="44.3748104" lon="11.170399"><ele>634.0</ele><time>2026-04-19T09:49:12.827Z</time></trkpt><trkpt lat="44.3747198" lon="11.1703178"><ele>634.1666666666667</ele><time>2026-04-19T09:49:14.827Z</time></trkpt><trkpt lat="44.3746528" lon="11.1702574"><ele>634.3333333333334</ele><time>2026-04-19T09:49:16.827Z</time></trkpt><trkpt lat="44.3745844" lon="11.170186"><ele>634.5</ele><time>2026-04-19T09:49:19.827Z</time></trkpt><trkpt lat="44.3745185" lon="11.1701286"><ele>634.6666666666666</ele><time>2026-04-19T09:49:23.827Z</time></trkpt><trkpt lat="44.3744659" lon="11.1702208"><ele>634.8333333333333</ele><time>2026-04-19T09:49:29.827Z</time></trkpt><trkpt lat="44.3744618" lon="11.170314"><ele>635.0</ele><time>2026-04-19T09:49:31.828Z</time></trkpt><trkpt lat="44.3744887" lon="11.1704298"><ele>635.0</ele><time>2026-04-19T09:49:33.827Z</time></trkpt><trkpt lat="44.3745213" lon="11.1705853"><ele>635.0</ele><time>2026-04-19T09:49:35.827Z</time></trkpt><trkpt lat="44.374546" lon="11.1707418"><ele>635.0</ele><time>2026-04-19T09:49:37.827Z</time></trkpt><trkpt lat="44.3745418" lon="11.1708335"><ele>635.0</ele><time>2026-04-19T09:49:38.827Z</time></trkpt><trkpt lat="44.3745312" lon="11.1709305"><ele>635.0</ele><time>2026-04-19T09:49:39.828Z</time></trkpt><trkpt lat="44.3745193" lon="11.1710328"><ele>635.0</ele><time>2026-04-19T09:49:40.827Z</time></trkpt><trkpt lat="44.3745111" lon="11.1711288"><ele>635.5</ele><time>2026-04-19T09:49:41.828Z</time></trkpt><trkpt lat="44.3745043" lon="11.1712297"><ele>636.0</ele><time>2026-04-19T09:49:42.827Z</time></trkpt><trkpt lat="44.3744933" lon="11.1713575"><ele>636.5</ele><time>2026-04-19T09:49:43.828Z</time></trkpt><trkpt lat="44.3744841" lon="11.1714521"><ele>637.0</ele><time>2026-04-19T09:49:44.828Z</time></trkpt><trkpt lat="44.3744715" lon="11.1715394"><ele>637.5</ele><time>2026-04-19T09:49:45.827Z</time></trkpt><trkpt lat="44.3744288" lon="11.1716778"><ele>638.0</ele><time>2026-04-19T09:49:47.827Z</time></trkpt><trkpt lat="44.3743948" lon="11.1718161"><ele>638.0</ele><time>2026-04-19T09:49:49.827Z</time></trkpt><trkpt lat="44.3743713" lon="11.1719031"><ele>638.0</ele><time>2026-04-19T09:49:51.827Z</time></trkpt><trkpt lat="44.3743142" lon="11.1719936"><ele>638.0</ele><time>2026-04-19T09:49:52.828Z</time></trkpt><trkpt lat="44.3742508" lon="11.1721149"><ele>638.0</ele><time>2026-04-19T09:49:54.827Z</time></trkpt><trkpt lat="44.3741822" lon="11.1721944"><ele>638.0</ele><time>2026-04-19T09:49:55.827Z</time></trkpt><trkpt lat="44.3741346" lon="11.172262"><ele>638.0</ele><time>2026-04-19T09:49:56.827Z</time></trkpt><trkpt lat="44.3740465" lon="11.1723684"><ele>637.25</ele><time>2026-04-19T09:49:58.827Z</time></trkpt><trkpt lat="44.3739677" lon="11.1724851"><ele>636.5</ele><time>2026-04-19T09:50:00.827Z</time></trkpt><trkpt lat="44.3739003" lon="11.1726067"><ele>635.75</ele><time>2026-04-19T09:50:02.827Z</time></trkpt><trkpt lat="44.3738442" lon="11.1727491"><ele>635.0</ele><time>2026-04-19T09:50:03.827Z</time></trkpt><trkpt lat="44.3738288" lon="11.1729158"><ele>633.0</ele><time>2026-04-19T09:50:05.828Z</time></trkpt><trkpt lat="44.3737937" lon="11.1729965"><ele>631.0</ele><time>2026-04-19T09:50:06.827Z</time></trkpt><trkpt lat="44.3737603" lon="11.1730747"><ele>629.0</ele><time>2026-04-19T09:50:07.828Z</time></trkpt><trkpt lat="44.3736757" lon="11.1732021"><ele>627.0</ele><time>2026-04-19T09:50:09.828Z</time></trkpt><trkpt lat="44.3736253" lon="11.1733609"><ele>625.0</ele><time>2026-04-19T09:50:11.827Z</time></trkpt><trkpt lat="44.3735702" lon="11.1734831"><ele>623.8333333333334</ele><time>2026-04-19T09:50:13.827Z</time></trkpt><trkpt lat="44.3735015" lon="11.1736283"><ele>622.6666666666667</ele><time>2026-04-19T09:50:16.828Z</time></trkpt><trkpt lat="44.373451" lon="11.1737222"><ele>621.5</ele><time>2026-04-19T09:50:18.828Z</time></trkpt><trkpt lat="44.3734005" lon="11.1737872"><ele>620.3333333333334</ele><time>2026-04-19T09:50:20.827Z</time></trkpt><trkpt lat="44.3733624" lon="11.1738602"><ele>619.1666666666666</ele><time>2026-04-19T09:50:23.827Z</time></trkpt><trkpt lat="44.3733603" lon="11.1739496"><ele>618.0</ele><time>2026-04-19T09:50:26.827Z</time></trkpt><trkpt lat="44.3733268" lon="11.1740293"><ele>617.5</ele><time>2026-04-19T09:50:29.827Z</time></trkpt><trkpt lat="44.3733015" lon="11.1741117"><ele>617.0</ele><time>2026-04-19T09:50:31.827Z</time></trkpt><trkpt lat="44.3732552" lon="11.1742244"><ele>616.5</ele><time>2026-04-19T09:50:34.828Z</time></trkpt><trkpt lat="44.3732106" lon="11.1743187"><ele>616.0</ele><time>2026-04-19T09:50:36.827Z</time></trkpt><trkpt lat="44.3731612" lon="11.1744208"><ele>615.5</ele><time>2026-04-19T09:50:38.828Z</time></trkpt><trkpt lat="44.3731041" lon="11.1745135"><ele>615.0</ele><time>2026-04-19T09:50:40.827Z</time></trkpt><trkpt lat="44.3730014" lon="11.1746306"><ele>611.1666666666666</ele><time>2026-04-19T09:50:42.828Z</time></trkpt><trkpt lat="44.3729139" lon="11.1747133"><ele>607.3333333333334</ele><time>2026-04-19T09:50:44.827Z</time></trkpt><trkpt lat="44.3728556" lon="11.174747"><ele>603.5</ele><time>2026-04-19T09:50:45.827Z</time></trkpt><trkpt lat="44.3727878" lon="11.1747901"><ele>599.6666666666667</ele><time>2026-04-19T09:50:47.828Z</time></trkpt><trkpt lat="44.3727132" lon="11.1748543"><ele>595.8333333333334</ele><time>2026-04-19T09:50:51.827Z</time></trkpt><trkpt lat="44.3726705" lon="11.1749675"><ele>592.0</ele><time>2026-04-19T09:50:54.828Z</time></trkpt><trkpt lat="44.3726076" lon="11.1750497"><ele>592.0</ele><time>2026-04-19T09:50:56.827Z</time></trkpt><trkpt lat="44.3725279" lon="11.1751247"><ele>592.0</ele><time>2026-04-19T09:50:59.827Z</time></trkpt><trkpt lat="44.372496" lon="11.1752109"><ele>592.0</ele><time>2026-04-19T09:51:00.827Z</time></trkpt><trkpt lat="44.372422" lon="11.1752854"><ele>592.0</ele><time>2026-04-19T09:51:02.827Z</time></trkpt><trkpt lat="44.3723563" lon="11.1753805"><ele>592.0</ele><time>2026-04-19T09:51:04.828Z</time></trkpt><trkpt lat="44.3723173" lon="11.1754513"><ele>592.0</ele><time>2026-04-19T09:51:07.827Z</time></trkpt><trkpt lat="44.3722525" lon="11.1754891"><ele>592.0</ele><time>2026-04-19T09:52:16.827Z</time></trkpt><trkpt lat="44.3722076" lon="11.1756064"><ele>592.0</ele><time>2026-04-19T09:52:18.827Z</time></trkpt><trkpt lat="44.3721333" lon="11.1756937"><ele>592.0</ele><time>2026-04-19T09:52:20.828Z</time></trkpt><trkpt lat="44.3720802" lon="11.1758106"><ele>592.0</ele><time>2026-04-19T09:52:22.827Z</time></trkpt><trkpt lat="44.3720221" lon="11.1759366"><ele>592.0</ele><time>2026-04-19T09:52:24.827Z</time></trkpt><trkpt lat="44.3719552" lon="11.1760568"><ele>590.0</ele><time>2026-04-19T09:52:26.827Z</time></trkpt><trkpt lat="44.3718884" lon="11.1761118"><ele>588.0</ele><time>2026-04-19T09:52:28.827Z</time></trkpt><trkpt lat="44.371821" lon="11.1762034"><ele>586.0</ele><time>2026-04-19T09:52:30.827Z</time></trkpt><trkpt lat="44.3717602" lon="11.1762709"><ele>584.0</ele><time>2026-04-19T09:52:32.827Z</time></trkpt><trkpt lat="44.3717163" lon="11.176336"><ele>582.0</ele><time>2026-04-19T09:52:35.828Z</time></trkpt><trkpt lat="44.3717058" lon="11.1764341"><ele>580.0</ele><time>2026-04-19T09:55:05.827Z</time></trkpt><trkpt lat="44.3716767" lon="11.176525"><ele>580.0</ele><time>2026-04-19T09:55:39.827Z</time></trkpt><trkpt lat="44.3716881" lon="11.1764361"><ele>580.0</ele><time>2026-04-19T09:56:11.827Z</time></trkpt><trkpt lat="44.3716961" lon="11.1763367"><ele>580.0</ele><time>2026-04-19T09:56:37.827Z</time></trkpt><trkpt lat="44.3717566" lon="11.1762834"><ele>580.0</ele><time>2026-04-19T09:57:25.828Z</time></trkpt><trkpt lat="44.3717191" lon="11.1763835"><ele>580.0</ele><time>2026-04-19T09:57:30.827Z</time></trkpt><trkpt lat="44.3716852" lon="11.1764769"><ele>580.0</ele><time>2026-04-19T09:57:34.827Z</time></trkpt><trkpt lat="44.3716549" lon="11.1765579"><ele>580.0</ele><time>2026-04-19T09:57:40.827Z</time></trkpt><trkpt lat="44.3716064" lon="11.1766338"><ele>579.0</ele><time>2026-04-19T09:57:45.828Z</time></trkpt><trkpt lat="44.371544" lon="11.1766844"><ele>578.0</ele><time>2026-04-19T09:57:51.827Z</time></trkpt><trkpt lat="44.3714819" lon="11.1767079"><ele>577.0</ele><time>2026-04-19T09:57:53.827Z</time></trkpt><trkpt lat="44.3714091" lon="11.1767672"><ele>576.0</ele><time>2026-04-19T09:57:57.827Z</time></trkpt><trkpt lat="44.3713411" lon="11.1768412"><ele>575.0</ele><time>2026-04-19T09:58:00.827Z</time></trkpt><trkpt lat="44.3712741" lon="11.1769169"><ele>574.0</ele><time>2026-04-19T09:58:03.827Z</time></trkpt><trkpt lat="44.3712329" lon="11.1770213"><ele>569.4285714285714</ele><time>2026-04-19T09:58:06.828Z</time></trkpt><trkpt lat="44.3712016" lon="11.1771022"><ele>564.8571428571429</ele><time>2026-04-19T09:58:27.827Z</time></trkpt><trkpt lat="44.3711487" lon="11.1771627"><ele>560.2857142857142</ele><time>2026-04-19T09:58:32.827Z</time></trkpt><trkpt lat="44.3710859" lon="11.1771892"><ele>555.7142857142858</ele><time>2026-04-19T09:58:35.827Z</time></trkpt><trkpt lat="44.3710203" lon="11.1772058"><ele>551.1428571428571</ele><time>2026-04-19T09:58:37.827Z</time></trkpt><trkpt lat="44.3709496" lon="11.1772436"><ele>546.5714285714286</ele><time>2026-04-19T09:58:39.828Z</time></trkpt><trkpt lat="44.3708674" lon="11.1772654"><ele>542.0</ele><time>2026-04-19T09:58:45.827Z</time></trkpt><trkpt lat="44.3708093" lon="11.1773107"><ele>542.0</ele><time>2026-04-19T09:59:11.828Z</time></trkpt><trkpt lat="44.3708683" lon="11.1774926"><ele>542.0</ele><time>2026-04-19T10:00:20.836Z</time></trkpt><trkpt lat="44.3707958" lon="11.1773339"><ele>542.0</ele><time>2026-04-19T10:03:32.828Z</time></trkpt><trkpt lat="44.3707232" lon="11.1773479"><ele>542.0</ele><time>2026-04-19T10:03:37.824Z</time></trkpt><trkpt lat="44.3707847" lon="11.177318"><ele>542.0</ele><time>2026-04-19T10:04:38.824Z</time></trkpt><trkpt lat="44.3708508" lon="11.1772879"><ele>542.0</ele><time>2026-04-19T10:06:20.824Z</time></trkpt><trkpt lat="44.3709176" lon="11.1772314"><ele>542.0</ele><time>2026-04-19T10:06:24.824Z</time></trkpt><trkpt lat="44.3710053" lon="11.1772055"><ele>542.0</ele><time>2026-04-19T10:06:27.824Z</time></trkpt><trkpt lat="44.3710703" lon="11.1771914"><ele>542.0</ele><time>2026-04-19T10:06:31.824Z</time></trkpt><trkpt lat="44.3709978" lon="11.1771773"><ele>542.0</ele><time>2026-04-19T10:06:58.825Z</time></trkpt><trkpt lat="44.3709187" lon="11.1772181"><ele>542.0</ele><time>2026-04-19T10:07:01.824Z</time></trkpt><trkpt lat="44.3708617" lon="11.1772612"><ele>542.0</ele><time>2026-04-19T10:07:04.824Z</time></trkpt><trkpt lat="44.370922" lon="11.1772057"><ele>542.0</ele><time>2026-04-19T10:08:07.824Z</time></trkpt><trkpt lat="44.3709805" lon="11.1771501"><ele>542.0</ele><time>2026-04-19T10:08:47.825Z</time></trkpt><trkpt lat="44.3709274" lon="11.1771996"><ele>542.0</ele><time>2026-04-19T10:09:04.825Z</time></trkpt><trkpt lat="44.3708704" lon="11.1772485"><ele>542.0</ele><time>2026-04-19T10:09:08.639Z</time></trkpt><trkpt lat="44.3709281" lon="11.1772056"><ele>542.0</ele><time>2026-04-19T10:09:41.824Z</time></trkpt><trkpt lat="44.3709806" lon="11.1771533"><ele>542.0</ele><time>2026-04-19T10:09:43.825Z</time></trkpt><trkpt lat="44.3710452" lon="11.1771002"><ele>542.0</ele><time>2026-04-19T10:09:46.825Z</time></trkpt><trkpt lat="44.3711179" lon="11.1770543"><ele>542.0</ele><time>2026-04-19T10:09:50.824Z</time></trkpt><trkpt lat="44.3711833" lon="11.1770571"><ele>542.0</ele><time>2026-04-19T10:10:01.825Z</time></trkpt><trkpt lat="44.3712431" lon="11.1769922"><ele>542.0</ele><time>2026-04-19T10:10:20.824Z</time></trkpt><trkpt lat="44.3712912" lon="11.176921"><ele>542.0</ele><time>2026-04-19T10:14:13.825Z</time></trkpt><trkpt lat="44.3713484" lon="11.1768571"><ele>542.0</ele><time>2026-04-19T10:14:16.825Z</time></trkpt><trkpt lat="44.3714175" lon="11.1767877"><ele>542.0</ele><time>2026-04-19T10:14:18.824Z</time></trkpt><trkpt lat="44.371475" lon="11.1767387"><ele>542.0</ele><time>2026-04-19T10:14:21.824Z</time></trkpt><trkpt lat="44.3714141" lon="11.176783"><ele>542.0</ele><time>2026-04-19T10:25:14.824Z</time></trkpt><trkpt lat="44.371349" lon="11.1768478"><ele>542.0</ele><time>2026-04-19T10:26:29.825Z</time></trkpt><trkpt lat="44.3714376" lon="11.1767756"><ele>542.0</ele><time>2026-04-19T10:29:11.786Z</time></trkpt><trkpt lat="44.3713818" lon="11.1768272"><ele>542.0</ele><time>2026-04-19T10:35:11.824Z</time></trkpt><trkpt lat="44.3714408" lon="11.1767873"><ele>542.0</ele><time>2026-04-19T10:43:28.824Z</time></trkpt><trkpt lat="44.3714566" lon="11.1766988"><ele>542.0</ele><time>2026-04-19T10:43:43.825Z</time></trkpt><trkpt lat="44.3714768" lon="11.1765924"><ele>547.4285714285714</ele><time>2026-04-19T10:44:16.825Z</time></trkpt><trkpt lat="44.371465" lon="11.1764919"><ele>552.8571428571429</ele><time>2026-04-19T10:44:19.825Z</time></trkpt><trkpt lat="44.3714934" lon="11.1763847"><ele>558.2857142857143</ele><time>2026-04-19T10:44:29.825Z</time></trkpt><trkpt lat="44.3714743" lon="11.1762771"><ele>563.7142857142858</ele><time>2026-04-19T10:45:08.824Z</time></trkpt><trkpt lat="44.371498" lon="11.1763632"><ele>569.1428571428572</ele><time>2026-04-19T10:46:56.825Z</time></trkpt><trkpt lat="44.3715453" lon="11.1762951"><ele>574.5714285714286</ele><time>2026-04-19T10:58:51.824Z</time></trkpt><trkpt lat="44.3715333" lon="11.1762054"><ele>580.0</ele><time>2026-04-19T10:59:25.824Z</time></trkpt><trkpt lat="44.3714963" lon="11.1761299"><ele>580.0</ele><time>2026-04-19T10:59:32.824Z</time></trkpt><trkpt lat="44.3715254" lon="11.1762165"><ele>580.0</ele><time>2026-04-19T11:00:03.824Z</time></trkpt><trkpt lat="44.3715114" lon="11.1763187"><ele>580.0</ele><time>2026-04-19T11:00:33.825Z</time></trkpt><trkpt lat="44.3714786" lon="11.1764021"><ele>580.0</ele><time>2026-04-19T11:00:45.911Z</time></trkpt><trkpt lat="44.3714571" lon="11.1764894"><ele>580.0</ele><time>2026-04-19T11:00:51.76Z</time></trkpt><trkpt lat="44.3714445" lon="11.176584"><ele>580.0</ele><time>2026-04-19T11:00:57.824Z</time></trkpt><trkpt lat="44.3714495" lon="11.1766718"><ele>580.0</ele><time>2026-04-19T11:01:05.921Z</time></trkpt><trkpt lat="44.371409" lon="11.1767517"><ele>580.0</ele><time>2026-04-19T11:01:13.824Z</time></trkpt><trkpt lat="44.3714523" lon="11.1766848"><ele>580.0</ele><time>2026-04-19T11:22:08.825Z</time></trkpt><trkpt lat="44.371458" lon="11.1765828"><ele>580.0</ele><time>2026-04-19T11:22:30.825Z</time></trkpt><trkpt lat="44.371455" lon="11.1764852"><ele>580.0</ele><time>2026-04-19T11:22:36.824Z</time></trkpt><trkpt lat="44.37146" lon="11.1763969"><ele>580.0</ele><time>2026-04-19T11:22:44.839Z</time></trkpt><trkpt lat="44.3715209" lon="11.1763577"><ele>580.0</ele><time>2026-04-19T11:23:09.902Z</time></trkpt><trkpt lat="44.3715411" lon="11.1762618"><ele>580.0</ele><time>2026-04-19T11:25:16.824Z</time></trkpt><trkpt lat="44.371602" lon="11.176219"><ele>580.0</ele><time>2026-04-19T11:27:34.824Z</time></trkpt><trkpt lat="44.3716346" lon="11.1762955"><ele>580.0</ele><time>2026-04-19T11:27:44.824Z</time></trkpt><trkpt lat="44.3716047" lon="11.1762102"><ele>580.0</ele><time>2026-04-19T11:30:11.824Z</time></trkpt><trkpt lat="44.3715382" lon="11.1762356"><ele>580.0</ele><time>2026-04-19T11:30:31.824Z</time></trkpt><trkpt lat="44.3715122" lon="11.1763194"><ele>580.0</ele><time>2026-04-19T11:30:41.824Z</time></trkpt><trkpt lat="44.3714754" lon="11.176395"><ele>580.0</ele><time>2026-04-19T11:30:55.824Z</time></trkpt><trkpt lat="44.3714546" lon="11.1764902"><ele>580.0</ele><time>2026-04-19T11:31:03.825Z</time></trkpt><trkpt lat="44.3714493" lon="11.1765836"><ele>580.0</ele><time>2026-04-19T11:31:09.824Z</time></trkpt><trkpt lat="44.3714327" lon="11.1766719"><ele>580.0</ele><time>2026-04-19T11:31:16.824Z</time></trkpt><trkpt lat="44.3714477" lon="11.1765801"><ele>580.0</ele><time>2026-04-19T11:32:48.825Z</time></trkpt><trkpt lat="44.3714722" lon="11.1764962"><ele>580.0</ele><time>2026-04-19T11:33:02.824Z</time></trkpt><trkpt lat="44.3714981" lon="11.1764117"><ele>580.0</ele><time>2026-04-19T11:33:15.824Z</time></trkpt><trkpt lat="44.3715337" lon="11.1763283"><ele>580.0</ele><time>2026-04-19T11:33:29.83Z</time></trkpt><trkpt lat="44.3715605" lon="11.1762456"><ele>580.0</ele><time>2026-04-19T11:33:41.824Z</time></trkpt><trkpt lat="44.3715131" lon="11.1761867"><ele>580.0</ele><time>2026-04-19T11:34:18.896Z</time></trkpt><trkpt lat="44.3715848" lon="11.1761773"><ele>580.0</ele><time>2026-04-19T11:36:52.824Z</time></trkpt><trkpt lat="44.3716468" lon="11.1762093"><ele>580.0</ele><time>2026-04-19T11:36:54.825Z</time></trkpt><trkpt lat="44.3717019" lon="11.176256"><ele>580.0</ele><time>2026-04-19T11:36:57.824Z</time></trkpt><trkpt lat="44.3717677" lon="11.17622"><ele>580.0</ele><time>2026-04-19T11:40:45.824Z</time></trkpt><trkpt lat="44.3718322" lon="11.1761579"><ele>580.0</ele><time>2026-04-19T11:40:48.825Z</time></trkpt><trkpt lat="44.3718851" lon="11.1760721"><ele>580.0</ele><time>2026-04-19T11:40:51.824Z</time></trkpt><trkpt lat="44.3719568" lon="11.1759885"><ele>580.0</ele><time>2026-04-19T11:40:55.824Z</time></trkpt><trkpt lat="44.3720188" lon="11.1758871"><ele>580.0</ele><time>2026-04-19T11:40:56.824Z</time></trkpt><trkpt lat="44.3721001" lon="11.1757335"><ele>580.0</ele><time>2026-04-19T11:40:59.825Z</time></trkpt><trkpt lat="44.3721604" lon="11.1756459"><ele>580.0</ele><time>2026-04-19T11:41:01.824Z</time></trkpt><trkpt lat="44.3722393" lon="11.175528"><ele>580.0</ele><time>2026-04-19T11:41:04.824Z</time></trkpt><trkpt lat="44.3723074" lon="11.1754583"><ele>582.0</ele><time>2026-04-19T11:41:06.825Z</time></trkpt><trkpt lat="44.372356" lon="11.1753919"><ele>584.0</ele><time>2026-04-19T11:41:07.824Z</time></trkpt><trkpt lat="44.3724258" lon="11.1753321"><ele>586.0</ele><time>2026-04-19T11:41:09.824Z</time></trkpt><trkpt lat="44.3724553" lon="11.1752305"><ele>588.0</ele><time>2026-04-19T11:41:11.824Z</time></trkpt><trkpt lat="44.3725083" lon="11.1751417"><ele>590.0</ele><time>2026-04-19T11:41:13.825Z</time></trkpt><trkpt lat="44.3725704" lon="11.1750621"><ele>592.0</ele><time>2026-04-19T11:41:15.824Z</time></trkpt><trkpt lat="44.3726035" lon="11.1749771"><ele>592.0</ele><time>2026-04-19T11:41:17.825Z</time></trkpt><trkpt lat="44.3726679" lon="11.1748735"><ele>592.0</ele><time>2026-04-19T11:41:19.825Z</time></trkpt><trkpt lat="44.3728008" lon="11.1747881"><ele>592.0</ele><time>2026-04-19T11:41:21.824Z</time></trkpt><trkpt lat="44.3728996" lon="11.1747125"><ele>592.0</ele><time>2026-04-19T11:41:23.824Z</time></trkpt><trkpt lat="44.372996" lon="11.1746135"><ele>595.8333333333334</ele><time>2026-04-19T11:41:25.825Z</time></trkpt><trkpt lat="44.3730762" lon="11.1745152"><ele>599.6666666666667</ele><time>2026-04-19T11:41:27.824Z</time></trkpt><trkpt lat="44.3731207" lon="11.1744364"><ele>603.5</ele><time>2026-04-19T11:41:29.824Z</time></trkpt><trkpt lat="44.3731747" lon="11.1743743"><ele>607.3333333333334</ele><time>2026-04-19T11:41:31.824Z</time></trkpt><trkpt lat="44.3732358" lon="11.1742664"><ele>611.1666666666666</ele><time>2026-04-19T11:41:34.824Z</time></trkpt><trkpt lat="44.3732693" lon="11.1741512"><ele>615.0</ele><time>2026-04-19T11:41:36.824Z</time></trkpt><trkpt lat="44.3733225" lon="11.1740481"><ele>615.5</ele><time>2026-04-19T11:41:38.824Z</time></trkpt><trkpt lat="44.3733438" lon="11.173929"><ele>616.0</ele><time>2026-04-19T11:41:40.824Z</time></trkpt><trkpt lat="44.3733679" lon="11.17384"><ele>616.5</ele><time>2026-04-19T11:41:42.824Z</time></trkpt><trkpt lat="44.3734181" lon="11.1737512"><ele>617.0</ele><time>2026-04-19T11:41:48.824Z</time></trkpt><trkpt lat="44.3734601" lon="11.173675"><ele>617.5</ele><time>2026-04-19T11:41:50.824Z</time></trkpt><trkpt lat="44.3735072" lon="11.1735913"><ele>618.0</ele><time>2026-04-19T11:41:52.825Z</time></trkpt><trkpt lat="44.3735459" lon="11.1735047"><ele>618.0</ele><time>2026-04-19T11:41:54.824Z</time></trkpt><trkpt lat="44.3735925" lon="11.173423"><ele>618.0</ele><time>2026-04-19T11:41:56.825Z</time></trkpt><trkpt lat="44.3736325" lon="11.1733528"><ele>618.0</ele><time>2026-04-19T11:41:57.825Z</time></trkpt><trkpt lat="44.3736698" lon="11.1732413"><ele>618.0</ele><time>2026-04-19T11:41:59.825Z</time></trkpt><trkpt lat="44.3737196" lon="11.1731347"><ele>618.0</ele><time>2026-04-19T11:42:01.824Z</time></trkpt><trkpt lat="44.3737808" lon="11.1730038"><ele>618.0</ele><time>2026-04-19T11:42:03.824Z</time></trkpt><trkpt lat="44.3738139" lon="11.1728585"><ele>619.4</ele><time>2026-04-19T11:42:05.824Z</time></trkpt><trkpt lat="44.3738451" lon="11.1727057"><ele>620.8</ele><time>2026-04-19T11:42:07.824Z</time></trkpt><trkpt lat="44.3738942" lon="11.1726055"><ele>622.2</ele><time>2026-04-19T11:42:09.824Z</time></trkpt><trkpt lat="44.3739721" lon="11.1725048"><ele>623.6</ele><time>2026-04-19T11:42:11.824Z</time></trkpt><trkpt lat="44.3740503" lon="11.1724057"><ele>625.0</ele><time>2026-04-19T11:42:13.824Z</time></trkpt><trkpt lat="44.3740969" lon="11.1723407"><ele>627.6</ele><time>2026-04-19T11:42:14.824Z</time></trkpt><trkpt lat="44.3741369" lon="11.1722704"><ele>630.2</ele><time>2026-04-19T11:42:15.824Z</time></trkpt><trkpt lat="44.3741823" lon="11.1722085"><ele>632.8</ele><time>2026-04-19T11:42:16.824Z</time></trkpt><trkpt lat="44.374252" lon="11.1720979"><ele>635.4</ele><time>2026-04-19T11:42:18.824Z</time></trkpt><trkpt lat="44.3743433" lon="11.1719369"><ele>638.0</ele><time>2026-04-19T11:42:21.824Z</time></trkpt><trkpt lat="44.3743734" lon="11.1718071"><ele>638.0</ele><time>2026-04-19T11:42:23.824Z</time></trkpt><trkpt lat="44.3744188" lon="11.1716886"><ele>638.0</ele><time>2026-04-19T11:42:25.825Z</time></trkpt><trkpt lat="44.3744483" lon="11.1715339"><ele>638.0</ele><time>2026-04-19T11:42:27.825Z</time></trkpt><trkpt lat="44.3744659" lon="11.1714024"><ele>638.0</ele><time>2026-04-19T11:42:29.824Z</time></trkpt><trkpt lat="44.3744803" lon="11.1712575"><ele>638.0</ele><time>2026-04-19T11:42:31.824Z</time></trkpt><trkpt lat="44.3744915" lon="11.1711378"><ele>637.5</ele><time>2026-04-19T11:42:33.825Z</time></trkpt><trkpt lat="44.3745082" lon="11.1709914"><ele>637.0</ele><time>2026-04-19T11:42:35.825Z</time></trkpt><trkpt lat="44.3745015" lon="11.1709028"><ele>636.5</ele><time>2026-04-19T11:42:36.825Z</time></trkpt><trkpt lat="44.3744825" lon="11.1707543"><ele>636.0</ele><time>2026-04-19T11:42:38.824Z</time></trkpt><trkpt lat="44.374457" lon="11.1706255"><ele>635.5</ele><time>2026-04-19T11:42:40.824Z</time></trkpt><trkpt lat="44.3744526" lon="11.1705291"><ele>635.0</ele><time>2026-04-19T11:42:41.825Z</time></trkpt><trkpt lat="44.3744604" lon="11.1704218"><ele>635.0</ele><time>2026-04-19T11:42:43.824Z</time></trkpt><trkpt lat="44.3744833" lon="11.1703225"><ele>635.0</ele><time>2026-04-19T11:42:45.824Z</time></trkpt><trkpt lat="44.3745157" lon="11.1701983"><ele>635.0</ele><time>2026-04-19T11:42:47.824Z</time></trkpt><trkpt lat="44.374578" lon="11.1701505"><ele>635.0</ele><time>2026-04-19T11:42:57.824Z</time></trkpt><trkpt lat="44.3746454" lon="11.1701964"><ele>635.0</ele><time>2026-04-19T11:43:01.824Z</time></trkpt><trkpt lat="44.3746977" lon="11.1702507"><ele>635.0</ele><time>2026-04-19T11:43:02.825Z</time></trkpt><trkpt lat="44.3747653" lon="11.1703128"><ele>634.8</ele><time>2026-04-19T11:43:03.824Z</time></trkpt><trkpt lat="44.3748589" lon="11.1703958"><ele>634.6</ele><time>2026-04-19T11:43:04.824Z</time></trkpt><trkpt lat="44.3749526" lon="11.1704908"><ele>634.4</ele><time>2026-04-19T11:43:05.824Z</time></trkpt><trkpt lat="44.3750439" lon="11.1705825"><ele>634.2</ele><time>2026-04-19T11:43:06.825Z</time></trkpt><trkpt lat="44.3751335" lon="11.170667"><ele>634.0</ele><time>2026-04-19T11:43:07.825Z</time></trkpt><trkpt lat="44.3752209" lon="11.1707548"><ele>634.4</ele><time>2026-04-19T11:43:08.825Z</time></trkpt><trkpt lat="44.3753007" lon="11.1708341"><ele>634.8</ele><time>2026-04-19T11:43:09.824Z</time></trkpt><trkpt lat="44.3753819" lon="11.1709066"><ele>635.2</ele><time>2026-04-19T11:43:10.824Z</time></trkpt><trkpt lat="44.3754562" lon="11.1709764"><ele>635.6</ele><time>2026-04-19T11:43:11.824Z</time></trkpt><trkpt lat="44.3755289" lon="11.1710479"><ele>636.0</ele><time>2026-04-19T11:43:12.824Z</time></trkpt><trkpt lat="44.3755921" lon="11.171117"><ele>634.2</ele><time>2026-04-19T11:43:13.825Z</time></trkpt><trkpt lat="44.3756512" lon="11.1711917"><ele>632.4000000000001</ele><time>2026-04-19T11:43:14.825Z</time></trkpt><trkpt lat="44.375702" lon="11.1712499"><ele>630.6</ele><time>2026-04-19T11:43:15.825Z</time></trkpt><trkpt lat="44.375798" lon="11.1712873"><ele>628.8000000000001</ele><time>2026-04-19T11:43:17.825Z</time></trkpt><trkpt lat="44.3759255" lon="11.1712048"><ele>627.0</ele><time>2026-04-19T11:43:19.824Z</time></trkpt><trkpt lat="44.376007" lon="11.1711243"><ele>627.0</ele><time>2026-04-19T11:43:20.824Z</time></trkpt><trkpt lat="44.3761058" lon="11.1710515"><ele>627.0</ele><time>2026-04-19T11:43:21.824Z</time></trkpt><trkpt lat="44.376207" lon="11.1709655"><ele>627.0</ele><time>2026-04-19T11:43:22.824Z</time></trkpt><trkpt lat="44.3763134" lon="11.170869"><ele>627.0</ele><time>2026-04-19T11:43:23.824Z</time></trkpt><trkpt lat="44.3764177" lon="11.1707925"><ele>628.4</ele><time>2026-04-19T11:43:24.825Z</time></trkpt><trkpt lat="44.3765139" lon="11.1707155"><ele>629.8000000000001</ele><time>2026-04-19T11:43:25.825Z</time></trkpt><trkpt lat="44.3766047" lon="11.170646"><ele>631.2</ele><time>2026-04-19T11:43:26.824Z</time></trkpt><trkpt lat="44.3766865" lon="11.1705842"><ele>632.6</ele><time>2026-04-19T11:43:27.824Z</time></trkpt><trkpt lat="44.3767545" lon="11.1705213"><ele>634.0</ele><time>2026-04-19T11:43:28.824Z</time></trkpt><trkpt lat="44.3768085" lon="11.1704629"><ele>634.0</ele><time>2026-04-19T11:43:29.825Z</time></trkpt><trkpt lat="44.3768538" lon="11.1703233"><ele>634.0</ele><time>2026-04-19T11:43:31.824Z</time></trkpt><trkpt lat="44.3768416" lon="11.1702118"><ele>634.0</ele><time>2026-04-19T11:43:32.824Z</time></trkpt><trkpt lat="44.3768154" lon="11.1700852"><ele>634.0</ele><time>2026-04-19T11:43:33.824Z</time></trkpt><trkpt lat="44.3767772" lon="11.169945"><ele>634.0</ele><time>2026-04-19T11:43:34.824Z</time></trkpt><trkpt lat="44.3767243" lon="11.1697959"><ele>635.75</ele><time>2026-04-19T11:43:35.825Z</time></trkpt><trkpt lat="44.376658" lon="11.1696468"><ele>637.5</ele><time>2026-04-19T11:43:36.824Z</time></trkpt><trkpt lat="44.3765813" lon="11.1694984"><ele>639.25</ele><time>2026-04-19T11:43:37.825Z</time></trkpt><trkpt lat="44.3765113" lon="11.1693472"><ele>641.0</ele><time>2026-04-19T11:43:38.824Z</time></trkpt><trkpt lat="44.3764361" lon="11.1691872"><ele>641.0</ele><time>2026-04-19T11:43:39.825Z</time></trkpt><trkpt lat="44.3763592" lon="11.1690301"><ele>641.0</ele><time>2026-04-19T11:43:40.824Z</time></trkpt><trkpt lat="44.3762778" lon="11.1688703"><ele>641.0</ele><time>2026-04-19T11:43:41.825Z</time></trkpt><trkpt lat="44.3761995" lon="11.1686972"><ele>641.0</ele><time>2026-04-19T11:43:42.824Z</time></trkpt><trkpt lat="44.3761208" lon="11.1685144"><ele>641.3333333333333</ele><time>2026-04-19T11:43:43.824Z</time></trkpt><trkpt lat="44.3760465" lon="11.1683235"><ele>641.6666666666666</ele><time>2026-04-19T11:43:44.825Z</time></trkpt><trkpt lat="44.3759789" lon="11.1681271"><ele>642.0</ele><time>2026-04-19T11:43:45.824Z</time></trkpt><trkpt lat="44.3759176" lon="11.1679377"><ele>645.5</ele><time>2026-04-19T11:43:46.825Z</time></trkpt><trkpt lat="44.3758611" lon="11.1677448"><ele>649.0</ele><time>2026-04-19T11:43:47.824Z</time></trkpt><trkpt lat="44.3758114" lon="11.1675527"><ele>652.5</ele><time>2026-04-19T11:43:48.825Z</time></trkpt><trkpt lat="44.375759" lon="11.1673595"><ele>656.0</ele><time>2026-04-19T11:43:49.824Z</time></trkpt><trkpt lat="44.3757142" lon="11.1671969"><ele>655.5</ele><time>2026-04-19T11:43:50.825Z</time></trkpt><trkpt lat="44.3756572" lon="11.1670343"><ele>655.0</ele><time>2026-04-19T11:43:51.824Z</time></trkpt><trkpt lat="44.3755932" lon="11.166894"><ele>654.5</ele><time>2026-04-19T11:43:52.825Z</time></trkpt><trkpt lat="44.3755277" lon="11.1667726"><ele>654.0</ele><time>2026-04-19T11:43:53.825Z</time></trkpt><trkpt lat="44.3754572" lon="11.1666413"><ele>654.0</ele><time>2026-04-19T11:43:54.824Z</time></trkpt><trkpt lat="44.375406" lon="11.1665675"><ele>654.0</ele><time>2026-04-19T11:43:55.824Z</time></trkpt><trkpt lat="44.3753561" lon="11.1664882"><ele>654.0</ele><time>2026-04-19T11:43:56.824Z</time></trkpt><trkpt lat="44.375314" lon="11.1664167"><ele>654.0</ele><time>2026-04-19T11:43:57.824Z</time></trkpt><trkpt lat="44.3752538" lon="11.1663158"><ele>654.0</ele><time>2026-04-19T11:43:59.824Z</time></trkpt><trkpt lat="44.3752142" lon="11.1662339"><ele>654.0</ele><time>2026-04-19T11:44:02.824Z</time></trkpt><trkpt lat="44.3751657" lon="11.1661549"><ele>654.8571428571429</ele><time>2026-04-19T11:44:23.825Z</time></trkpt><trkpt lat="44.375126" lon="11.1660704"><ele>655.7142857142858</ele><time>2026-04-19T11:44:25.824Z</time></trkpt><trkpt lat="44.3750675" lon="11.165971"><ele>656.5714285714287</ele><time>2026-04-19T11:44:27.825Z</time></trkpt><trkpt lat="44.3750669" lon="11.1658757"><ele>657.4285714285714</ele><time>2026-04-19T11:45:34.824Z</time></trkpt><trkpt lat="44.3750605" lon="11.1659683"><ele>658.2857142857143</ele><time>2026-04-19T11:45:45.824Z</time></trkpt><trkpt lat="44.3750803" lon="11.1660584"><ele>659.1428571428572</ele><time>2026-04-19T11:46:21.824Z</time></trkpt><trkpt lat="44.3750661" lon="11.1661469"><ele>660.0</ele><time>2026-04-19T11:46:26.824Z</time></trkpt><trkpt lat="44.3751047" lon="11.1662198"><ele>660.0000000000001</ele><time>2026-04-19T11:46:30.825Z</time></trkpt><trkpt lat="44.3750969" lon="11.1661277"><ele>660.0</ele><time>2026-04-19T11:46:53.825Z</time></trkpt><trkpt lat="44.3750481" lon="11.1660462"><ele>660.0</ele><time>2026-04-19T11:49:23.824Z</time></trkpt><trkpt lat="44.3750596" lon="11.1659447"><ele>660.0</ele><time>2026-04-19T11:51:48.825Z</time></trkpt><trkpt lat="44.3750308" lon="11.1658461"><ele>660.0</ele><time>2026-04-19T11:53:58.824Z</time></trkpt><trkpt lat="44.3750484" lon="11.1659653"><ele>660.0000000000001</ele><time>2026-04-19T11:54:03.824Z</time></trkpt><trkpt lat="44.3750903" lon="11.1660415"><ele>660.0</ele><time>2026-04-19T11:54:05.824Z</time></trkpt><trkpt lat="44.3751373" lon="11.1661154"><ele>660.0</ele><time>2026-04-19T11:54:07.824Z</time></trkpt><trkpt lat="44.375196" lon="11.1661844"><ele>660.0</ele><time>2026-04-19T11:54:09.824Z</time></trkpt><trkpt lat="44.3752715" lon="11.1661877"><ele>660.0</ele><time>2026-04-19T11:54:11.824Z</time></trkpt><trkpt lat="44.3753288" lon="11.1661462"><ele>660.0</ele><time>2026-04-19T11:54:13.824Z</time></trkpt><trkpt lat="44.3754034" lon="11.166105"><ele>660.0</ele><time>2026-04-19T11:54:17.824Z</time></trkpt><trkpt lat="44.3754603" lon="11.1660262"><ele>660.0</ele><time>2026-04-19T11:54:25.825Z</time></trkpt><trkpt lat="44.3754769" lon="11.165908"><ele>660.0</ele><time>2026-04-19T11:54:28.824Z</time></trkpt><trkpt lat="44.3754604" lon="11.1657673"><ele>660.0</ele><time>2026-04-19T11:54:30.824Z</time></trkpt><trkpt lat="44.3754513" lon="11.1656286"><ele>660.0</ele><time>2026-04-19T11:54:32.824Z</time></trkpt><trkpt lat="44.3754475" lon="11.1654726"><ele>660.0</ele><time>2026-04-19T11:54:34.825Z</time></trkpt><trkpt lat="44.3754336" lon="11.1653155"><ele>660.0</ele><time>2026-04-19T11:54:36.825Z</time></trkpt><trkpt lat="44.3754027" lon="11.165152"><ele>657.2</ele><time>2026-04-19T11:54:38.824Z</time></trkpt><trkpt lat="44.3753474" lon="11.1650042"><ele>654.4</ele><time>2026-04-19T11:54:40.825Z</time></trkpt><trkpt lat="44.3752699" lon="11.1648646"><ele>651.5999999999999</ele><time>2026-04-19T11:54:42.825Z</time></trkpt><trkpt lat="44.3752285" lon="11.1647936"><ele>648.8</ele><time>2026-04-19T11:54:43.825Z</time></trkpt><trkpt lat="44.3751746" lon="11.1647268"><ele>646.0</ele><time>2026-04-19T11:54:44.824Z</time></trkpt><trkpt lat="44.375114" lon="11.1646752"><ele>641.3333333333334</ele><time>2026-04-19T11:54:45.824Z</time></trkpt><trkpt lat="44.3750456" lon="11.1646498"><ele>636.6666666666667</ele><time>2026-04-19T11:54:46.825Z</time></trkpt><trkpt lat="44.3749505" lon="11.1646036"><ele>632.0</ele><time>2026-04-19T11:54:48.824Z</time></trkpt><trkpt lat="44.3749642" lon="11.1645038"><ele>627.3333333333334</ele><time>2026-04-19T11:54:50.824Z</time></trkpt><trkpt lat="44.375034" lon="11.1644201"><ele>622.6666666666666</ele><time>2026-04-19T11:54:52.824Z</time></trkpt><trkpt lat="44.375125" lon="11.1644153"><ele>618.0</ele><time>2026-04-19T11:54:54.824Z</time></trkpt><trkpt lat="44.3751881" lon="11.1644213"><ele>618.0</ele><time>2026-04-19T11:54:55.825Z</time></trkpt><trkpt lat="44.3752816" lon="11.1644343"><ele>618.0</ele><time>2026-04-19T11:54:56.824Z</time></trkpt><trkpt lat="44.3753861" lon="11.1644543"><ele>618.0</ele><time>2026-04-19T11:54:57.825Z</time></trkpt><trkpt lat="44.3754956" lon="11.1644567"><ele>618.0</ele><time>2026-04-19T11:54:58.824Z</time></trkpt><trkpt lat="44.3755674" lon="11.1644315"><ele>618.0</ele><time>2026-04-19T11:54:59.824Z</time></trkpt><trkpt lat="44.3756397" lon="11.164389"><ele>616.5</ele><time>2026-04-19T11:55:00.824Z</time></trkpt><trkpt lat="44.3757057" lon="11.164335"><ele>615.0</ele><time>2026-04-19T11:55:01.824Z</time></trkpt><trkpt lat="44.3757683" lon="11.1642646"><ele>613.5</ele><time>2026-04-19T11:55:02.824Z</time></trkpt><trkpt lat="44.3758312" lon="11.1641877"><ele>612.0</ele><time>2026-04-19T11:55:03.825Z</time></trkpt><trkpt lat="44.3758977" lon="11.1641141"><ele>610.5</ele><time>2026-04-19T11:55:04.824Z</time></trkpt><trkpt lat="44.3759607" lon="11.1640397"><ele>609.0</ele><time>2026-04-19T11:55:05.824Z</time></trkpt><trkpt lat="44.3760187" lon="11.163968"><ele>604.0</ele><time>2026-04-19T11:55:06.824Z</time></trkpt><trkpt lat="44.3760665" lon="11.1638918"><ele>599.0</ele><time>2026-04-19T11:55:07.825Z</time></trkpt><trkpt lat="44.3761067" lon="11.1638103"><ele>594.0</ele><time>2026-04-19T11:55:08.824Z</time></trkpt><trkpt lat="44.3761401" lon="11.1637024"><ele>589.0</ele><time>2026-04-19T11:55:09.825Z</time></trkpt><trkpt lat="44.37621" lon="11.1634877"><ele>584.0</ele><time>2026-04-19T11:55:11.824Z</time></trkpt><trkpt lat="44.376242" lon="11.163387"><ele>584.0</ele><time>2026-04-19T11:55:12.824Z</time></trkpt><trkpt lat="44.3762821" lon="11.1632589"><ele>584.0</ele><time>2026-04-19T11:55:13.824Z</time></trkpt><trkpt lat="44.3763291" lon="11.1631143"><ele>584.0</ele><time>2026-04-19T11:55:14.825Z</time></trkpt><trkpt lat="44.3763842" lon="11.1629845"><ele>584.0</ele><time>2026-04-19T11:55:15.824Z</time></trkpt><trkpt lat="44.3764311" lon="11.1628673"><ele>584.0</ele><time>2026-04-19T11:55:16.824Z</time></trkpt><trkpt lat="44.376469" lon="11.1627424"><ele>587.0</ele><time>2026-04-19T11:55:17.824Z</time></trkpt><trkpt lat="44.3764933" lon="11.1626045"><ele>590.0</ele><time>2026-04-19T11:55:18.824Z</time></trkpt><trkpt lat="44.3765223" lon="11.1624626"><ele>593.0</ele><time>2026-04-19T11:55:19.825Z</time></trkpt><trkpt lat="44.3765441" lon="11.1623288"><ele>596.0</ele><time>2026-04-19T11:55:20.824Z</time></trkpt><trkpt lat="44.3765578" lon="11.162223"><ele>599.0</ele><time>2026-04-19T11:55:21.825Z</time></trkpt><trkpt lat="44.3765768" lon="11.1621299"><ele>599.4</ele><time>2026-04-19T11:55:22.824Z</time></trkpt><trkpt lat="44.3765897" lon="11.1620388"><ele>599.8</ele><time>2026-04-19T11:55:23.824Z</time></trkpt><trkpt lat="44.3766049" lon="11.1619457"><ele>600.2</ele><time>2026-04-19T11:55:24.825Z</time></trkpt><trkpt lat="44.37666" lon="11.1617907"><ele>600.6</ele><time>2026-04-19T11:55:26.824Z</time></trkpt><trkpt lat="44.3766992" lon="11.1617104"><ele>601.0</ele><time>2026-04-19T11:55:27.824Z</time></trkpt><trkpt lat="44.3768515" lon="11.1615476"><ele>600.1428571428571</ele><time>2026-04-19T11:55:30.825Z</time></trkpt><trkpt lat="44.3769123" lon="11.1615018"><ele>599.2857142857143</ele><time>2026-04-19T11:55:31.824Z</time></trkpt><trkpt lat="44.3769745" lon="11.1614588"><ele>598.4285714285714</ele><time>2026-04-19T11:55:32.824Z</time></trkpt><trkpt lat="44.3770458" lon="11.1614042"><ele>597.5714285714286</ele><time>2026-04-19T11:55:33.824Z</time></trkpt><trkpt lat="44.377113" lon="11.1613867"><ele>596.7142857142858</ele><time>2026-04-19T11:55:34.825Z</time></trkpt><trkpt lat="44.3771858" lon="11.1613711"><ele>595.8571428571429</ele><time>2026-04-19T11:55:35.824Z</time></trkpt><trkpt lat="44.3772548" lon="11.1613704"><ele>595.0</ele><time>2026-04-19T11:55:36.824Z</time></trkpt><trkpt lat="44.3773299" lon="11.1613558"><ele>595.0</ele><time>2026-04-19T11:55:37.824Z</time></trkpt><trkpt lat="44.377421" lon="11.1612712"><ele>595.0</ele><time>2026-04-19T11:55:39.824Z</time></trkpt><trkpt lat="44.3775122" lon="11.1611849"><ele>595.0</ele><time>2026-04-19T11:55:41.824Z</time></trkpt><trkpt lat="44.3775685" lon="11.1611287"><ele>595.0</ele><time>2026-04-19T11:55:43.824Z</time></trkpt><trkpt lat="44.3776255" lon="11.1610807"><ele>595.0</ele><time>2026-04-19T11:55:48.824Z</time></trkpt><trkpt lat="44.3777103" lon="11.1610172"><ele>595.0</ele><time>2026-04-19T11:55:50.824Z</time></trkpt><trkpt lat="44.3778385" lon="11.1609264"><ele>595.0</ele><time>2026-04-19T11:55:52.824Z</time></trkpt><trkpt lat="44.3778832" lon="11.1608559"><ele>595.0</ele><time>2026-04-19T11:55:53.824Z</time></trkpt><trkpt lat="44.377963" lon="11.1607685"><ele>595.0</ele><time>2026-04-19T11:55:54.824Z</time></trkpt><trkpt lat="44.3780152" lon="11.1607073"><ele>595.0</ele><time>2026-04-19T11:55:55.824Z</time></trkpt><trkpt lat="44.3781301" lon="11.1605599"><ele>592.0</ele><time>2026-04-19T11:55:57.825Z</time></trkpt><trkpt lat="44.3782005" lon="11.1604984"><ele>589.0</ele><time>2026-04-19T11:55:58.824Z</time></trkpt><trkpt lat="44.3782659" lon="11.1604486"><ele>586.0</ele><time>2026-04-19T11:55:59.824Z</time></trkpt><trkpt lat="44.3783537" lon="11.1603686"><ele>583.0</ele><time>2026-04-19T11:56:00.825Z</time></trkpt><trkpt lat="44.378428" lon="11.1603408"><ele>580.0</ele><time>2026-04-19T11:56:02.824Z</time></trkpt><trkpt lat="44.3785274" lon="11.160271"><ele>580.0</ele><time>2026-04-19T11:56:04.825Z</time></trkpt><trkpt lat="44.3786357" lon="11.1602521"><ele>580.0</ele><time>2026-04-19T11:56:05.825Z</time></trkpt><trkpt lat="44.3787263" lon="11.1601885"><ele>580.0</ele><time>2026-04-19T11:56:06.825Z</time></trkpt><trkpt lat="44.3788261" lon="11.1601465"><ele>580.0</ele><time>2026-04-19T11:56:07.824Z</time></trkpt><trkpt lat="44.3789178" lon="11.1601183"><ele>580.0</ele><time>2026-04-19T11:56:08.825Z</time></trkpt><trkpt lat="44.3790115" lon="11.1600872"><ele>583.0</ele><time>2026-04-19T11:56:09.825Z</time></trkpt><trkpt lat="44.3791084" lon="11.1600569"><ele>586.0</ele><time>2026-04-19T11:56:10.825Z</time></trkpt><trkpt lat="44.3792083" lon="11.1600069"><ele>589.0</ele><time>2026-04-19T11:56:11.825Z</time></trkpt><trkpt lat="44.3792997" lon="11.1599421"><ele>592.0</ele><time>2026-04-19T11:56:12.824Z</time></trkpt><trkpt lat="44.3793961" lon="11.1598589"><ele>595.0</ele><time>2026-04-19T11:56:13.824Z</time></trkpt><trkpt lat="44.3794925" lon="11.1598689"><ele>588.1666666666667</ele><time>2026-04-19T11:56:14.824Z</time></trkpt><trkpt lat="44.3795899" lon="11.15984"><ele>581.3333333333334</ele><time>2026-04-19T11:56:15.824Z</time></trkpt><trkpt lat="44.3796515" lon="11.1597848"><ele>574.5</ele><time>2026-04-19T11:56:16.824Z</time></trkpt><trkpt lat="44.3797534" lon="11.1597979"><ele>567.6666666666666</ele><time>2026-04-19T11:56:17.824Z</time></trkpt><trkpt lat="44.3798022" lon="11.1597375"><ele>560.8333333333333</ele><time>2026-04-19T11:56:18.825Z</time></trkpt><trkpt lat="44.3798818" lon="11.1597021"><ele>554.0</ele><time>2026-04-19T11:56:19.824Z</time></trkpt><trkpt lat="44.3799517" lon="11.1597076"><ele>554.0</ele><time>2026-04-19T11:56:20.825Z</time></trkpt><trkpt lat="44.3800499" lon="11.1597205"><ele>554.0</ele><time>2026-04-19T11:56:21.824Z</time></trkpt><trkpt lat="44.3801483" lon="11.1597177"><ele>554.0</ele><time>2026-04-19T11:56:23.825Z</time></trkpt><trkpt lat="44.3802512" lon="11.1596678"><ele>554.0</ele><time>2026-04-19T11:56:25.824Z</time></trkpt><trkpt lat="44.380331" lon="11.1597208"><ele>554.0</ele><time>2026-04-19T11:56:27.825Z</time></trkpt><trkpt lat="44.3804182" lon="11.1597628"><ele>554.0</ele><time>2026-04-19T11:56:48.824Z</time></trkpt><trkpt lat="44.380498" lon="11.1597713"><ele>554.0</ele><time>2026-04-19T11:56:50.824Z</time></trkpt><trkpt lat="44.3806006" lon="11.1597576"><ele>554.0</ele><time>2026-04-19T11:56:52.824Z</time></trkpt><trkpt lat="44.3806935" lon="11.1597211"><ele>554.0</ele><time>2026-04-19T11:56:54.824Z</time></trkpt><trkpt lat="44.3807867" lon="11.1596892"><ele>554.0</ele><time>2026-04-19T11:56:56.825Z</time></trkpt><trkpt lat="44.3808809" lon="11.1596481"><ele>556.3333333333333</ele><time>2026-04-19T11:56:58.824Z</time></trkpt><trkpt lat="44.3809434" lon="11.1596136"><ele>558.6666666666666</ele><time>2026-04-19T11:57:00.824Z</time></trkpt><trkpt lat="44.381031" lon="11.1596499"><ele>561.0</ele><time>2026-04-19T11:57:03.825Z</time></trkpt><trkpt lat="44.3810857" lon="11.1597131"><ele>563.3333333333334</ele><time>2026-04-19T11:57:05.825Z</time></trkpt><trkpt lat="44.3811379" lon="11.1597817"><ele>565.6666666666667</ele><time>2026-04-19T11:57:07.824Z</time></trkpt><trkpt lat="44.3811905" lon="11.1598327"><ele>568.0</ele><time>2026-04-19T11:57:09.824Z</time></trkpt><trkpt lat="44.38126" lon="11.1599177"><ele>571.6</ele><time>2026-04-19T11:57:11.824Z</time></trkpt><trkpt lat="44.3813563" lon="11.1600099"><ele>575.1999999999999</ele><time>2026-04-19T11:57:13.825Z</time></trkpt><trkpt lat="44.3814651" lon="11.1601179"><ele>578.8</ele><time>2026-04-19T11:57:15.824Z</time></trkpt><trkpt lat="44.3815201" lon="11.1601731"><ele>582.4</ele><time>2026-04-19T11:57:16.824Z</time></trkpt><trkpt lat="44.3815858" lon="11.1602552"><ele>586.0</ele><time>2026-04-19T11:57:17.824Z</time></trkpt><trkpt lat="44.3816445" lon="11.1603377"><ele>586.0</ele><time>2026-04-19T11:57:18.825Z</time></trkpt><trkpt lat="44.3817106" lon="11.1604258"><ele>586.0</ele><time>2026-04-19T11:57:19.825Z</time></trkpt><trkpt lat="44.3817825" lon="11.1605103"><ele>586.0</ele><time>2026-04-19T11:57:20.824Z</time></trkpt><trkpt lat="44.3818595" lon="11.1605902"><ele>586.0</ele><time>2026-04-19T11:57:21.825Z</time></trkpt><trkpt lat="44.3819387" lon="11.1606713"><ele>586.0</ele><time>2026-04-19T11:57:22.825Z</time></trkpt><trkpt lat="44.3820227" lon="11.1607418"><ele>585.6</ele><time>2026-04-19T11:57:23.825Z</time></trkpt><trkpt lat="44.3821135" lon="11.160803"><ele>585.2</ele><time>2026-04-19T11:57:24.824Z</time></trkpt><trkpt lat="44.3822019" lon="11.1608413"><ele>584.8</ele><time>2026-04-19T11:57:25.825Z</time></trkpt><trkpt lat="44.3822916" lon="11.160853"><ele>584.4</ele><time>2026-04-19T11:57:26.824Z</time></trkpt><trkpt lat="44.3823866" lon="11.1608359"><ele>584.0</ele><time>2026-04-19T11:57:27.825Z</time></trkpt><trkpt lat="44.3824942" lon="11.1608046"><ele>584.0</ele><time>2026-04-19T11:57:28.824Z</time></trkpt><trkpt lat="44.3825821" lon="11.160788"><ele>584.0</ele><time>2026-04-19T11:57:29.824Z</time></trkpt><trkpt lat="44.3826723" lon="11.1607656"><ele>584.0</ele><time>2026-04-19T11:57:30.824Z</time></trkpt><trkpt lat="44.3828082" lon="11.1608553"><ele>584.0</ele><time>2026-04-19T11:57:31.824Z</time></trkpt><trkpt lat="44.3828946" lon="11.1609129"><ele>584.0</ele><time>2026-04-19T11:57:32.825Z</time></trkpt><trkpt lat="44.3829836" lon="11.1609699"><ele>586.6</ele><time>2026-04-19T11:57:33.824Z</time></trkpt><trkpt lat="44.3830584" lon="11.1610278"><ele>589.2</ele><time>2026-04-19T11:57:34.824Z</time></trkpt><trkpt lat="44.3831378" lon="11.1611018"><ele>591.8000000000001</ele><time>2026-04-19T11:57:35.824Z</time></trkpt><trkpt lat="44.3832204" lon="11.1611791"><ele>594.4</ele><time>2026-04-19T11:57:36.825Z</time></trkpt><trkpt lat="44.3833153" lon="11.161269"><ele>597.0</ele><time>2026-04-19T11:57:37.825Z</time></trkpt><trkpt lat="44.3834369" lon="11.1613855"><ele>597.0</ele><time>2026-04-19T11:57:38.825Z</time></trkpt><trkpt lat="44.3835406" lon="11.161478"><ele>597.0</ele><time>2026-04-19T11:57:39.825Z</time></trkpt><trkpt lat="44.383648" lon="11.1615848"><ele>597.0</ele><time>2026-04-19T11:57:40.825Z</time></trkpt><trkpt lat="44.3837464" lon="11.1616896"><ele>597.0</ele><time>2026-04-19T11:57:41.824Z</time></trkpt><trkpt lat="44.3838462" lon="11.1617878"><ele>596.5</ele><time>2026-04-19T11:57:42.824Z</time></trkpt><trkpt lat="44.3839494" lon="11.1618855"><ele>596.0</ele><time>2026-04-19T11:57:43.824Z</time></trkpt><trkpt lat="44.3840463" lon="11.1619832"><ele>595.5</ele><time>2026-04-19T11:57:44.824Z</time></trkpt><trkpt lat="44.3841318" lon="11.1620925"><ele>595.0</ele><time>2026-04-19T11:57:45.824Z</time></trkpt><trkpt lat="44.3842088" lon="11.1622047"><ele>595.0</ele><time>2026-04-19T11:57:46.824Z</time></trkpt><trkpt lat="44.3842792" lon="11.1623352"><ele>595.0</ele><time>2026-04-19T11:57:47.824Z</time></trkpt><trkpt lat="44.3843334" lon="11.1624778"><ele>595.0</ele><time>2026-04-19T11:57:48.825Z</time></trkpt><trkpt lat="44.384379" lon="11.1626058"><ele>595.0</ele><time>2026-04-19T11:57:49.825Z</time></trkpt><trkpt lat="44.3844194" lon="11.1627281"><ele>595.0</ele><time>2026-04-19T11:57:50.824Z</time></trkpt><trkpt lat="44.3844818" lon="11.1628384"><ele>594.5</ele><time>2026-04-19T11:57:51.824Z</time></trkpt><trkpt lat="44.3846313" lon="11.1630351"><ele>594.0</ele><time>2026-04-19T11:57:53.824Z</time></trkpt><trkpt lat="44.3847099" lon="11.1631332"><ele>593.5</ele><time>2026-04-19T11:57:54.824Z</time></trkpt><trkpt lat="44.3847794" lon="11.1632333"><ele>593.0</ele><time>2026-04-19T11:57:55.824Z</time></trkpt><trkpt lat="44.3848447" lon="11.1633595"><ele>588.8</ele><time>2026-04-19T11:57:56.824Z</time></trkpt><trkpt lat="44.384891" lon="11.1634866"><ele>584.5999999999999</ele><time>2026-04-19T11:57:57.825Z</time></trkpt><trkpt lat="44.3849308" lon="11.1636154"><ele>580.4000000000001</ele><time>2026-04-19T11:57:58.825Z</time></trkpt><trkpt lat="44.3849686" lon="11.1637548"><ele>576.2</ele><time>2026-04-19T11:57:59.824Z</time></trkpt><trkpt lat="44.3849908" lon="11.1638869"><ele>572.0</ele><time>2026-04-19T11:58:00.824Z</time></trkpt><trkpt lat="44.3850086" lon="11.1640114"><ele>569.0</ele><time>2026-04-19T11:58:01.824Z</time></trkpt><trkpt lat="44.3850384" lon="11.1641275"><ele>566.0</ele><time>2026-04-19T11:58:02.824Z</time></trkpt><trkpt lat="44.3850939" lon="11.164229"><ele>563.0</ele><time>2026-04-19T11:58:03.824Z</time></trkpt><trkpt lat="44.3851674" lon="11.1643264"><ele>560.0</ele><time>2026-04-19T11:58:04.824Z</time></trkpt><trkpt lat="44.3852542" lon="11.1644152"><ele>557.0</ele><time>2026-04-19T11:58:05.824Z</time></trkpt><trkpt lat="44.385346" lon="11.1644959"><ele>557.0</ele><time>2026-04-19T11:58:06.825Z</time></trkpt><trkpt lat="44.3854469" lon="11.1645574"><ele>557.0</ele><time>2026-04-19T11:58:07.824Z</time></trkpt><trkpt lat="44.3855525" lon="11.1645935"><ele>557.0</ele><time>2026-04-19T11:58:08.824Z</time></trkpt><trkpt lat="44.3856516" lon="11.164631"><ele>557.0</ele><time>2026-04-19T11:58:09.824Z</time></trkpt><trkpt lat="44.3857284" lon="11.1647063"><ele>557.0</ele><time>2026-04-19T11:58:10.825Z</time></trkpt><trkpt lat="44.3857994" lon="11.1648125"><ele>556.0</ele><time>2026-04-19T11:58:11.824Z</time></trkpt><trkpt lat="44.3858617" lon="11.1649303"><ele>555.0</ele><time>2026-04-19T11:58:12.824Z</time></trkpt><trkpt lat="44.3859079" lon="11.1650505"><ele>554.0</ele><time>2026-04-19T11:58:13.824Z</time></trkpt><trkpt lat="44.3859727" lon="11.1651409"><ele>553.0</ele><time>2026-04-19T11:58:14.824Z</time></trkpt><trkpt lat="44.3860482" lon="11.165208"><ele>552.0</ele><time>2026-04-19T11:58:15.824Z</time></trkpt><trkpt lat="44.3861436" lon="11.1652418"><ele>552.0</ele><time>2026-04-19T11:58:16.824Z</time></trkpt><trkpt lat="44.3862413" lon="11.165227"><ele>552.0</ele><time>2026-04-19T11:58:17.824Z</time></trkpt><trkpt lat="44.3863442" lon="11.1652198"><ele>552.0</ele><time>2026-04-19T11:58:18.825Z</time></trkpt><trkpt lat="44.3864713" lon="11.1652851"><ele>552.0</ele><time>2026-04-19T11:58:20.824Z</time></trkpt><trkpt lat="44.3865314" lon="11.1653515"><ele>552.0</ele><time>2026-04-19T11:58:21.824Z</time></trkpt><trkpt lat="44.3865622" lon="11.165471"><ele>553.0</ele><time>2026-04-19T11:58:22.824Z</time></trkpt><trkpt lat="44.3865874" lon="11.1656281"><ele>554.0</ele><time>2026-04-19T11:58:23.824Z</time></trkpt><trkpt lat="44.3866041" lon="11.1657965"><ele>555.0</ele><time>2026-04-19T11:58:24.825Z</time></trkpt><trkpt lat="44.3866438" lon="11.1659495"><ele>556.0</ele><time>2026-04-19T11:58:25.824Z</time></trkpt><trkpt lat="44.3866866" lon="11.1660961"><ele>556.0</ele><time>2026-04-19T11:58:26.824Z</time></trkpt><trkpt lat="44.3867339" lon="11.1662304"><ele>556.0</ele><time>2026-04-19T11:58:27.824Z</time></trkpt><trkpt lat="44.3867906" lon="11.1663539"><ele>556.0</ele><time>2026-04-19T11:58:28.824Z</time></trkpt><trkpt lat="44.3868542" lon="11.1664526"><ele>556.0</ele><time>2026-04-19T11:58:29.824Z</time></trkpt><trkpt lat="44.3869171" lon="11.1665244"><ele>556.0</ele><time>2026-04-19T11:58:30.824Z</time></trkpt><trkpt lat="44.3869848" lon="11.1665886"><ele>555.0</ele><time>2026-04-19T11:58:31.824Z</time></trkpt><trkpt lat="44.3870631" lon="11.1666241"><ele>554.0</ele><time>2026-04-19T11:58:32.824Z</time></trkpt><trkpt lat="44.3871471" lon="11.1666399"><ele>553.0</ele><time>2026-04-19T11:58:33.824Z</time></trkpt><trkpt lat="44.3872336" lon="11.1666327"><ele>552.0</ele><time>2026-04-19T11:58:34.824Z</time></trkpt><trkpt lat="44.3873257" lon="11.1666121"><ele>551.0</ele><time>2026-04-19T11:58:35.824Z</time></trkpt><trkpt lat="44.387422" lon="11.1666012"><ele>550.0</ele><time>2026-04-19T11:58:36.825Z</time></trkpt><trkpt lat="44.3875175" lon="11.1666024"><ele>550.0</ele><time>2026-04-19T11:58:37.825Z</time></trkpt><trkpt lat="44.3875976" lon="11.1666287"><ele>550.0</ele><time>2026-04-19T11:58:38.824Z</time></trkpt><trkpt lat="44.3876849" lon="11.1666663"><ele>550.0</ele><time>2026-04-19T11:58:39.824Z</time></trkpt><trkpt lat="44.3877744" lon="11.1666897"><ele>550.0</ele><time>2026-04-19T11:58:40.824Z</time></trkpt><trkpt lat="44.387864" lon="11.1667054"><ele>550.0</ele><time>2026-04-19T11:58:41.824Z</time></trkpt><trkpt lat="44.3879434" lon="11.1667173"><ele>550.0</ele><time>2026-04-19T11:58:42.825Z</time></trkpt><trkpt lat="44.3880332" lon="11.1666819"><ele>548.0</ele><time>2026-04-19T11:58:43.825Z</time></trkpt><trkpt lat="44.3881168" lon="11.1666475"><ele>546.0</ele><time>2026-04-19T11:58:44.824Z</time></trkpt><trkpt lat="44.388196" lon="11.1667141"><ele>544.0</ele><time>2026-04-19T11:58:46.825Z</time></trkpt><trkpt lat="44.3882528" lon="11.1668184"><ele>542.0</ele><time>2026-04-19T11:58:48.824Z</time></trkpt><trkpt lat="44.3882623" lon="11.1669391"><ele>540.0</ele><time>2026-04-19T11:58:50.824Z</time></trkpt><trkpt lat="44.3882838" lon="11.1670882"><ele>540.0</ele><time>2026-04-19T11:58:52.825Z</time></trkpt><trkpt lat="44.3883272" lon="11.1672027"><ele>540.0</ele><time>2026-04-19T11:58:54.824Z</time></trkpt><trkpt lat="44.3883322" lon="11.1673515"><ele>540.0</ele><time>2026-04-19T11:58:56.824Z</time></trkpt><trkpt lat="44.3883473" lon="11.1674922"><ele>540.0</ele><time>2026-04-19T11:58:58.824Z</time></trkpt><trkpt lat="44.3883681" lon="11.1675982"><ele>540.0</ele><time>2026-04-19T11:58:59.824Z</time></trkpt><trkpt lat="44.3883912" lon="11.1677834"><ele>537.8</ele><time>2026-04-19T11:59:01.824Z</time></trkpt><trkpt lat="44.3884217" lon="11.1678611"><ele>535.6</ele><time>2026-04-19T11:59:02.824Z</time></trkpt><trkpt lat="44.3884638" lon="11.1680214"><ele>533.4</ele><time>2026-04-19T11:59:04.825Z</time></trkpt><trkpt lat="44.38848" lon="11.1681652"><ele>531.2</ele><time>2026-04-19T11:59:06.825Z</time></trkpt><trkpt lat="44.38854" lon="11.1682476"><ele>529.0</ele><time>2026-04-19T11:59:08.824Z</time></trkpt><trkpt lat="44.388582" lon="11.1683662"><ele>528.0</ele><time>2026-04-19T11:59:10.824Z</time></trkpt><trkpt lat="44.3886156" lon="11.1684433"><ele>527.0</ele><time>2026-04-19T11:59:11.824Z</time></trkpt><trkpt lat="44.3886532" lon="11.168555"><ele>526.0</ele><time>2026-04-19T11:59:12.825Z</time></trkpt><trkpt lat="44.3886802" lon="11.1686507"><ele>525.0</ele><time>2026-04-19T11:59:13.825Z</time></trkpt><trkpt lat="44.3887023" lon="11.1687754"><ele>524.0</ele><time>2026-04-19T11:59:14.824Z</time></trkpt><trkpt lat="44.38873" lon="11.1689032"><ele>523.0</ele><time>2026-04-19T11:59:15.824Z</time></trkpt><trkpt lat="44.3887568" lon="11.1690591"><ele>523.5</ele><time>2026-04-19T11:59:16.824Z</time></trkpt><trkpt lat="44.3888047" lon="11.1693046"><ele>524.0</ele><time>2026-04-19T11:59:18.824Z</time></trkpt><trkpt lat="44.388824" lon="11.1695201"><ele>524.5</ele><time>2026-04-19T11:59:19.825Z</time></trkpt><trkpt lat="44.3888481" lon="11.1696266"><ele>525.0</ele><time>2026-04-19T11:59:20.824Z</time></trkpt><trkpt lat="44.3888481" lon="11.16972"><ele>525.0</ele><time>2026-04-19T11:59:21.824Z</time></trkpt><trkpt lat="44.3888686" lon="11.1698286"><ele>525.0</ele><time>2026-04-19T11:59:22.824Z</time></trkpt><trkpt lat="44.3888884" lon="11.1699234"><ele>525.0</ele><time>2026-04-19T11:59:23.824Z</time></trkpt><trkpt lat="44.3889448" lon="11.1700741"><ele>525.0</ele><time>2026-04-19T11:59:25.825Z</time></trkpt><trkpt lat="44.3889649" lon="11.1702524"><ele>525.0</ele><time>2026-04-19T11:59:26.824Z</time></trkpt><trkpt lat="44.3890493" lon="11.1702242"><ele>525.0</ele><time>2026-04-19T11:59:28.824Z</time></trkpt><trkpt lat="44.3891088" lon="11.1701823"><ele>525.0</ele><time>2026-04-19T11:59:29.824Z</time></trkpt><trkpt lat="44.3891743" lon="11.1701022"><ele>525.0</ele><time>2026-04-19T11:59:30.825Z</time></trkpt><trkpt lat="44.3892117" lon="11.1700252"><ele>525.0</ele><time>2026-04-19T11:59:31.824Z</time></trkpt><trkpt lat="44.3892712" lon="11.1699133"><ele>525.0</ele><time>2026-04-19T11:59:33.824Z</time></trkpt><trkpt lat="44.389365" lon="11.1698337"><ele>525.0</ele><time>2026-04-19T11:59:35.824Z</time></trkpt><trkpt lat="44.3894336" lon="11.1699416"><ele>527.25</ele><time>2026-04-19T11:59:37.824Z</time></trkpt><trkpt lat="44.3894771" lon="11.1701295"><ele>529.5</ele><time>2026-04-19T11:59:39.824Z</time></trkpt><trkpt lat="44.3895132" lon="11.1702649"><ele>531.75</ele><time>2026-04-19T11:59:40.825Z</time></trkpt><trkpt lat="44.3895419" lon="11.1703668"><ele>534.0</ele><time>2026-04-19T11:59:41.825Z</time></trkpt><trkpt lat="44.3896028" lon="11.1706181"><ele>533.6</ele><time>2026-04-19T11:59:42.825Z</time></trkpt><trkpt lat="44.389638" lon="11.1707225"><ele>533.2</ele><time>2026-04-19T11:59:43.825Z</time></trkpt><trkpt lat="44.3896903" lon="11.1708293"><ele>532.8000000000001</ele><time>2026-04-19T11:59:44.824Z</time></trkpt><trkpt lat="44.389736" lon="11.1709603"><ele>532.4</ele><time>2026-04-19T11:59:45.825Z</time></trkpt><trkpt lat="44.3898092" lon="11.1711104"><ele>532.0</ele><time>2026-04-19T11:59:47.825Z</time></trkpt><trkpt lat="44.3898456" lon="11.1712555"><ele>528.8333333333334</ele><time>2026-04-19T11:59:48.824Z</time></trkpt><trkpt lat="44.3898561" lon="11.1713648"><ele>525.6666666666667</ele><time>2026-04-19T11:59:49.824Z</time></trkpt><trkpt lat="44.3898823" lon="11.1714531"><ele>522.5</ele><time>2026-04-19T11:59:50.824Z</time></trkpt><trkpt lat="44.3899127" lon="11.1715568"><ele>519.3333333333334</ele><time>2026-04-19T11:59:51.824Z</time></trkpt><trkpt lat="44.3899691" lon="11.1716762"><ele>516.1666666666666</ele><time>2026-04-19T11:59:52.825Z</time></trkpt><trkpt lat="44.390042" lon="11.1717561"><ele>513.0</ele><time>2026-04-19T11:59:53.824Z</time></trkpt><trkpt lat="44.3901048" lon="11.1718254"><ele>513.0</ele><time>2026-04-19T11:59:54.824Z</time></trkpt><trkpt lat="44.3901845" lon="11.1719438"><ele>513.0</ele><time>2026-04-19T11:59:55.824Z</time></trkpt><trkpt lat="44.3902548" lon="11.1720549"><ele>513.0</ele><time>2026-04-19T11:59:56.824Z</time></trkpt><trkpt lat="44.3902905" lon="11.1721513"><ele>513.0</ele><time>2026-04-19T11:59:57.824Z</time></trkpt><trkpt lat="44.3903266" lon="11.1723073"><ele>513.0</ele><time>2026-04-19T11:59:59.824Z</time></trkpt><trkpt lat="44.3903854" lon="11.1723438"><ele>511.0</ele><time>2026-04-19T12:00:04.825Z</time></trkpt><trkpt lat="44.3904705" lon="11.1723738"><ele>509.0</ele><time>2026-04-19T12:00:07.824Z</time></trkpt><trkpt lat="44.3905647" lon="11.1723649"><ele>507.0</ele><time>2026-04-19T12:00:08.824Z</time></trkpt><trkpt lat="44.3906259" lon="11.1724054"><ele>505.0</ele><time>2026-04-19T12:00:09.824Z</time></trkpt><trkpt lat="44.3907001" lon="11.1723933"><ele>503.0</ele><time>2026-04-19T12:00:10.824Z</time></trkpt><trkpt lat="44.3908135" lon="11.1724162"><ele>501.0</ele><time>2026-04-19T12:00:11.824Z</time></trkpt><trkpt lat="44.3908948" lon="11.1724412"><ele>499.20000000000005</ele><time>2026-04-19T12:00:12.824Z</time></trkpt><trkpt lat="44.3909331" lon="11.1725128"><ele>497.40000000000003</ele><time>2026-04-19T12:00:13.825Z</time></trkpt><trkpt lat="44.3910036" lon="11.1725791"><ele>495.6</ele><time>2026-04-19T12:00:14.825Z</time></trkpt><trkpt lat="44.3910859" lon="11.1726644"><ele>493.8</ele><time>2026-04-19T12:00:15.824Z</time></trkpt><trkpt lat="44.3911646" lon="11.1726997"><ele>492.0</ele><time>2026-04-19T12:00:16.824Z</time></trkpt><trkpt lat="44.3912796" lon="11.1727542"><ele>490.8</ele><time>2026-04-19T12:00:17.824Z</time></trkpt><trkpt lat="44.3913859" lon="11.1727986"><ele>489.6</ele><time>2026-04-19T12:00:18.824Z</time></trkpt><trkpt lat="44.3914839" lon="11.1728402"><ele>488.40000000000003</ele><time>2026-04-19T12:00:19.825Z</time></trkpt><trkpt lat="44.3915892" lon="11.1728883"><ele>487.20000000000005</ele><time>2026-04-19T12:00:20.825Z</time></trkpt><trkpt lat="44.3916834" lon="11.1729073"><ele>486.0</ele><time>2026-04-19T12:00:21.824Z</time></trkpt><trkpt lat="44.3917706" lon="11.1729485"><ele>486.0</ele><time>2026-04-19T12:00:22.824Z</time></trkpt><trkpt lat="44.3918438" lon="11.1729902"><ele>486.0</ele><time>2026-04-19T12:00:23.824Z</time></trkpt><trkpt lat="44.3919004" lon="11.17304"><ele>486.0</ele><time>2026-04-19T12:00:24.825Z</time></trkpt><trkpt lat="44.3919768" lon="11.1730801"><ele>486.0</ele><time>2026-04-19T12:00:25.824Z</time></trkpt><trkpt lat="44.3920483" lon="11.1731125"><ele>486.0</ele><time>2026-04-19T12:00:26.825Z</time></trkpt><trkpt lat="44.392111" lon="11.1731983"><ele>486.0</ele><time>2026-04-19T12:00:28.824Z</time></trkpt><trkpt lat="44.3921743" lon="11.1732247"><ele>488.0</ele><time>2026-04-19T12:00:29.824Z</time></trkpt><trkpt lat="44.3922419" lon="11.1732885"><ele>490.0</ele><time>2026-04-19T12:00:31.824Z</time></trkpt><trkpt lat="44.3923457" lon="11.1734284"><ele>492.0</ele><time>2026-04-19T12:00:35.825Z</time></trkpt><trkpt lat="44.3924008" lon="11.1734743"><ele>494.0</ele><time>2026-04-19T12:00:36.824Z</time></trkpt><trkpt lat="44.3924574" lon="11.173515"><ele>496.0</ele><time>2026-04-19T12:00:38.824Z</time></trkpt><trkpt lat="44.3925328" lon="11.1735186"><ele>498.0</ele><time>2026-04-19T12:00:40.824Z</time></trkpt><trkpt lat="44.3926039" lon="11.1735898"><ele>498.0</ele><time>2026-04-19T12:00:41.824Z</time></trkpt><trkpt lat="44.392692" lon="11.1737009"><ele>497.99999999999994</ele><time>2026-04-19T12:00:43.825Z</time></trkpt><trkpt lat="44.3927038" lon="11.1738371"><ele>497.99999999999994</ele><time>2026-04-19T12:00:45.824Z</time></trkpt><trkpt lat="44.392689" lon="11.1739379"><ele>498.0</ele><time>2026-04-19T12:00:46.824Z</time></trkpt><trkpt lat="44.3926722" lon="11.1741099"><ele>498.0</ele><time>2026-04-19T12:00:47.824Z</time></trkpt><trkpt lat="44.3926588" lon="11.1741999"><ele>498.3333333333333</ele><time>2026-04-19T12:00:48.824Z</time></trkpt><trkpt lat="44.3926401" lon="11.1743304"><ele>498.66666666666663</ele><time>2026-04-19T12:00:49.825Z</time></trkpt><trkpt lat="44.3926537" lon="11.1744629"><ele>499.0</ele><time>2026-04-19T12:00:50.825Z</time></trkpt><trkpt lat="44.3926295" lon="11.1745878"><ele>499.3333333333333</ele><time>2026-04-19T12:00:51.825Z</time></trkpt><trkpt lat="44.392655" lon="11.1746998"><ele>499.66666666666663</ele><time>2026-04-19T12:00:52.824Z</time></trkpt><trkpt lat="44.392679" lon="11.1748028"><ele>500.0</ele><time>2026-04-19T12:00:53.825Z</time></trkpt><trkpt lat="44.39274" lon="11.1749249"><ele>497.16666666666663</ele><time>2026-04-19T12:00:54.825Z</time></trkpt><trkpt lat="44.3927992" lon="11.1750405"><ele>494.3333333333333</ele><time>2026-04-19T12:00:55.824Z</time></trkpt><trkpt lat="44.3928508" lon="11.1751208"><ele>491.5</ele><time>2026-04-19T12:00:56.824Z</time></trkpt><trkpt lat="44.3929115" lon="11.1751827"><ele>488.66666666666663</ele><time>2026-04-19T12:00:57.824Z</time></trkpt><trkpt lat="44.3929725" lon="11.1752931"><ele>485.8333333333333</ele><time>2026-04-19T12:00:58.824Z</time></trkpt><trkpt lat="44.3930421" lon="11.1753469"><ele>483.0</ele><time>2026-04-19T12:00:59.824Z</time></trkpt><trkpt lat="44.3930822" lon="11.1754354"><ele>482.79999999999995</ele><time>2026-04-19T12:01:00.824Z</time></trkpt><trkpt lat="44.3931022" lon="11.1755349"><ele>482.59999999999997</ele><time>2026-04-19T12:01:01.825Z</time></trkpt><trkpt lat="44.3931405" lon="11.1756452"><ele>482.40000000000003</ele><time>2026-04-19T12:01:02.824Z</time></trkpt><trkpt lat="44.3931816" lon="11.175751"><ele>482.20000000000005</ele><time>2026-04-19T12:01:03.824Z</time></trkpt><trkpt lat="44.3932524" lon="11.1759232"><ele>482.0</ele><time>2026-04-19T12:01:05.824Z</time></trkpt><trkpt lat="44.3932978" lon="11.1760081"><ele>480.99999999999994</ele><time>2026-04-19T12:01:06.824Z</time></trkpt><trkpt lat="44.3933433" lon="11.1760985"><ele>480.0</ele><time>2026-04-19T12:01:07.824Z</time></trkpt><trkpt lat="44.3933722" lon="11.1762022"><ele>479.0</ele><time>2026-04-19T12:01:08.825Z</time></trkpt><trkpt lat="44.3934088" lon="11.1763302"><ele>478.0</ele><time>2026-04-19T12:01:09.825Z</time></trkpt><trkpt lat="44.3934477" lon="11.1764457"><ele>476.99999999999994</ele><time>2026-04-19T12:01:10.825Z</time></trkpt><trkpt lat="44.3934962" lon="11.1765436"><ele>476.0</ele><time>2026-04-19T12:01:11.825Z</time></trkpt><trkpt lat="44.3935589" lon="11.1766144"><ele>475.16666666666663</ele><time>2026-04-19T12:01:12.824Z</time></trkpt><trkpt lat="44.3936456" lon="11.1766753"><ele>474.3333333333333</ele><time>2026-04-19T12:01:13.824Z</time></trkpt><trkpt lat="44.3937217" lon="11.1767194"><ele>473.5</ele><time>2026-04-19T12:01:14.824Z</time></trkpt><trkpt lat="44.3937871" lon="11.1767734"><ele>472.66666666666663</ele><time>2026-04-19T12:01:15.825Z</time></trkpt><trkpt lat="44.3938597" lon="11.1768548"><ele>471.8333333333333</ele><time>2026-04-19T12:01:16.824Z</time></trkpt><trkpt lat="44.393897" lon="11.176937"><ele>471.0</ele><time>2026-04-19T12:01:17.824Z</time></trkpt><trkpt lat="44.3939535" lon="11.1770053"><ele>471.0</ele><time>2026-04-19T12:01:18.825Z</time></trkpt><trkpt lat="44.3940113" lon="11.1770643"><ele>471.0</ele><time>2026-04-19T12:01:19.824Z</time></trkpt><trkpt lat="44.394087" lon="11.1771294"><ele>471.0</ele><time>2026-04-19T12:01:20.824Z</time></trkpt><trkpt lat="44.3941555" lon="11.1771633"><ele>471.0</ele><time>2026-04-19T12:01:21.824Z</time></trkpt><trkpt lat="44.3942287" lon="11.1772226"><ele>471.0</ele><time>2026-04-19T12:01:22.825Z</time></trkpt><trkpt lat="44.3943088" lon="11.1772676"><ele>471.0</ele><time>2026-04-19T12:01:23.824Z</time></trkpt><trkpt lat="44.3943815" lon="11.1773043"><ele>471.0</ele><time>2026-04-19T12:01:24.824Z</time></trkpt><trkpt lat="44.394464" lon="11.1773479"><ele>471.0</ele><time>2026-04-19T12:01:25.825Z</time></trkpt><trkpt lat="44.3945356" lon="11.1773447"><ele>471.0</ele><time>2026-04-19T12:01:26.825Z</time></trkpt><trkpt lat="44.3946212" lon="11.1773614"><ele>471.0</ele><time>2026-04-19T12:01:27.824Z</time></trkpt><trkpt lat="44.3946933" lon="11.1774068"><ele>471.0</ele><time>2026-04-19T12:01:28.824Z</time></trkpt><trkpt lat="44.3947522" lon="11.1774554"><ele>471.0</ele><time>2026-04-19T12:01:29.824Z</time></trkpt><trkpt lat="44.3948207" lon="11.1775302"><ele>465.6</ele><time>2026-04-19T12:01:30.824Z</time></trkpt><trkpt lat="44.3948746" lon="11.1776275"><ele>460.20000000000005</ele><time>2026-04-19T12:01:31.824Z</time></trkpt><trkpt lat="44.3949322" lon="11.1776936"><ele>454.79999999999995</ele><time>2026-04-19T12:01:32.824Z</time></trkpt><trkpt lat="44.39503" lon="11.1777779"><ele>449.4</ele><time>2026-04-19T12:01:34.825Z</time></trkpt><trkpt lat="44.3951042" lon="11.1777794"><ele>444.0</ele><time>2026-04-19T12:01:47.824Z</time></trkpt><trkpt lat="44.3952083" lon="11.1777995"><ele>444.0</ele><time>2026-04-19T12:01:50.825Z</time></trkpt><trkpt lat="44.3952968" lon="11.177842"><ele>444.0</ele><time>2026-04-19T12:01:52.824Z</time></trkpt><trkpt lat="44.3954012" lon="11.1778951"><ele>444.0</ele><time>2026-04-19T12:01:54.825Z</time></trkpt><trkpt lat="44.3955132" lon="11.1779417"><ele>444.0</ele><time>2026-04-19T12:01:56.825Z</time></trkpt><trkpt lat="44.3956202" lon="11.1780244"><ele>444.0</ele><time>2026-04-19T12:01:58.824Z</time></trkpt><trkpt lat="44.3957285" lon="11.1781071"><ele>441.6666666666667</ele><time>2026-04-19T12:02:00.824Z</time></trkpt><trkpt lat="44.3958335" lon="11.1782014"><ele>439.33333333333337</ele><time>2026-04-19T12:02:02.824Z</time></trkpt><trkpt lat="44.3958991" lon="11.1782492"><ele>437.0</ele><time>2026-04-19T12:02:03.825Z</time></trkpt><trkpt lat="44.3959371" lon="11.1783269"><ele>434.6666666666667</ele><time>2026-04-19T12:02:04.824Z</time></trkpt><trkpt lat="44.3959862" lon="11.1783949"><ele>432.33333333333337</ele><time>2026-04-19T12:02:05.824Z</time></trkpt><trkpt lat="44.3960437" lon="11.1784343"><ele>430.0</ele><time>2026-04-19T12:02:06.824Z</time></trkpt><trkpt lat="44.3960958" lon="11.1784858"><ele>430.0</ele><time>2026-04-19T12:02:07.824Z</time></trkpt><trkpt lat="44.3962003" lon="11.1785642"><ele>430.0</ele><time>2026-04-19T12:02:09.824Z</time></trkpt><trkpt lat="44.3962995" lon="11.1786457"><ele>430.0</ele><time>2026-04-19T12:02:11.825Z</time></trkpt><trkpt lat="44.3964021" lon="11.1787145"><ele>430.0</ele><time>2026-04-19T12:02:13.825Z</time></trkpt><trkpt lat="44.3965198" lon="11.1787804"><ele>432.75</ele><time>2026-04-19T12:02:15.824Z</time></trkpt><trkpt lat="44.3966374" lon="11.1788257"><ele>435.5</ele><time>2026-04-19T12:02:17.825Z</time></trkpt><trkpt lat="44.3967524" lon="11.1788986"><ele>438.25</ele><time>2026-04-19T12:02:19.824Z</time></trkpt><trkpt lat="44.3968409" lon="11.1789635"><ele>441.0</ele><time>2026-04-19T12:02:21.824Z</time></trkpt><trkpt lat="44.3969366" lon="11.1790548"><ele>439.20000000000005</ele><time>2026-04-19T12:02:23.824Z</time></trkpt><trkpt lat="44.3970114" lon="11.1791009"><ele>437.40000000000003</ele><time>2026-04-19T12:02:24.824Z</time></trkpt><trkpt lat="44.3970755" lon="11.1791537"><ele>435.6</ele><time>2026-04-19T12:02:25.825Z</time></trkpt><trkpt lat="44.3971981" lon="11.1792159"><ele>433.8</ele><time>2026-04-19T12:02:27.824Z</time></trkpt><trkpt lat="44.3972637" lon="11.1792517"><ele>432.0</ele><time>2026-04-19T12:02:28.824Z</time></trkpt><trkpt lat="44.3973558" lon="11.179286"><ele>432.0</ele><time>2026-04-19T12:02:29.825Z</time></trkpt><trkpt lat="44.3974381" lon="11.1793293"><ele>432.00000000000006</ele><time>2026-04-19T12:02:30.824Z</time></trkpt><trkpt lat="44.397529" lon="11.1793797"><ele>432.00000000000006</ele><time>2026-04-19T12:02:31.824Z</time></trkpt><trkpt lat="44.397586" lon="11.1794796"><ele>432.0</ele><time>2026-04-19T12:02:32.824Z</time></trkpt><trkpt lat="44.3976616" lon="11.1795756"><ele>432.0</ele><time>2026-04-19T12:02:33.825Z</time></trkpt><trkpt lat="44.3977332" lon="11.1796883"><ele>432.0</ele><time>2026-04-19T12:02:34.824Z</time></trkpt><trkpt lat="44.397804" lon="11.1798117"><ele>432.00000000000006</ele><time>2026-04-19T12:02:35.824Z</time></trkpt><trkpt lat="44.3978723" lon="11.1799387"><ele>432.00000000000006</ele><time>2026-04-19T12:02:36.825Z</time></trkpt><trkpt lat="44.3979475" lon="11.1800601"><ele>432.0</ele><time>2026-04-19T12:02:37.824Z</time></trkpt><trkpt lat="44.3980231" lon="11.1801427"><ele>432.0</ele><time>2026-04-19T12:02:38.824Z</time></trkpt><trkpt lat="44.3980988" lon="11.1802321"><ele>433.20000000000005</ele><time>2026-04-19T12:02:39.824Z</time></trkpt><trkpt lat="44.3981739" lon="11.1802983"><ele>434.40000000000003</ele><time>2026-04-19T12:02:40.824Z</time></trkpt><trkpt lat="44.3982511" lon="11.1803723"><ele>435.59999999999997</ele><time>2026-04-19T12:02:41.824Z</time></trkpt><trkpt lat="44.3983354" lon="11.1804434"><ele>436.79999999999995</ele><time>2026-04-19T12:02:42.824Z</time></trkpt><trkpt lat="44.3984262" lon="11.180511"><ele>438.0</ele><time>2026-04-19T12:02:43.825Z</time></trkpt><trkpt lat="44.3985117" lon="11.1805936"><ele>438.0</ele><time>2026-04-19T12:02:44.825Z</time></trkpt><trkpt lat="44.3985918" lon="11.1806488"><ele>437.99999999999994</ele><time>2026-04-19T12:02:45.825Z</time></trkpt><trkpt lat="44.3986722" lon="11.1807072"><ele>437.99999999999994</ele><time>2026-04-19T12:02:46.825Z</time></trkpt><trkpt lat="44.3988137" lon="11.1807943"><ele>438.0</ele><time>2026-04-19T12:02:48.824Z</time></trkpt><trkpt lat="44.3988824" lon="11.1808381"><ele>438.0</ele><time>2026-04-19T12:02:49.824Z</time></trkpt><trkpt lat="44.3989508" lon="11.1808717"><ele>437.6666666666667</ele><time>2026-04-19T12:02:50.824Z</time></trkpt><trkpt lat="44.3990194" lon="11.180909"><ele>437.33333333333337</ele><time>2026-04-19T12:02:51.825Z</time></trkpt><trkpt lat="44.3990893" lon="11.1809535"><ele>437.0</ele><time>2026-04-19T12:02:52.824Z</time></trkpt><trkpt lat="44.3991593" lon="11.1810088"><ele>436.6666666666667</ele><time>2026-04-19T12:02:54.824Z</time></trkpt><trkpt lat="44.3992087" lon="11.1810857"><ele>436.33333333333337</ele><time>2026-04-19T12:03:17.824Z</time></trkpt><trkpt lat="44.3992417" lon="11.1812034"><ele>436.0</ele><time>2026-04-19T12:03:19.825Z</time></trkpt><trkpt lat="44.3993143" lon="11.1813633"><ele>436.0</ele><time>2026-04-19T12:03:21.824Z</time></trkpt><trkpt lat="44.399337" lon="11.18149"><ele>436.0</ele><time>2026-04-19T12:03:23.825Z</time></trkpt><trkpt lat="44.3993851" lon="11.1816225"><ele>436.0</ele><time>2026-04-19T12:03:25.824Z</time></trkpt><trkpt lat="44.3994303" lon="11.1817062"><ele>436.0</ele><time>2026-04-19T12:03:26.824Z</time></trkpt><trkpt lat="44.3994877" lon="11.1818175"><ele>436.0</ele><time>2026-04-19T12:03:27.825Z</time></trkpt><trkpt lat="44.3995296" lon="11.1819201"><ele>434.8</ele><time>2026-04-19T12:03:28.824Z</time></trkpt><trkpt lat="44.3995675" lon="11.1820033"><ele>433.6</ele><time>2026-04-19T12:03:29.824Z</time></trkpt><trkpt lat="44.3995748" lon="11.1821218"><ele>432.4</ele><time>2026-04-19T12:03:31.825Z</time></trkpt><trkpt lat="44.3996036" lon="11.1822717"><ele>431.2</ele><time>2026-04-19T12:03:33.825Z</time></trkpt><trkpt lat="44.3996518" lon="11.182431"><ele>430.0</ele><time>2026-04-19T12:03:35.824Z</time></trkpt><trkpt lat="44.3996793" lon="11.1825368"><ele>430.00000000000006</ele><time>2026-04-19T12:03:36.824Z</time></trkpt><trkpt lat="44.3997026" lon="11.182631"><ele>430.0</ele><time>2026-04-19T12:03:37.825Z</time></trkpt><trkpt lat="44.399714" lon="11.1827247"><ele>430.0</ele><time>2026-04-19T12:03:38.824Z</time></trkpt><trkpt lat="44.3997207" lon="11.1828222"><ele>430.0</ele><time>2026-04-19T12:03:39.824Z</time></trkpt><trkpt lat="44.3997324" lon="11.1829132"><ele>430.00000000000006</ele><time>2026-04-19T12:03:40.825Z</time></trkpt><trkpt lat="44.3997547" lon="11.1830055"><ele>430.0</ele><time>2026-04-19T12:03:41.825Z</time></trkpt><trkpt lat="44.399832" lon="11.1831242"><ele>428.4</ele><time>2026-04-19T12:03:43.824Z</time></trkpt><trkpt lat="44.3998492" lon="11.1832257"><ele>426.8</ele><time>2026-04-19T12:03:44.824Z</time></trkpt><trkpt lat="44.3998661" lon="11.1834069"><ele>425.20000000000005</ele><time>2026-04-19T12:03:47.825Z</time></trkpt><trkpt lat="44.3998946" lon="11.1835607"><ele>423.6</ele><time>2026-04-19T12:03:49.825Z</time></trkpt><trkpt lat="44.3999053" lon="11.1836477"><ele>422.0</ele><time>2026-04-19T12:03:50.824Z</time></trkpt><trkpt lat="44.3999279" lon="11.1837923"><ele>421.99999999999994</ele><time>2026-04-19T12:03:52.824Z</time></trkpt><trkpt lat="44.3999457" lon="11.1838825"><ele>422.0</ele><time>2026-04-19T12:03:53.825Z</time></trkpt><trkpt lat="44.3999843" lon="11.1839594"><ele>422.0</ele><time>2026-04-19T12:03:54.824Z</time></trkpt><trkpt lat="44.4000374" lon="11.1840388"><ele>422.0</ele><time>2026-04-19T12:03:55.825Z</time></trkpt><trkpt lat="44.4000962" lon="11.1841296"><ele>421.99999999999994</ele><time>2026-04-19T12:03:56.824Z</time></trkpt><trkpt lat="44.4001623" lon="11.184177"><ele>422.0</ele><time>2026-04-19T12:03:57.824Z</time></trkpt><trkpt lat="44.4002368" lon="11.1842235"><ele>419.3333333333333</ele><time>2026-04-19T12:03:58.825Z</time></trkpt><trkpt lat="44.4003011" lon="11.1842827"><ele>416.66666666666663</ele><time>2026-04-19T12:03:59.825Z</time></trkpt><trkpt lat="44.400352" lon="11.1843467"><ele>414.0</ele><time>2026-04-19T12:04:00.824Z</time></trkpt><trkpt lat="44.4004128" lon="11.1845072"><ele>411.33333333333337</ele><time>2026-04-19T12:04:02.825Z</time></trkpt><trkpt lat="44.400434" lon="11.1845979"><ele>408.6666666666667</ele><time>2026-04-19T12:04:03.824Z</time></trkpt><trkpt lat="44.4004474" lon="11.1846971"><ele>406.0</ele><time>2026-04-19T12:04:04.825Z</time></trkpt><trkpt lat="44.4004594" lon="11.1849014"><ele>403.0</ele><time>2026-04-19T12:04:05.824Z</time></trkpt><trkpt lat="44.4004688" lon="11.1850204"><ele>400.0</ele><time>2026-04-19T12:04:06.825Z</time></trkpt><trkpt lat="44.4004769" lon="11.1851131"><ele>397.0</ele><time>2026-04-19T12:04:08.825Z</time></trkpt><trkpt lat="44.4003863" lon="11.1852614"><ele>394.0</ele><time>2026-04-19T12:04:11.824Z</time></trkpt><trkpt lat="44.4003201" lon="11.1853383"><ele>391.0</ele><time>2026-04-19T12:04:12.824Z</time></trkpt><trkpt lat="44.400219" lon="11.1854226"><ele>391.00000000000006</ele><time>2026-04-19T12:04:14.824Z</time></trkpt><trkpt lat="44.4001397" lon="11.1855106"><ele>391.0</ele><time>2026-04-19T12:04:16.824Z</time></trkpt><trkpt lat="44.4001404" lon="11.1856007"><ele>391.0</ele><time>2026-04-19T12:04:20.824Z</time></trkpt><trkpt lat="44.4001605" lon="11.1857047"><ele>391.0</ele><time>2026-04-19T12:04:23.824Z</time></trkpt><trkpt lat="44.4001773" lon="11.185798"><ele>391.00000000000006</ele><time>2026-04-19T12:04:25.824Z</time></trkpt><trkpt lat="44.4001408" lon="11.1858932"><ele>391.0</ele><time>2026-04-19T12:04:31.824Z</time></trkpt><trkpt lat="44.4002153" lon="11.1859261"><ele>390.50000000000006</ele><time>2026-04-19T12:04:36.824Z</time></trkpt><trkpt lat="44.400276" lon="11.1859647"><ele>390.0</ele><time>2026-04-19T12:04:39.824Z</time></trkpt><trkpt lat="44.400328" lon="11.186023"><ele>389.5</ele><time>2026-04-19T12:04:43.825Z</time></trkpt><trkpt lat="44.400254" lon="11.1860866"><ele>389.0</ele><time>2026-04-19T12:04:49.825Z</time></trkpt><trkpt lat="44.4001588" lon="11.1861361"><ele>388.50000000000006</ele><time>2026-04-19T12:04:52.824Z</time></trkpt><trkpt lat="44.4000871" lon="11.1861616"><ele>388.0</ele><time>2026-04-19T12:04:54.824Z</time></trkpt><trkpt lat="44.400113" lon="11.186262"><ele>388.00000000000006</ele><time>2026-04-19T12:04:57.825Z</time></trkpt><trkpt lat="44.4001603" lon="11.1863267"><ele>388.0</ele><time>2026-04-19T12:04:59.825Z</time></trkpt><trkpt lat="44.4002004" lon="11.1864389"><ele>388.0</ele><time>2026-04-19T12:05:02.825Z</time></trkpt><trkpt lat="44.4001241" lon="11.1864646"><ele>388.0</ele><time>2026-04-19T12:05:07.825Z</time></trkpt><trkpt lat="44.4000479" lon="11.1864905"><ele>388.00000000000006</ele><time>2026-04-19T12:05:10.824Z</time></trkpt><trkpt lat="44.399969" lon="11.1864399"><ele>388.0</ele><time>2026-04-19T12:05:13.824Z</time></trkpt><trkpt lat="44.3999057" lon="11.1863929"><ele>388.00000000000006</ele><time>2026-04-19T12:05:15.824Z</time></trkpt><trkpt lat="44.3998186" lon="11.1863408"><ele>388.0</ele><time>2026-04-19T12:05:18.825Z</time></trkpt><trkpt lat="44.3997808" lon="11.1864532"><ele>388.0</ele><time>2026-04-19T12:05:22.825Z</time></trkpt><trkpt lat="44.3998095" lon="11.1865335"><ele>388.0</ele><time>2026-04-19T12:05:23.825Z</time></trkpt><trkpt lat="44.3998482" lon="11.1866479"><ele>388.00000000000006</ele><time>2026-04-19T12:05:25.824Z</time></trkpt><trkpt lat="44.3997966" lon="11.1867679"><ele>388.0</ele><time>2026-04-19T12:05:27.824Z</time></trkpt><trkpt lat="44.3997396" lon="11.1868071"><ele>379.4</ele><time>2026-04-19T12:05:28.824Z</time></trkpt><trkpt lat="44.3996263" lon="11.1868168"><ele>370.79999999999995</ele><time>2026-04-19T12:05:30.824Z</time></trkpt><trkpt lat="44.3995504" lon="11.1868638"><ele>362.2</ele><time>2026-04-19T12:05:32.825Z</time></trkpt><trkpt lat="44.3994738" lon="11.1869265"><ele>353.6</ele><time>2026-04-19T12:05:34.824Z</time></trkpt><trkpt lat="44.399437" lon="11.1869993"><ele>345.0</ele><time>2026-04-19T12:05:35.824Z</time></trkpt><trkpt lat="44.3994298" lon="11.1871556"><ele>345.0</ele><time>2026-04-19T12:05:36.825Z</time></trkpt><trkpt lat="44.399388" lon="11.1872928"><ele>345.0</ele><time>2026-04-19T12:05:38.824Z</time></trkpt><trkpt lat="44.3993517" lon="11.1873686"><ele>345.0</ele><time>2026-04-19T12:05:41.824Z</time></trkpt><trkpt lat="44.3993209" lon="11.1874826"><ele>345.0</ele><time>2026-04-19T12:05:46.824Z</time></trkpt><trkpt lat="44.3993081" lon="11.1876218"><ele>345.0</ele><time>2026-04-19T12:05:48.824Z</time></trkpt><trkpt lat="44.3992814" lon="11.1877209"><ele>345.0</ele><time>2026-04-19T12:05:49.824Z</time></trkpt><trkpt lat="44.3992167" lon="11.1878708"><ele>344.1666666666667</ele><time>2026-04-19T12:05:50.824Z</time></trkpt><trkpt lat="44.3991885" lon="11.1879737"><ele>343.3333333333333</ele><time>2026-04-19T12:05:51.824Z</time></trkpt><trkpt lat="44.399145" lon="11.1880881"><ele>342.5</ele><time>2026-04-19T12:05:52.824Z</time></trkpt><trkpt lat="44.399113" lon="11.1881968"><ele>341.66666666666663</ele><time>2026-04-19T12:05:53.824Z</time></trkpt><trkpt lat="44.3990771" lon="11.1883122"><ele>340.8333333333333</ele><time>2026-04-19T12:05:54.824Z</time></trkpt><trkpt lat="44.3990506" lon="11.1884209"><ele>340.0</ele><time>2026-04-19T12:05:55.824Z</time></trkpt><trkpt lat="44.3990341" lon="11.1885296"><ele>339.3333333333333</ele><time>2026-04-19T12:05:56.825Z</time></trkpt><trkpt lat="44.3990289" lon="11.1886433"><ele>338.66666666666663</ele><time>2026-04-19T12:05:57.824Z</time></trkpt><trkpt lat="44.3990291" lon="11.1887665"><ele>338.0</ele><time>2026-04-19T12:05:58.824Z</time></trkpt><trkpt lat="44.3990244" lon="11.1888877"><ele>337.3333333333333</ele><time>2026-04-19T12:05:59.824Z</time></trkpt><trkpt lat="44.3990142" lon="11.1890219"><ele>336.6666666666667</ele><time>2026-04-19T12:06:00.824Z</time></trkpt><trkpt lat="44.3990106" lon="11.1891311"><ele>336.0</ele><time>2026-04-19T12:06:01.824Z</time></trkpt><trkpt lat="44.3990162" lon="11.18927"><ele>335.0</ele><time>2026-04-19T12:06:02.825Z</time></trkpt><trkpt lat="44.3990461" lon="11.1893835"><ele>334.0</ele><time>2026-04-19T12:06:03.824Z</time></trkpt><trkpt lat="44.3990721" lon="11.1895031"><ele>333.0</ele><time>2026-04-19T12:06:04.825Z</time></trkpt><trkpt lat="44.3991043" lon="11.1895904"><ele>332.0</ele><time>2026-04-19T12:06:05.824Z</time></trkpt><trkpt lat="44.399135" lon="11.1896902"><ele>331.0</ele><time>2026-04-19T12:06:06.825Z</time></trkpt><trkpt lat="44.3991798" lon="11.189781"><ele>330.0</ele><time>2026-04-19T12:06:07.824Z</time></trkpt><trkpt lat="44.3992291" lon="11.189863"><ele>328.3333333333333</ele><time>2026-04-19T12:06:08.824Z</time></trkpt><trkpt lat="44.3992753" lon="11.1899389"><ele>326.6666666666667</ele><time>2026-04-19T12:06:09.824Z</time></trkpt><trkpt lat="44.3993367" lon="11.1900125"><ele>325.0</ele><time>2026-04-19T12:06:10.824Z</time></trkpt><trkpt lat="44.3993962" lon="11.190079"><ele>323.33333333333337</ele><time>2026-04-19T12:06:11.824Z</time></trkpt><trkpt lat="44.3994568" lon="11.1901588"><ele>321.6666666666667</ele><time>2026-04-19T12:06:12.825Z</time></trkpt><trkpt lat="44.3995191" lon="11.1902311"><ele>320.0</ele><time>2026-04-19T12:06:13.825Z</time></trkpt><trkpt lat="44.3995863" lon="11.1903154"><ele>320.0</ele><time>2026-04-19T12:06:14.825Z</time></trkpt><trkpt lat="44.399648" lon="11.1904056"><ele>320.0</ele><time>2026-04-19T12:06:15.825Z</time></trkpt><trkpt lat="44.3997132" lon="11.1904782"><ele>320.0</ele><time>2026-04-19T12:06:16.824Z</time></trkpt><trkpt lat="44.399766" lon="11.1905396"><ele>320.0</ele><time>2026-04-19T12:06:17.824Z</time></trkpt><trkpt lat="44.3998607" lon="11.1906735"><ele>320.0</ele><time>2026-04-19T12:06:19.825Z</time></trkpt><trkpt lat="44.3999457" lon="11.1907858"><ele>318.5</ele><time>2026-04-19T12:06:21.824Z</time></trkpt><trkpt lat="44.4000115" lon="11.1908476"><ele>317.0</ele><time>2026-04-19T12:06:23.824Z</time></trkpt><trkpt lat="44.4000969" lon="11.1908789"><ele>315.5</ele><time>2026-04-19T12:06:25.824Z</time></trkpt><trkpt lat="44.4001704" lon="11.1908737"><ele>314.0</ele><time>2026-04-19T12:06:27.824Z</time></trkpt><trkpt lat="44.4002528" lon="11.1908285"><ele>312.5</ele><time>2026-04-19T12:06:52.824Z</time></trkpt><trkpt lat="44.4003273" lon="11.190808"><ele>311.0</ele><time>2026-04-19T12:06:55.824Z</time></trkpt><trkpt lat="44.4002617" lon="11.1907942"><ele>311.0</ele><time>2026-04-19T12:07:09.824Z</time></trkpt><trkpt lat="44.4003243" lon="11.190781"><ele>311.0</ele><time>2026-04-19T12:07:39.825Z</time></trkpt><trkpt lat="44.400415" lon="11.1907789"><ele>311.0</ele><time>2026-04-19T12:07:41.824Z</time></trkpt><trkpt lat="44.400479" lon="11.1907983"><ele>311.0</ele><time>2026-04-19T12:07:42.824Z</time></trkpt><trkpt lat="44.4005517" lon="11.1908267"><ele>311.0</ele><time>2026-04-19T12:07:43.825Z</time></trkpt><trkpt lat="44.4006308" lon="11.1908811"><ele>311.0</ele><time>2026-04-19T12:07:44.824Z</time></trkpt><trkpt lat="44.4007116" lon="11.190935"><ele>312.6</ele><time>2026-04-19T12:07:45.824Z</time></trkpt><trkpt lat="44.4008047" lon="11.1909907"><ele>314.20000000000005</ele><time>2026-04-19T12:07:46.825Z</time></trkpt><trkpt lat="44.4008976" lon="11.1910472"><ele>315.79999999999995</ele><time>2026-04-19T12:07:47.824Z</time></trkpt><trkpt lat="44.4009907" lon="11.1911104"><ele>317.4</ele><time>2026-04-19T12:07:48.825Z</time></trkpt><trkpt lat="44.4010935" lon="11.1911566"><ele>319.0</ele><time>2026-04-19T12:07:49.824Z</time></trkpt><trkpt lat="44.4011968" lon="11.1911835"><ele>319.0</ele><time>2026-04-19T12:07:50.824Z</time></trkpt><trkpt lat="44.4012971" lon="11.1912016"><ele>319.0</ele><time>2026-04-19T12:07:51.824Z</time></trkpt><trkpt lat="44.4013987" lon="11.1912339"><ele>319.0</ele><time>2026-04-19T12:07:52.824Z</time></trkpt><trkpt lat="44.4014981" lon="11.1912664"><ele>319.0</ele><time>2026-04-19T12:07:53.824Z</time></trkpt><trkpt lat="44.4015966" lon="11.1913007"><ele>319.0</ele><time>2026-04-19T12:07:54.824Z</time></trkpt><trkpt lat="44.4016939" lon="11.191338"><ele>320.79999999999995</ele><time>2026-04-19T12:07:55.824Z</time></trkpt><trkpt lat="44.4017797" lon="11.1913745"><ele>322.59999999999997</ele><time>2026-04-19T12:07:56.824Z</time></trkpt><trkpt lat="44.4018749" lon="11.1914189"><ele>324.4</ele><time>2026-04-19T12:07:57.825Z</time></trkpt><trkpt lat="44.401956" lon="11.1914844"><ele>326.2</ele><time>2026-04-19T12:07:58.824Z</time></trkpt><trkpt lat="44.4020481" lon="11.1915602"><ele>328.0</ele><time>2026-04-19T12:07:59.824Z</time></trkpt><trkpt lat="44.4021337" lon="11.1916462"><ele>324.4</ele><time>2026-04-19T12:08:00.824Z</time></trkpt><trkpt lat="44.4022214" lon="11.1917195"><ele>320.79999999999995</ele><time>2026-04-19T12:08:01.824Z</time></trkpt><trkpt lat="44.4023143" lon="11.1917903"><ele>317.2</ele><time>2026-04-19T12:08:02.824Z</time></trkpt><trkpt lat="44.4024132" lon="11.1918529"><ele>313.6</ele><time>2026-04-19T12:08:03.824Z</time></trkpt><trkpt lat="44.4025102" lon="11.1919183"><ele>310.0</ele><time>2026-04-19T12:08:04.824Z</time></trkpt><trkpt lat="44.4026113" lon="11.1919831"><ele>310.0</ele><time>2026-04-19T12:08:05.824Z</time></trkpt><trkpt lat="44.4027124" lon="11.1920315"><ele>310.0</ele><time>2026-04-19T12:08:06.825Z</time></trkpt><trkpt lat="44.4028185" lon="11.1920795"><ele>310.0</ele><time>2026-04-19T12:08:07.824Z</time></trkpt><trkpt lat="44.4029284" lon="11.1921187"><ele>310.0</ele><time>2026-04-19T12:08:08.825Z</time></trkpt><trkpt lat="44.4030381" lon="11.1921595"><ele>310.0</ele><time>2026-04-19T12:08:09.825Z</time></trkpt><trkpt lat="44.4031564" lon="11.1921818"><ele>308.25</ele><time>2026-04-19T12:08:10.825Z</time></trkpt><trkpt lat="44.4032895" lon="11.1921932"><ele>306.5</ele><time>2026-04-19T12:08:11.824Z</time></trkpt><trkpt lat="44.4034257" lon="11.1922002"><ele>304.75</ele><time>2026-04-19T12:08:12.824Z</time></trkpt><trkpt lat="44.4035416" lon="11.1921871"><ele>303.0</ele><time>2026-04-19T12:08:13.824Z</time></trkpt><trkpt lat="44.403678" lon="11.1921605"><ele>303.0</ele><time>2026-04-19T12:08:14.824Z</time></trkpt><trkpt lat="44.4038101" lon="11.1921522"><ele>303.0</ele><time>2026-04-19T12:08:15.825Z</time></trkpt><trkpt lat="44.4039367" lon="11.1921468"><ele>303.0</ele><time>2026-04-19T12:08:16.825Z</time></trkpt><trkpt lat="44.4040586" lon="11.1921545"><ele>303.0</ele><time>2026-04-19T12:08:17.824Z</time></trkpt><trkpt lat="44.4041874" lon="11.1921697"><ele>303.75</ele><time>2026-04-19T12:08:18.825Z</time></trkpt><trkpt lat="44.4043065" lon="11.1922392"><ele>304.5</ele><time>2026-04-19T12:08:19.824Z</time></trkpt><trkpt lat="44.4044258" lon="11.1923101"><ele>305.25</ele><time>2026-04-19T12:08:20.824Z</time></trkpt><trkpt lat="44.4045433" lon="11.1923982"><ele>306.0</ele><time>2026-04-19T12:08:21.824Z</time></trkpt><trkpt lat="44.4046663" lon="11.1924981"><ele>300.3333333333333</ele><time>2026-04-19T12:08:22.824Z</time></trkpt><trkpt lat="44.4047923" lon="11.1926042"><ele>294.66666666666663</ele><time>2026-04-19T12:08:23.824Z</time></trkpt><trkpt lat="44.4049206" lon="11.1927155"><ele>289.0</ele><time>2026-04-19T12:08:24.825Z</time></trkpt><trkpt lat="44.4050486" lon="11.1928384"><ele>289.0</ele><time>2026-04-19T12:08:25.824Z</time></trkpt><trkpt lat="44.40517" lon="11.1929624"><ele>289.0</ele><time>2026-04-19T12:08:26.824Z</time></trkpt><trkpt lat="44.4052933" lon="11.1930856"><ele>289.0</ele><time>2026-04-19T12:08:27.825Z</time></trkpt><trkpt lat="44.4054201" lon="11.1932179"><ele>288.0</ele><time>2026-04-19T12:08:28.824Z</time></trkpt><trkpt lat="44.4055395" lon="11.1933525"><ele>287.0</ele><time>2026-04-19T12:08:29.825Z</time></trkpt><trkpt lat="44.4056529" lon="11.1934803"><ele>286.0</ele><time>2026-04-19T12:08:30.824Z</time></trkpt><trkpt lat="44.4057654" lon="11.1935961"><ele>285.0</ele><time>2026-04-19T12:08:31.824Z</time></trkpt><trkpt lat="44.4058803" lon="11.1937135"><ele>285.0</ele><time>2026-04-19T12:08:32.824Z</time></trkpt><trkpt lat="44.4059869" lon="11.193837"><ele>285.0</ele><time>2026-04-19T12:08:33.825Z</time></trkpt><trkpt lat="44.4060938" lon="11.1939608"><ele>285.0</ele><time>2026-04-19T12:08:34.824Z</time></trkpt><trkpt lat="44.4061838" lon="11.1940941"><ele>285.0</ele><time>2026-04-19T12:08:35.825Z</time></trkpt><trkpt lat="44.4062799" lon="11.1942235"><ele>283.25</ele><time>2026-04-19T12:08:36.825Z</time></trkpt><trkpt lat="44.4063791" lon="11.1943526"><ele>281.5</ele><time>2026-04-19T12:08:37.824Z</time></trkpt><trkpt lat="44.4064993" lon="11.1944352"><ele>279.75</ele><time>2026-04-19T12:08:38.824Z</time></trkpt><trkpt lat="44.4066151" lon="11.1945002"><ele>278.0</ele><time>2026-04-19T12:08:39.824Z</time></trkpt><trkpt lat="44.4067184" lon="11.1945515"><ele>278.0</ele><time>2026-04-19T12:08:40.825Z</time></trkpt><trkpt lat="44.4067992" lon="11.1946124"><ele>278.0</ele><time>2026-04-19T12:08:41.824Z</time></trkpt><trkpt lat="44.4068796" lon="11.194685"><ele>278.0</ele><time>2026-04-19T12:08:42.824Z</time></trkpt><trkpt lat="44.406923" lon="11.1947714"><ele>278.0</ele><time>2026-04-19T12:08:43.824Z</time></trkpt><trkpt lat="44.4068855" lon="11.1949458"><ele>278.0</ele><time>2026-04-19T12:08:44.825Z</time></trkpt><trkpt lat="44.406885" lon="11.19507"><ele>277.75</ele><time>2026-04-19T12:08:45.825Z</time></trkpt><trkpt lat="44.406864" lon="11.1952338"><ele>277.5</ele><time>2026-04-19T12:08:46.824Z</time></trkpt><trkpt lat="44.4068712" lon="11.1954257"><ele>277.25</ele><time>2026-04-19T12:08:47.824Z</time></trkpt><trkpt lat="44.4069147" lon="11.1956033"><ele>277.0</ele><time>2026-04-19T12:08:48.824Z</time></trkpt><trkpt lat="44.40697" lon="11.1957969"><ele>278.66666666666663</ele><time>2026-04-19T12:08:49.825Z</time></trkpt><trkpt lat="44.407158" lon="11.1961131"><ele>280.3333333333333</ele><time>2026-04-19T12:08:51.824Z</time></trkpt><trkpt lat="44.4072739" lon="11.1962554"><ele>282.0</ele><time>2026-04-19T12:08:52.824Z</time></trkpt><trkpt lat="44.4073824" lon="11.1963995"><ele>279.6666666666667</ele><time>2026-04-19T12:08:53.824Z</time></trkpt><trkpt lat="44.4074835" lon="11.1965686"><ele>277.33333333333337</ele><time>2026-04-19T12:08:54.825Z</time></trkpt><trkpt lat="44.4075771" lon="11.1967922"><ele>275.0</ele><time>2026-04-19T12:08:55.824Z</time></trkpt><trkpt lat="44.4076694" lon="11.1969608"><ele>275.0</ele><time>2026-04-19T12:08:56.825Z</time></trkpt><trkpt lat="44.4077545" lon="11.1971456"><ele>275.0</ele><time>2026-04-19T12:08:57.824Z</time></trkpt><trkpt lat="44.4078383" lon="11.197337"><ele>275.0</ele><time>2026-04-19T12:08:58.824Z</time></trkpt><trkpt lat="44.4079051" lon="11.1975309"><ele>275.0</ele><time>2026-04-19T12:08:59.824Z</time></trkpt><trkpt lat="44.4079602" lon="11.1977347"><ele>275.0</ele><time>2026-04-19T12:09:00.825Z</time></trkpt><trkpt lat="44.4080132" lon="11.1979154"><ele>275.0</ele><time>2026-04-19T12:09:01.825Z</time></trkpt><trkpt lat="44.4080533" lon="11.1980833"><ele>275.0</ele><time>2026-04-19T12:09:02.824Z</time></trkpt><trkpt lat="44.4081036" lon="11.198256"><ele>273.25</ele><time>2026-04-19T12:09:03.825Z</time></trkpt><trkpt lat="44.4081674" lon="11.1984158"><ele>271.5</ele><time>2026-04-19T12:09:04.824Z</time></trkpt><trkpt lat="44.408279" lon="11.1985263"><ele>269.75</ele><time>2026-04-19T12:09:05.825Z</time></trkpt><trkpt lat="44.4083677" lon="11.1986335"><ele>268.0</ele><time>2026-04-19T12:09:06.824Z</time></trkpt><trkpt lat="44.4084652" lon="11.1986674"><ele>268.0</ele><time>2026-04-19T12:09:07.824Z</time></trkpt><trkpt lat="44.408657" lon="11.1985576"><ele>268.0</ele><time>2026-04-19T12:09:08.824Z</time></trkpt><trkpt lat="44.408784" lon="11.1984989"><ele>268.0</ele><time>2026-04-19T12:09:09.824Z</time></trkpt><trkpt lat="44.4089207" lon="11.198441"><ele>267.0</ele><time>2026-04-19T12:09:10.824Z</time></trkpt><trkpt lat="44.4090433" lon="11.1984193"><ele>266.0</ele><time>2026-04-19T12:09:11.825Z</time></trkpt><trkpt lat="44.4091654" lon="11.1984333"><ele>265.0</ele><time>2026-04-19T12:09:12.824Z</time></trkpt><trkpt lat="44.4092622" lon="11.1985199"><ele>264.0</ele><time>2026-04-19T12:09:13.824Z</time></trkpt><trkpt lat="44.4093677" lon="11.1985998"><ele>264.0</ele><time>2026-04-19T12:09:14.825Z</time></trkpt><trkpt lat="44.4094471" lon="11.1987963"><ele>264.0</ele><time>2026-04-19T12:09:15.825Z</time></trkpt><trkpt lat="44.4095527" lon="11.1989351"><ele>264.0</ele><time>2026-04-19T12:09:16.824Z</time></trkpt><trkpt lat="44.4096585" lon="11.1990768"><ele>261.75</ele><time>2026-04-19T12:09:17.824Z</time></trkpt><trkpt lat="44.4097626" lon="11.1992103"><ele>259.5</ele><time>2026-04-19T12:09:18.824Z</time></trkpt><trkpt lat="44.4098754" lon="11.1993204"><ele>257.25</ele><time>2026-04-19T12:09:19.824Z</time></trkpt><trkpt lat="44.4099992" lon="11.1993802"><ele>255.0</ele><time>2026-04-19T12:09:20.824Z</time></trkpt><trkpt lat="44.4101226" lon="11.199398"><ele>255.0</ele><time>2026-04-19T12:09:21.825Z</time></trkpt><trkpt lat="44.410235" lon="11.1993573"><ele>255.0</ele><time>2026-04-19T12:09:22.824Z</time></trkpt><trkpt lat="44.4103545" lon="11.1993103"><ele>255.0</ele><time>2026-04-19T12:09:23.825Z</time></trkpt><trkpt lat="44.41047" lon="11.1993601"><ele>255.0</ele><time>2026-04-19T12:09:24.824Z</time></trkpt><trkpt lat="44.4105583" lon="11.1994348"><ele>255.25</ele><time>2026-04-19T12:09:25.825Z</time></trkpt><trkpt lat="44.4106387" lon="11.1995449"><ele>255.5</ele><time>2026-04-19T12:09:26.824Z</time></trkpt><trkpt lat="44.4107189" lon="11.199675"><ele>255.75</ele><time>2026-04-19T12:09:27.824Z</time></trkpt><trkpt lat="44.4107975" lon="11.1998145"><ele>256.0</ele><time>2026-04-19T12:09:28.824Z</time></trkpt><trkpt lat="44.410875" lon="11.1999559"><ele>255.5</ele><time>2026-04-19T12:09:29.824Z</time></trkpt><trkpt lat="44.4109627" lon="11.200084"><ele>255.0</ele><time>2026-04-19T12:09:30.825Z</time></trkpt><trkpt lat="44.4110532" lon="11.2002126"><ele>254.5</ele><time>2026-04-19T12:09:31.824Z</time></trkpt><trkpt lat="44.4111434" lon="11.200269"><ele>254.0</ele><time>2026-04-19T12:09:32.825Z</time></trkpt><trkpt lat="44.4112656" lon="11.2003168"><ele>253.25</ele><time>2026-04-19T12:09:33.824Z</time></trkpt><trkpt lat="44.4113953" lon="11.2002607"><ele>252.5</ele><time>2026-04-19T12:09:34.824Z</time></trkpt><trkpt lat="44.4115134" lon="11.2001486"><ele>251.75</ele><time>2026-04-19T12:09:35.824Z</time></trkpt><trkpt lat="44.4116574" lon="11.2000239"><ele>251.0</ele><time>2026-04-19T12:09:36.824Z</time></trkpt><trkpt lat="44.411832" lon="11.1999147"><ele>251.5</ele><time>2026-04-19T12:09:37.824Z</time></trkpt><trkpt lat="44.4119767" lon="11.1998324"><ele>252.0</ele><time>2026-04-19T12:09:38.824Z</time></trkpt><trkpt lat="44.4121143" lon="11.1997673"><ele>252.5</ele><time>2026-04-19T12:09:39.824Z</time></trkpt><trkpt lat="44.4122473" lon="11.199723"><ele>253.0</ele><time>2026-04-19T12:09:40.824Z</time></trkpt><trkpt lat="44.4123875" lon="11.1996983"><ele>253.0</ele><time>2026-04-19T12:09:41.825Z</time></trkpt><trkpt lat="44.4125227" lon="11.1996913"><ele>253.0</ele><time>2026-04-19T12:09:42.824Z</time></trkpt><trkpt lat="44.4126668" lon="11.1996954"><ele>253.0</ele><time>2026-04-19T12:09:43.824Z</time></trkpt><trkpt lat="44.4128032" lon="11.1997081"><ele>253.0</ele><time>2026-04-19T12:09:44.824Z</time></trkpt><trkpt lat="44.4129472" lon="11.1997276"><ele>251.5</ele><time>2026-04-19T12:09:45.824Z</time></trkpt><trkpt lat="44.4130906" lon="11.1997518"><ele>250.0</ele><time>2026-04-19T12:09:46.824Z</time></trkpt><trkpt lat="44.4132345" lon="11.19978"><ele>248.5</ele><time>2026-04-19T12:09:47.825Z</time></trkpt><trkpt lat="44.4133773" lon="11.1998179"><ele>247.0</ele><time>2026-04-19T12:09:48.825Z</time></trkpt><trkpt lat="44.4135175" lon="11.1998594"><ele>245.75</ele><time>2026-04-19T12:09:49.824Z</time></trkpt><trkpt lat="44.4136553" lon="11.1999099"><ele>244.5</ele><time>2026-04-19T12:09:50.825Z</time></trkpt><trkpt lat="44.4137853" lon="11.1999585"><ele>243.25</ele><time>2026-04-19T12:09:51.824Z</time></trkpt><trkpt lat="44.4139175" lon="11.2000063"><ele>242.0</ele><time>2026-04-19T12:09:52.824Z</time></trkpt><trkpt lat="44.4140522" lon="11.2000366"><ele>240.75</ele><time>2026-04-19T12:09:53.824Z</time></trkpt><trkpt lat="44.414195" lon="11.2000391"><ele>239.5</ele><time>2026-04-19T12:09:54.825Z</time></trkpt><trkpt lat="44.4143314" lon="11.2000199"><ele>238.25</ele><time>2026-04-19T12:09:55.824Z</time></trkpt><trkpt lat="44.4144669" lon="11.1999707"><ele>237.0</ele><time>2026-04-19T12:09:56.824Z</time></trkpt><trkpt lat="44.4145826" lon="11.1998791"><ele>235.25</ele><time>2026-04-19T12:09:57.824Z</time></trkpt><trkpt lat="44.4146693" lon="11.1997663"><ele>233.5</ele><time>2026-04-19T12:09:58.824Z</time></trkpt><trkpt lat="44.4147342" lon="11.1996262"><ele>231.75</ele><time>2026-04-19T12:09:59.824Z</time></trkpt><trkpt lat="44.4147898" lon="11.1994707"><ele>230.0</ele><time>2026-04-19T12:10:00.824Z</time></trkpt><trkpt lat="44.4148412" lon="11.1993063"><ele>230.0</ele><time>2026-04-19T12:10:01.824Z</time></trkpt><trkpt lat="44.4149063" lon="11.1991377"><ele>230.0</ele><time>2026-04-19T12:10:02.824Z</time></trkpt><trkpt lat="44.4149785" lon="11.1989748"><ele>230.0</ele><time>2026-04-19T12:10:03.824Z</time></trkpt><trkpt lat="44.4150631" lon="11.1988145"><ele>230.0</ele><time>2026-04-19T12:10:04.824Z</time></trkpt><trkpt lat="44.4151657" lon="11.1986757"><ele>229.25</ele><time>2026-04-19T12:10:05.825Z</time></trkpt><trkpt lat="44.4152773" lon="11.1985761"><ele>228.5</ele><time>2026-04-19T12:10:06.825Z</time></trkpt><trkpt lat="44.4154177" lon="11.1984839"><ele>227.75</ele><time>2026-04-19T12:10:07.825Z</time></trkpt><trkpt lat="44.4155414" lon="11.1984278"><ele>227.0</ele><time>2026-04-19T12:10:08.825Z</time></trkpt><trkpt lat="44.4156827" lon="11.1984766"><ele>227.0</ele><time>2026-04-19T12:10:09.824Z</time></trkpt><trkpt lat="44.4158255" lon="11.1985558"><ele>227.0</ele><time>2026-04-19T12:10:10.824Z</time></trkpt><trkpt lat="44.4159567" lon="11.1986534"><ele>227.0</ele><time>2026-04-19T12:10:11.824Z</time></trkpt><trkpt lat="44.4160881" lon="11.1987455"><ele>227.0</ele><time>2026-04-19T12:10:12.824Z</time></trkpt><trkpt lat="44.4162444" lon="11.1988034"><ele>226.75</ele><time>2026-04-19T12:10:13.824Z</time></trkpt><trkpt lat="44.4163941" lon="11.1988319"><ele>226.5</ele><time>2026-04-19T12:10:14.825Z</time></trkpt><trkpt lat="44.4165451" lon="11.1988622"><ele>226.25</ele><time>2026-04-19T12:10:15.824Z</time></trkpt><trkpt lat="44.4166866" lon="11.1988323"><ele>226.0</ele><time>2026-04-19T12:10:16.824Z</time></trkpt><trkpt lat="44.4168256" lon="11.1987897"><ele>226.0</ele><time>2026-04-19T12:10:17.825Z</time></trkpt><trkpt lat="44.4169301" lon="11.1986569"><ele>226.0</ele><time>2026-04-19T12:10:18.824Z</time></trkpt><trkpt lat="44.4170205" lon="11.1985301"><ele>226.0</ele><time>2026-04-19T12:10:19.824Z</time></trkpt><trkpt lat="44.4171097" lon="11.1984024"><ele>226.0</ele><time>2026-04-19T12:10:20.824Z</time></trkpt><trkpt lat="44.4172198" lon="11.1983003"><ele>225.25</ele><time>2026-04-19T12:10:21.824Z</time></trkpt><trkpt lat="44.4173481" lon="11.1982275"><ele>224.5</ele><time>2026-04-19T12:10:22.824Z</time></trkpt><trkpt lat="44.4174791" lon="11.1981474"><ele>223.75</ele><time>2026-04-19T12:10:23.824Z</time></trkpt><trkpt lat="44.4176027" lon="11.1980635"><ele>223.0</ele><time>2026-04-19T12:10:24.825Z</time></trkpt><trkpt lat="44.4177201" lon="11.1979701"><ele>223.0</ele><time>2026-04-19T12:10:25.824Z</time></trkpt><trkpt lat="44.4178284" lon="11.1978483"><ele>223.0</ele><time>2026-04-19T12:10:26.824Z</time></trkpt><trkpt lat="44.4179285" lon="11.1977215"><ele>223.0</ele><time>2026-04-19T12:10:27.825Z</time></trkpt><trkpt lat="44.4180349" lon="11.1976101"><ele>223.0</ele><time>2026-04-19T12:10:28.825Z</time></trkpt><trkpt lat="44.4181371" lon="11.1974948"><ele>222.75</ele><time>2026-04-19T12:10:29.825Z</time></trkpt><trkpt lat="44.418227" lon="11.1973664"><ele>222.5</ele><time>2026-04-19T12:10:30.825Z</time></trkpt><trkpt lat="44.4182977" lon="11.1972231"><ele>222.25</ele><time>2026-04-19T12:10:31.824Z</time></trkpt><trkpt lat="44.4183569" lon="11.1970848"><ele>222.0</ele><time>2026-04-19T12:10:32.825Z</time></trkpt><trkpt lat="44.4184141" lon="11.196952"><ele>221.39999999999998</ele><time>2026-04-19T12:10:33.824Z</time></trkpt><trkpt lat="44.4184757" lon="11.1968355"><ele>220.79999999999998</ele><time>2026-04-19T12:10:34.824Z</time></trkpt><trkpt lat="44.4185408" lon="11.1967428"><ele>220.2</ele><time>2026-04-19T12:10:35.825Z</time></trkpt><trkpt lat="44.4186095" lon="11.1966558"><ele>219.6</ele><time>2026-04-19T12:10:36.825Z</time></trkpt><trkpt lat="44.4186942" lon="11.1966057"><ele>219.0</ele><time>2026-04-19T12:10:37.824Z</time></trkpt><trkpt lat="44.4187897" lon="11.1965877"><ele>218.0</ele><time>2026-04-19T12:10:38.825Z</time></trkpt><trkpt lat="44.4188811" lon="11.1966032"><ele>216.99999999999997</ele><time>2026-04-19T12:10:39.824Z</time></trkpt><trkpt lat="44.4189659" lon="11.1966418"><ele>215.99999999999997</ele><time>2026-04-19T12:10:40.825Z</time></trkpt><trkpt lat="44.4190322" lon="11.1966911"><ele>215.0</ele><time>2026-04-19T12:10:41.824Z</time></trkpt><trkpt lat="44.4191117" lon="11.1967916"><ele>214.0</ele><time>2026-04-19T12:10:43.825Z</time></trkpt><trkpt lat="44.4191863" lon="11.1969087"><ele>213.99999999999997</ele><time>2026-04-19T12:10:45.824Z</time></trkpt><trkpt lat="44.4192404" lon="11.1969685"><ele>214.0</ele><time>2026-04-19T12:10:46.824Z</time></trkpt><trkpt lat="44.4193013" lon="11.1970161"><ele>214.0</ele><time>2026-04-19T12:10:47.824Z</time></trkpt><trkpt lat="44.4193748" lon="11.1970612"><ele>214.0</ele><time>2026-04-19T12:10:48.824Z</time></trkpt><trkpt lat="44.4194561" lon="11.197092"><ele>213.99999999999997</ele><time>2026-04-19T12:10:49.825Z</time></trkpt><trkpt lat="44.4195405" lon="11.1971137"><ele>214.0</ele><time>2026-04-19T12:10:50.825Z</time></trkpt><trkpt lat="44.419625" lon="11.1971097"><ele>213.83333333333331</ele><time>2026-04-19T12:10:51.824Z</time></trkpt><trkpt lat="44.4197122" lon="11.1970908"><ele>213.66666666666666</ele><time>2026-04-19T12:10:52.824Z</time></trkpt><trkpt lat="44.4197879" lon="11.1970542"><ele>213.5</ele><time>2026-04-19T12:10:53.825Z</time></trkpt><trkpt lat="44.4198562" lon="11.1969881"><ele>213.33333333333331</ele><time>2026-04-19T12:10:54.824Z</time></trkpt><trkpt lat="44.4199018" lon="11.1968828"><ele>213.16666666666666</ele><time>2026-04-19T12:10:55.825Z</time></trkpt><trkpt lat="44.4199182" lon="11.1967599"><ele>213.0</ele><time>2026-04-19T12:10:56.824Z</time></trkpt><trkpt lat="44.4199254" lon="11.1966432"><ele>213.0</ele><time>2026-04-19T12:10:57.824Z</time></trkpt><trkpt lat="44.4199385" lon="11.1965315"><ele>213.0</ele><time>2026-04-19T12:10:58.825Z</time></trkpt><trkpt lat="44.4199578" lon="11.1964311"><ele>213.0</ele><time>2026-04-19T12:10:59.824Z</time></trkpt><trkpt lat="44.4200014" lon="11.1963329"><ele>213.0</ele><time>2026-04-19T12:11:00.824Z</time></trkpt><trkpt lat="44.420067" lon="11.1962698"><ele>213.0</ele><time>2026-04-19T12:11:01.824Z</time></trkpt><trkpt lat="44.4201373" lon="11.1962137"><ele>213.0</ele><time>2026-04-19T12:11:02.824Z</time></trkpt><trkpt lat="44.4202663" lon="11.1962838"><ele>215.2</ele><time>2026-04-19T12:11:03.824Z</time></trkpt><trkpt lat="44.4203668" lon="11.1963042"><ele>217.4</ele><time>2026-04-19T12:11:04.824Z</time></trkpt><trkpt lat="44.4204687" lon="11.196311"><ele>219.59999999999997</ele><time>2026-04-19T12:11:05.825Z</time></trkpt><trkpt lat="44.4205763" lon="11.1963273"><ele>221.79999999999998</ele><time>2026-04-19T12:11:06.824Z</time></trkpt><trkpt lat="44.4206942" lon="11.1963421"><ele>224.0</ele><time>2026-04-19T12:11:07.824Z</time></trkpt><trkpt lat="44.4208153" lon="11.1963772"><ele>226.25</ele><time>2026-04-19T12:11:08.825Z</time></trkpt><trkpt lat="44.4209377" lon="11.1964371"><ele>228.5</ele><time>2026-04-19T12:11:09.824Z</time></trkpt><trkpt lat="44.4210373" lon="11.1965352"><ele>230.75</ele><time>2026-04-19T12:11:10.825Z</time></trkpt><trkpt lat="44.4211241" lon="11.1966493"><ele>233.0</ele><time>2026-04-19T12:11:11.825Z</time></trkpt><trkpt lat="44.421216" lon="11.1967679"><ele>227.75</ele><time>2026-04-19T12:11:12.825Z</time></trkpt><trkpt lat="44.4212949" lon="11.1968992"><ele>222.5</ele><time>2026-04-19T12:11:13.824Z</time></trkpt><trkpt lat="44.4213602" lon="11.1970398"><ele>217.25</ele><time>2026-04-19T12:11:14.824Z</time></trkpt><trkpt lat="44.4214148" lon="11.1971886"><ele>212.0</ele><time>2026-04-19T12:11:15.825Z</time></trkpt><trkpt lat="44.421463" lon="11.1973431"><ele>210.0</ele><time>2026-04-19T12:11:16.824Z</time></trkpt><trkpt lat="44.4215011" lon="11.1975019"><ele>208.0</ele><time>2026-04-19T12:11:17.824Z</time></trkpt><trkpt lat="44.4215424" lon="11.1976608"><ele>206.0</ele><time>2026-04-19T12:11:18.824Z</time></trkpt><trkpt lat="44.4215938" lon="11.1978107"><ele>204.0</ele><time>2026-04-19T12:11:19.824Z</time></trkpt><trkpt lat="44.4216605" lon="11.1979424"><ele>204.0</ele><time>2026-04-19T12:11:20.825Z</time></trkpt><trkpt lat="44.4217486" lon="11.1980396"><ele>204.0</ele><time>2026-04-19T12:11:21.824Z</time></trkpt><trkpt lat="44.4218448" lon="11.1980998"><ele>204.0</ele><time>2026-04-19T12:11:22.825Z</time></trkpt><trkpt lat="44.421944" lon="11.198146"><ele>204.0</ele><time>2026-04-19T12:11:23.825Z</time></trkpt><trkpt lat="44.422042" lon="11.1981752"><ele>204.0</ele><time>2026-04-19T12:11:24.824Z</time></trkpt><trkpt lat="44.4221394" lon="11.1981942"><ele>204.0</ele><time>2026-04-19T12:11:25.825Z</time></trkpt><trkpt lat="44.4222362" lon="11.1981924"><ele>204.0</ele><time>2026-04-19T12:11:26.824Z</time></trkpt><trkpt lat="44.42234" lon="11.1981643"><ele>204.0</ele><time>2026-04-19T12:11:27.825Z</time></trkpt><trkpt lat="44.4224478" lon="11.19811"><ele>204.0</ele><time>2026-04-19T12:11:28.824Z</time></trkpt><trkpt lat="44.422556" lon="11.1980236"><ele>204.0</ele><time>2026-04-19T12:11:29.824Z</time></trkpt><trkpt lat="44.4226629" lon="11.197929"><ele>203.0</ele><time>2026-04-19T12:11:30.824Z</time></trkpt><trkpt lat="44.4227712" lon="11.1978271"><ele>202.0</ele><time>2026-04-19T12:11:31.824Z</time></trkpt><trkpt lat="44.4228656" lon="11.1977106"><ele>201.0</ele><time>2026-04-19T12:11:32.824Z</time></trkpt><trkpt lat="44.4229526" lon="11.1975775"><ele>200.0</ele><time>2026-04-19T12:11:33.824Z</time></trkpt><trkpt lat="44.4230499" lon="11.1974724"><ele>199.75</ele><time>2026-04-19T12:11:34.825Z</time></trkpt><trkpt lat="44.4231383" lon="11.1973681"><ele>199.5</ele><time>2026-04-19T12:11:35.824Z</time></trkpt><trkpt lat="44.4232281" lon="11.1972719"><ele>199.25</ele><time>2026-04-19T12:11:36.825Z</time></trkpt><trkpt lat="44.4233257" lon="11.1971641"><ele>199.0</ele><time>2026-04-19T12:11:37.825Z</time></trkpt><trkpt lat="44.4234276" lon="11.1970588"><ele>199.0</ele><time>2026-04-19T12:11:38.825Z</time></trkpt><trkpt lat="44.4235237" lon="11.1969575"><ele>199.0</ele><time>2026-04-19T12:11:39.825Z</time></trkpt><trkpt lat="44.4236268" lon="11.1968629"><ele>199.0</ele><time>2026-04-19T12:11:40.824Z</time></trkpt><trkpt lat="44.4237281" lon="11.1967882"><ele>199.0</ele><time>2026-04-19T12:11:41.824Z</time></trkpt><trkpt lat="44.4238321" lon="11.1967209"><ele>197.5</ele><time>2026-04-19T12:11:42.824Z</time></trkpt><trkpt lat="44.4239522" lon="11.1966859"><ele>196.0</ele><time>2026-04-19T12:11:43.824Z</time></trkpt><trkpt lat="44.42409" lon="11.1966906"><ele>194.5</ele><time>2026-04-19T12:11:44.824Z</time></trkpt><trkpt lat="44.4242329" lon="11.1967122"><ele>193.0</ele><time>2026-04-19T12:11:45.824Z</time></trkpt><trkpt lat="44.4243695" lon="11.1967389"><ele>193.0</ele><time>2026-04-19T12:11:46.824Z</time></trkpt><trkpt lat="44.4245024" lon="11.1967629"><ele>193.0</ele><time>2026-04-19T12:11:47.824Z</time></trkpt><trkpt lat="44.4246307" lon="11.1967777"><ele>193.0</ele><time>2026-04-19T12:11:48.824Z</time></trkpt><trkpt lat="44.4247606" lon="11.196788"><ele>193.0</ele><time>2026-04-19T12:11:49.824Z</time></trkpt><trkpt lat="44.4248918" lon="11.1967938"><ele>192.75</ele><time>2026-04-19T12:11:50.825Z</time></trkpt><trkpt lat="44.4250296" lon="11.1968034"><ele>192.5</ele><time>2026-04-19T12:11:51.825Z</time></trkpt><trkpt lat="44.4251782" lon="11.1967736"><ele>192.25</ele><time>2026-04-19T12:11:52.824Z</time></trkpt><trkpt lat="44.4253201" lon="11.1967396"><ele>192.0</ele><time>2026-04-19T12:11:53.825Z</time></trkpt><trkpt lat="44.4254579" lon="11.196713"><ele>192.33333333333331</ele><time>2026-04-19T12:11:54.825Z</time></trkpt><trkpt lat="44.4256011" lon="11.1966917"><ele>192.66666666666666</ele><time>2026-04-19T12:11:55.824Z</time></trkpt><trkpt lat="44.4257484" lon="11.1966724"><ele>193.0</ele><time>2026-04-19T12:11:56.825Z</time></trkpt><trkpt lat="44.4259102" lon="11.1966692"><ele>193.0</ele><time>2026-04-19T12:11:57.824Z</time></trkpt><trkpt lat="44.42607" lon="11.196665"><ele>193.0</ele><time>2026-04-19T12:11:58.824Z</time></trkpt><trkpt lat="44.4262349" lon="11.1966602"><ele>193.0</ele><time>2026-04-19T12:11:59.824Z</time></trkpt><trkpt lat="44.4263994" lon="11.1966564"><ele>191.66666666666666</ele><time>2026-04-19T12:12:00.825Z</time></trkpt><trkpt lat="44.4265506" lon="11.1966529"><ele>190.33333333333331</ele><time>2026-04-19T12:12:01.824Z</time></trkpt><trkpt lat="44.4267215" lon="11.19664"><ele>189.0</ele><time>2026-04-19T12:12:02.824Z</time></trkpt><trkpt lat="44.4268907" lon="11.1966199"><ele>189.0</ele><time>2026-04-19T12:12:03.824Z</time></trkpt><trkpt lat="44.4270645" lon="11.1965949"><ele>189.0</ele><time>2026-04-19T12:12:04.824Z</time></trkpt><trkpt lat="44.4272319" lon="11.1965694"><ele>189.0</ele><time>2026-04-19T12:12:05.825Z</time></trkpt><trkpt lat="44.4274018" lon="11.1965474"><ele>188.33333333333334</ele><time>2026-04-19T12:12:06.824Z</time></trkpt><trkpt lat="44.4275626" lon="11.1965275"><ele>187.66666666666669</ele><time>2026-04-19T12:12:07.824Z</time></trkpt><trkpt lat="44.427721" lon="11.1965042"><ele>187.0</ele><time>2026-04-19T12:12:08.824Z</time></trkpt><trkpt lat="44.427878" lon="11.1964913"><ele>186.33333333333334</ele><time>2026-04-19T12:12:09.825Z</time></trkpt><trkpt lat="44.4280264" lon="11.1964731"><ele>185.66666666666666</ele><time>2026-04-19T12:12:10.824Z</time></trkpt><trkpt lat="44.4281753" lon="11.1964465"><ele>185.0</ele><time>2026-04-19T12:12:11.824Z</time></trkpt><trkpt lat="44.4283254" lon="11.1964206"><ele>185.0</ele><time>2026-04-19T12:12:12.824Z</time></trkpt><trkpt lat="44.4284686" lon="11.1963856"><ele>185.0</ele><time>2026-04-19T12:12:13.825Z</time></trkpt><trkpt lat="44.4286135" lon="11.1963466"><ele>185.0</ele><time>2026-04-19T12:12:14.825Z</time></trkpt><trkpt lat="44.4287622" lon="11.1963074"><ele>185.0</ele><time>2026-04-19T12:12:15.824Z</time></trkpt><trkpt lat="44.4289169" lon="11.1962814"><ele>184.33333333333331</ele><time>2026-04-19T12:12:16.824Z</time></trkpt><trkpt lat="44.4290735" lon="11.1962591"><ele>183.66666666666666</ele><time>2026-04-19T12:12:17.824Z</time></trkpt><trkpt lat="44.4292321" lon="11.1962419"><ele>183.0</ele><time>2026-04-19T12:12:18.824Z</time></trkpt><trkpt lat="44.4294015" lon="11.1962296"><ele>183.0</ele><time>2026-04-19T12:12:19.824Z</time></trkpt><trkpt lat="44.4295704" lon="11.1962184"><ele>183.0</ele><time>2026-04-19T12:12:20.824Z</time></trkpt><trkpt lat="44.4297473" lon="11.1962159"><ele>183.0</ele><time>2026-04-19T12:12:21.825Z</time></trkpt><trkpt lat="44.4299188" lon="11.1962311"><ele>183.0</ele><time>2026-04-19T12:12:22.825Z</time></trkpt><trkpt lat="44.4300919" lon="11.1962681"><ele>183.0</ele><time>2026-04-19T12:12:23.824Z</time></trkpt><trkpt lat="44.4302623" lon="11.1963139"><ele>183.0</ele><time>2026-04-19T12:12:24.825Z</time></trkpt><trkpt lat="44.4304326" lon="11.1963698"><ele>182.33333333333334</ele><time>2026-04-19T12:12:25.825Z</time></trkpt><trkpt lat="44.4306006" lon="11.1964179"><ele>181.66666666666669</ele><time>2026-04-19T12:12:26.824Z</time></trkpt><trkpt lat="44.4307641" lon="11.1964847"><ele>181.0</ele><time>2026-04-19T12:12:27.825Z</time></trkpt><trkpt lat="44.4309219" lon="11.1965644"><ele>178.33333333333334</ele><time>2026-04-19T12:12:28.824Z</time></trkpt><trkpt lat="44.4310731" lon="11.1966608"><ele>175.66666666666666</ele><time>2026-04-19T12:12:29.824Z</time></trkpt><trkpt lat="44.4312266" lon="11.1967614"><ele>173.0</ele><time>2026-04-19T12:12:30.824Z</time></trkpt><trkpt lat="44.4313779" lon="11.1968578"><ele>172.66666666666666</ele><time>2026-04-19T12:12:31.824Z</time></trkpt><trkpt lat="44.4315398" lon="11.1969405"><ele>172.33333333333334</ele><time>2026-04-19T12:12:32.824Z</time></trkpt><trkpt lat="44.4317045" lon="11.1970045"><ele>172.0</ele><time>2026-04-19T12:12:33.824Z</time></trkpt><trkpt lat="44.4318704" lon="11.1970364"><ele>172.0</ele><time>2026-04-19T12:12:34.824Z</time></trkpt><trkpt lat="44.4320434" lon="11.1970637"><ele>172.0</ele><time>2026-04-19T12:12:35.824Z</time></trkpt><trkpt lat="44.4322192" lon="11.1970566"><ele>172.0</ele><time>2026-04-19T12:12:36.824Z</time></trkpt><trkpt lat="44.4323896" lon="11.1970115"><ele>170.66666666666669</ele><time>2026-04-19T12:12:37.824Z</time></trkpt><trkpt lat="44.4325536" lon="11.1969337"><ele>169.33333333333334</ele><time>2026-04-19T12:12:38.824Z</time></trkpt><trkpt lat="44.4327123" lon="11.1968421"><ele>168.0</ele><time>2026-04-19T12:12:39.825Z</time></trkpt><trkpt lat="44.4328736" lon="11.196762"><ele>168.66666666666666</ele><time>2026-04-19T12:12:40.824Z</time></trkpt><trkpt lat="44.4330358" lon="11.1967065"><ele>169.33333333333331</ele><time>2026-04-19T12:12:41.824Z</time></trkpt><trkpt lat="44.4332014" lon="11.1966882"><ele>170.0</ele><time>2026-04-19T12:12:42.824Z</time></trkpt><trkpt lat="44.4333683" lon="11.1967092"><ele>170.0</ele><time>2026-04-19T12:12:43.824Z</time></trkpt><trkpt lat="44.4335281" lon="11.1967654"><ele>170.0</ele><time>2026-04-19T12:12:44.825Z</time></trkpt><trkpt lat="44.4336708" lon="11.1968566"><ele>170.0</ele><time>2026-04-19T12:12:45.824Z</time></trkpt><trkpt lat="44.4337993" lon="11.196977"><ele>171.0</ele><time>2026-04-19T12:12:46.824Z</time></trkpt><trkpt lat="44.4339088" lon="11.1971248"><ele>172.0</ele><time>2026-04-19T12:12:47.824Z</time></trkpt><trkpt lat="44.4340023" lon="11.1972858"><ele>173.0</ele><time>2026-04-19T12:12:48.824Z</time></trkpt><trkpt lat="44.434089" lon="11.1974508"><ele>174.0</ele><time>2026-04-19T12:12:49.824Z</time></trkpt><trkpt lat="44.4341789" lon="11.1976045"><ele>171.75</ele><time>2026-04-19T12:12:50.824Z</time></trkpt><trkpt lat="44.4342757" lon="11.1977494"><ele>169.5</ele><time>2026-04-19T12:12:51.824Z</time></trkpt><trkpt lat="44.4343849" lon="11.1978823"><ele>167.25</ele><time>2026-04-19T12:12:52.824Z</time></trkpt><trkpt lat="44.43451" lon="11.1980004"><ele>165.0</ele><time>2026-04-19T12:12:53.825Z</time></trkpt><trkpt lat="44.4346454" lon="11.1981031"><ele>163.33333333333334</ele><time>2026-04-19T12:12:54.825Z</time></trkpt><trkpt lat="44.4347902" lon="11.1981943"><ele>161.66666666666669</ele><time>2026-04-19T12:12:55.824Z</time></trkpt><trkpt lat="44.4349383" lon="11.1982644"><ele>160.0</ele><time>2026-04-19T12:12:56.825Z</time></trkpt><trkpt lat="44.4350903" lon="11.1983212"><ele>160.0</ele><time>2026-04-19T12:12:57.825Z</time></trkpt><trkpt lat="44.4352452" lon="11.1983704"><ele>160.0</ele><time>2026-04-19T12:12:58.825Z</time></trkpt><trkpt lat="44.4353997" lon="11.198416"><ele>160.0</ele><time>2026-04-19T12:12:59.825Z</time></trkpt><trkpt lat="44.4355548" lon="11.1984552"><ele>159.33333333333334</ele><time>2026-04-19T12:13:00.824Z</time></trkpt><trkpt lat="44.4357115" lon="11.1984936"><ele>158.66666666666666</ele><time>2026-04-19T12:13:01.825Z</time></trkpt><trkpt lat="44.4358648" lon="11.1985312"><ele>158.0</ele><time>2026-04-19T12:13:02.824Z</time></trkpt><trkpt lat="44.4360205" lon="11.1985677"><ele>158.0</ele><time>2026-04-19T12:13:03.824Z</time></trkpt><trkpt lat="44.4361761" lon="11.1986035"><ele>158.0</ele><time>2026-04-19T12:13:04.824Z</time></trkpt><trkpt lat="44.4363274" lon="11.1986361"><ele>158.0</ele><time>2026-04-19T12:13:05.824Z</time></trkpt><trkpt lat="44.4364793" lon="11.1986662"><ele>158.25</ele><time>2026-04-19T12:13:06.824Z</time></trkpt><trkpt lat="44.4366276" lon="11.1987004"><ele>158.5</ele><time>2026-04-19T12:13:07.824Z</time></trkpt><trkpt lat="44.4367734" lon="11.1987324"><ele>158.75</ele><time>2026-04-19T12:13:08.824Z</time></trkpt><trkpt lat="44.4369198" lon="11.1987668"><ele>159.0</ele><time>2026-04-19T12:13:09.825Z</time></trkpt><trkpt lat="44.4370657" lon="11.198809"><ele>159.0</ele><time>2026-04-19T12:13:10.824Z</time></trkpt><trkpt lat="44.4372136" lon="11.1988498"><ele>159.0</ele><time>2026-04-19T12:13:11.824Z</time></trkpt><trkpt lat="44.4373641" lon="11.1988816"><ele>159.0</ele><time>2026-04-19T12:13:12.824Z</time></trkpt><trkpt lat="44.4375143" lon="11.1989114"><ele>159.0</ele><time>2026-04-19T12:13:13.824Z</time></trkpt><trkpt lat="44.4376598" lon="11.1989487"><ele>159.0</ele><time>2026-04-19T12:13:14.825Z</time></trkpt><trkpt lat="44.4378096" lon="11.1989815"><ele>159.0</ele><time>2026-04-19T12:13:15.824Z</time></trkpt><trkpt lat="44.4379578" lon="11.1990019"><ele>159.0</ele><time>2026-04-19T12:13:16.825Z</time></trkpt><trkpt lat="44.4381039" lon="11.199021"><ele>156.66666666666666</ele><time>2026-04-19T12:13:17.824Z</time></trkpt><trkpt lat="44.4382523" lon="11.1990351"><ele>154.33333333333331</ele><time>2026-04-19T12:13:18.824Z</time></trkpt><trkpt lat="44.4384019" lon="11.1990624"><ele>152.0</ele><time>2026-04-19T12:13:19.824Z</time></trkpt><trkpt lat="44.4385514" lon="11.1990994"><ele>152.0</ele><time>2026-04-19T12:13:20.825Z</time></trkpt><trkpt lat="44.4386913" lon="11.1991636"><ele>152.0</ele><time>2026-04-19T12:13:21.824Z</time></trkpt><trkpt lat="44.4388272" lon="11.1992545"><ele>152.0</ele><time>2026-04-19T12:13:22.824Z</time></trkpt><trkpt lat="44.438961" lon="11.1993681"><ele>151.66666666666666</ele><time>2026-04-19T12:13:23.824Z</time></trkpt><trkpt lat="44.4390875" lon="11.1994948"><ele>151.33333333333334</ele><time>2026-04-19T12:13:24.825Z</time></trkpt><trkpt lat="44.4392063" lon="11.1996461"><ele>151.0</ele><time>2026-04-19T12:13:25.824Z</time></trkpt><trkpt lat="44.4393285" lon="11.1997959"><ele>150.33333333333334</ele><time>2026-04-19T12:13:26.824Z</time></trkpt><trkpt lat="44.4394556" lon="11.1999399"><ele>149.66666666666666</ele><time>2026-04-19T12:13:27.824Z</time></trkpt><trkpt lat="44.4396008" lon="11.200053"><ele>149.0</ele><time>2026-04-19T12:13:28.825Z</time></trkpt><trkpt lat="44.4397616" lon="11.2001195"><ele>148.0</ele><time>2026-04-19T12:13:29.824Z</time></trkpt><trkpt lat="44.4399294" lon="11.2001433"><ele>147.0</ele><time>2026-04-19T12:13:30.824Z</time></trkpt><trkpt lat="44.4400947" lon="11.2001309"><ele>146.0</ele><time>2026-04-19T12:13:31.825Z</time></trkpt><trkpt lat="44.4402666" lon="11.2000748"><ele>146.0</ele><time>2026-04-19T12:13:32.825Z</time></trkpt><trkpt lat="44.4404288" lon="11.1999768"><ele>146.0</ele><time>2026-04-19T12:13:33.825Z</time></trkpt><trkpt lat="44.4405747" lon="11.1998469"><ele>146.0</ele><time>2026-04-19T12:13:34.824Z</time></trkpt><trkpt lat="44.4407217" lon="11.1997175"><ele>146.33333333333331</ele><time>2026-04-19T12:13:35.824Z</time></trkpt><trkpt lat="44.440872" lon="11.1996001"><ele>146.66666666666666</ele><time>2026-04-19T12:13:36.824Z</time></trkpt><trkpt lat="44.4410252" lon="11.1994974"><ele>147.0</ele><time>2026-04-19T12:13:37.825Z</time></trkpt><trkpt lat="44.4411884" lon="11.1994233"><ele>146.0</ele><time>2026-04-19T12:13:38.824Z</time></trkpt><trkpt lat="44.441354" lon="11.1993634"><ele>145.0</ele><time>2026-04-19T12:13:39.824Z</time></trkpt><trkpt lat="44.4415241" lon="11.1993232"><ele>144.0</ele><time>2026-04-19T12:13:40.824Z</time></trkpt><trkpt lat="44.4416948" lon="11.1992927"><ele>144.0</ele><time>2026-04-19T12:13:41.824Z</time></trkpt><trkpt lat="44.4418693" lon="11.1992897"><ele>144.0</ele><time>2026-04-19T12:13:42.824Z</time></trkpt><trkpt lat="44.4420348" lon="11.1993097"><ele>144.0</ele><time>2026-04-19T12:13:43.824Z</time></trkpt><trkpt lat="44.4421932" lon="11.1993611"><ele>145.66666666666666</ele><time>2026-04-19T12:13:44.825Z</time></trkpt><trkpt lat="44.4423423" lon="11.1994516"><ele>147.33333333333331</ele><time>2026-04-19T12:13:45.824Z</time></trkpt><trkpt lat="44.4424721" lon="11.1995825"><ele>149.0</ele><time>2026-04-19T12:13:46.824Z</time></trkpt><trkpt lat="44.4425894" lon="11.1997351"><ele>147.33333333333331</ele><time>2026-04-19T12:13:47.824Z</time></trkpt><trkpt lat="44.4427157" lon="11.1998695"><ele>145.66666666666666</ele><time>2026-04-19T12:13:48.825Z</time></trkpt><trkpt lat="44.442859" lon="11.1999489"><ele>144.0</ele><time>2026-04-19T12:13:49.824Z</time></trkpt><trkpt lat="44.4430056" lon="11.1999741"><ele>144.33333333333334</ele><time>2026-04-19T12:13:50.824Z</time></trkpt><trkpt lat="44.443155" lon="11.1999275"><ele>144.66666666666669</ele><time>2026-04-19T12:13:51.824Z</time></trkpt><trkpt lat="44.4432921" lon="11.1998225"><ele>145.0</ele><time>2026-04-19T12:13:52.824Z</time></trkpt><trkpt lat="44.4434197" lon="11.1996872"><ele>145.0</ele><time>2026-04-19T12:13:53.824Z</time></trkpt><trkpt lat="44.443663" lon="11.199403"><ele>145.0</ele><time>2026-04-19T12:13:55.824Z</time></trkpt><trkpt lat="44.4437908" lon="11.1992822"><ele>143.0</ele><time>2026-04-19T12:13:56.825Z</time></trkpt><trkpt lat="44.4439319" lon="11.1991957"><ele>141.0</ele><time>2026-04-19T12:13:57.824Z</time></trkpt><trkpt lat="44.4440791" lon="11.1991457"><ele>139.0</ele><time>2026-04-19T12:13:58.824Z</time></trkpt><trkpt lat="44.4442329" lon="11.1991242"><ele>139.0</ele><time>2026-04-19T12:13:59.825Z</time></trkpt><trkpt lat="44.4443921" lon="11.1991229"><ele>139.0</ele><time>2026-04-19T12:14:00.824Z</time></trkpt><trkpt lat="44.4445591" lon="11.1991268"><ele>139.0</ele><time>2026-04-19T12:14:01.825Z</time></trkpt><trkpt lat="44.4447435" lon="11.1991126"><ele>138.66666666666669</ele><time>2026-04-19T12:14:02.824Z</time></trkpt><trkpt lat="44.4449473" lon="11.1990748"><ele>138.33333333333334</ele><time>2026-04-19T12:14:03.824Z</time></trkpt><trkpt lat="44.4451565" lon="11.199031"><ele>138.0</ele><time>2026-04-19T12:14:04.825Z</time></trkpt><trkpt lat="44.4453611" lon="11.1989705"><ele>137.66666666666666</ele><time>2026-04-19T12:14:05.825Z</time></trkpt><trkpt lat="44.445535" lon="11.1988553"><ele>137.33333333333331</ele><time>2026-04-19T12:14:06.824Z</time></trkpt><trkpt lat="44.4456897" lon="11.1986968"><ele>137.0</ele><time>2026-04-19T12:14:07.824Z</time></trkpt><trkpt lat="44.4458318" lon="11.1985154"><ele>137.0</ele><time>2026-04-19T12:14:08.824Z</time></trkpt><trkpt lat="44.4459729" lon="11.1983445"><ele>137.0</ele><time>2026-04-19T12:14:09.825Z</time></trkpt><trkpt lat="44.4461139" lon="11.1981857"><ele>137.0</ele><time>2026-04-19T12:14:10.824Z</time></trkpt><trkpt lat="44.4462617" lon="11.1980409"><ele>139.66666666666666</ele><time>2026-04-19T12:14:11.824Z</time></trkpt><trkpt lat="44.4464187" lon="11.1979215"><ele>142.33333333333334</ele><time>2026-04-19T12:14:12.824Z</time></trkpt><trkpt lat="44.4465841" lon="11.1978284"><ele>145.0</ele><time>2026-04-19T12:14:13.824Z</time></trkpt><trkpt lat="44.4467524" lon="11.1977622"><ele>145.0</ele><time>2026-04-19T12:14:14.824Z</time></trkpt><trkpt lat="44.4469168" lon="11.1977066"><ele>145.0</ele><time>2026-04-19T12:14:15.824Z</time></trkpt><trkpt lat="44.4470915" lon="11.1976571"><ele>145.0</ele><time>2026-04-19T12:14:16.825Z</time></trkpt><trkpt lat="44.4472626" lon="11.1976086"><ele>145.33333333333334</ele><time>2026-04-19T12:14:17.825Z</time></trkpt><trkpt lat="44.4474236" lon="11.1975631"><ele>145.66666666666666</ele><time>2026-04-19T12:14:18.824Z</time></trkpt><trkpt lat="44.4475881" lon="11.1975205"><ele>146.0</ele><time>2026-04-19T12:14:19.825Z</time></trkpt><trkpt lat="44.4477495" lon="11.1974671"><ele>146.0</ele><time>2026-04-19T12:14:20.824Z</time></trkpt><trkpt lat="44.4479032" lon="11.1973806"><ele>146.0</ele><time>2026-04-19T12:14:21.824Z</time></trkpt><trkpt lat="44.4480197" lon="11.1972384"><ele>146.0</ele><time>2026-04-19T12:14:22.825Z</time></trkpt><trkpt lat="44.4481421" lon="11.1970781"><ele>146.66666666666666</ele><time>2026-04-19T12:14:23.825Z</time></trkpt><trkpt lat="44.448264" lon="11.1969177"><ele>147.33333333333334</ele><time>2026-04-19T12:14:24.824Z</time></trkpt><trkpt lat="44.4483975" lon="11.1967719"><ele>148.0</ele><time>2026-04-19T12:14:25.824Z</time></trkpt><trkpt lat="44.448534" lon="11.1966336"><ele>148.0</ele><time>2026-04-19T12:14:26.824Z</time></trkpt><trkpt lat="44.4486821" lon="11.1965181"><ele>148.0</ele><time>2026-04-19T12:14:27.825Z</time></trkpt><trkpt lat="44.4488465" lon="11.1964211"><ele>148.0</ele><time>2026-04-19T12:14:28.824Z</time></trkpt><trkpt lat="44.4490087" lon="11.196355"><ele>143.0</ele><time>2026-04-19T12:14:29.824Z</time></trkpt><trkpt lat="44.4491762" lon="11.1963212"><ele>138.0</ele><time>2026-04-19T12:14:30.824Z</time></trkpt><trkpt lat="44.4493448" lon="11.196283"><ele>133.0</ele><time>2026-04-19T12:14:31.824Z</time></trkpt><trkpt lat="44.4495149" lon="11.196217"><ele>130.33333333333334</ele><time>2026-04-19T12:14:32.824Z</time></trkpt><trkpt lat="44.4496748" lon="11.1961305"><ele>127.66666666666666</ele><time>2026-04-19T12:14:33.825Z</time></trkpt><trkpt lat="44.4498308" lon="11.1960509"><ele>125.0</ele><time>2026-04-19T12:14:34.824Z</time></trkpt><trkpt lat="44.4499768" lon="11.1959645"><ele>125.0</ele><time>2026-04-19T12:14:35.825Z</time></trkpt><trkpt lat="44.4501089" lon="11.1958767"><ele>125.0</ele><time>2026-04-19T12:14:36.825Z</time></trkpt><trkpt lat="44.4502304" lon="11.1957831"><ele>125.0</ele><time>2026-04-19T12:14:37.825Z</time></trkpt><trkpt lat="44.4503391" lon="11.1956699"><ele>125.0</ele><time>2026-04-19T12:14:38.825Z</time></trkpt><trkpt lat="44.450422" lon="11.1955406"><ele>124.6</ele><time>2026-04-19T12:14:39.825Z</time></trkpt><trkpt lat="44.4504776" lon="11.1954263"><ele>124.2</ele><time>2026-04-19T12:14:40.825Z</time></trkpt><trkpt lat="44.4505285" lon="11.1953575"><ele>123.80000000000001</ele><time>2026-04-19T12:14:41.825Z</time></trkpt><trkpt lat="44.4506365" lon="11.1953354"><ele>123.4</ele><time>2026-04-19T12:14:43.825Z</time></trkpt><trkpt lat="44.4507185" lon="11.1953803"><ele>123.0</ele><time>2026-04-19T12:14:44.824Z</time></trkpt><trkpt lat="44.4508193" lon="11.1954256"><ele>123.0</ele><time>2026-04-19T12:14:45.824Z</time></trkpt><trkpt lat="44.4509245" lon="11.1954748"><ele>123.0</ele><time>2026-04-19T12:14:46.824Z</time></trkpt><trkpt lat="44.4510388" lon="11.1955428"><ele>123.0</ele><time>2026-04-19T12:14:47.824Z</time></trkpt><trkpt lat="44.4511494" lon="11.1956088"><ele>123.0</ele><time>2026-04-19T12:14:48.824Z</time></trkpt><trkpt lat="44.4512544" lon="11.1956731"><ele>122.2</ele><time>2026-04-19T12:14:49.824Z</time></trkpt><trkpt lat="44.4513615" lon="11.1957378"><ele>121.4</ele><time>2026-04-19T12:14:50.825Z</time></trkpt><trkpt lat="44.4514648" lon="11.1958048"><ele>120.60000000000001</ele><time>2026-04-19T12:14:51.824Z</time></trkpt><trkpt lat="44.4515625" lon="11.1958627"><ele>119.80000000000001</ele><time>2026-04-19T12:14:52.824Z</time></trkpt><trkpt lat="44.4516584" lon="11.1959215"><ele>119.0</ele><time>2026-04-19T12:14:53.825Z</time></trkpt><trkpt lat="44.4517474" lon="11.1959706"><ele>118.99999999999999</ele><time>2026-04-19T12:14:54.825Z</time></trkpt><trkpt lat="44.4518316" lon="11.1960184"><ele>119.0</ele><time>2026-04-19T12:14:55.825Z</time></trkpt><trkpt lat="44.4519095" lon="11.1960623"><ele>119.0</ele><time>2026-04-19T12:14:56.825Z</time></trkpt><trkpt lat="44.4519821" lon="11.1960983"><ele>119.0</ele><time>2026-04-19T12:14:57.824Z</time></trkpt><trkpt lat="44.4520505" lon="11.1961339"><ele>118.99999999999999</ele><time>2026-04-19T12:14:58.824Z</time></trkpt><trkpt lat="44.452111" lon="11.196171"><ele>119.0</ele><time>2026-04-19T12:14:59.824Z</time></trkpt><trkpt lat="44.452218" lon="11.1962538"><ele>119.16666666666666</ele><time>2026-04-19T12:15:01.824Z</time></trkpt><trkpt lat="44.4522985" lon="11.1963593"><ele>119.33333333333333</ele><time>2026-04-19T12:15:03.824Z</time></trkpt><trkpt lat="44.4523542" lon="11.1964521"><ele>119.5</ele><time>2026-04-19T12:15:05.824Z</time></trkpt><trkpt lat="44.45241" lon="11.1965248"><ele>119.66666666666666</ele><time>2026-04-19T12:15:07.824Z</time></trkpt><trkpt lat="44.4524757" lon="11.196568"><ele>119.83333333333333</ele><time>2026-04-19T12:15:09.824Z</time></trkpt><trkpt lat="44.4525567" lon="11.196543"><ele>120.0</ele><time>2026-04-19T12:15:11.824Z</time></trkpt><trkpt lat="44.4526247" lon="11.1964953"><ele>120.0</ele><time>2026-04-19T12:15:13.824Z</time></trkpt><trkpt lat="44.45271" lon="11.1964749"><ele>120.0</ele><time>2026-04-19T12:15:15.824Z</time></trkpt><trkpt lat="44.452808" lon="11.1964772"><ele>120.0</ele><time>2026-04-19T12:15:17.825Z</time></trkpt><trkpt lat="44.4529028" lon="11.1964885"><ele>120.0</ele><time>2026-04-19T12:15:19.824Z</time></trkpt><trkpt lat="44.4529973" lon="11.1965032"><ele>120.0</ele><time>2026-04-19T12:15:21.824Z</time></trkpt><trkpt lat="44.4530899" lon="11.1965233"><ele>119.8</ele><time>2026-04-19T12:15:23.825Z</time></trkpt><trkpt lat="44.4531846" lon="11.196559"><ele>119.6</ele><time>2026-04-19T12:15:25.825Z</time></trkpt><trkpt lat="44.4532725" lon="11.196613"><ele>119.4</ele><time>2026-04-19T12:15:27.824Z</time></trkpt><trkpt lat="44.4533643" lon="11.1966712"><ele>119.2</ele><time>2026-04-19T12:15:29.825Z</time></trkpt><trkpt lat="44.4534437" lon="11.1967216"><ele>119.0</ele><time>2026-04-19T12:15:31.825Z</time></trkpt><trkpt lat="44.4535351" lon="11.1967615"><ele>118.99999999999999</ele><time>2026-04-19T12:15:33.825Z</time></trkpt><trkpt lat="44.4536294" lon="11.1968129"><ele>119.0</ele><time>2026-04-19T12:15:35.824Z</time></trkpt><trkpt lat="44.4537357" lon="11.1968691"><ele>119.0</ele><time>2026-04-19T12:15:37.825Z</time></trkpt><trkpt lat="44.453794" lon="11.1969095"><ele>119.0</ele><time>2026-04-19T12:15:38.825Z</time></trkpt><trkpt lat="44.453854" lon="11.1969637"><ele>118.99999999999999</ele><time>2026-04-19T12:15:39.824Z</time></trkpt><trkpt lat="44.45392" lon="11.1970378"><ele>119.0</ele><time>2026-04-19T12:15:40.824Z</time></trkpt><trkpt lat="44.4539806" lon="11.1971305"><ele>118.80000000000001</ele><time>2026-04-19T12:15:41.825Z</time></trkpt><trkpt lat="44.4540413" lon="11.1972249"><ele>118.60000000000001</ele><time>2026-04-19T12:15:42.824Z</time></trkpt><trkpt lat="44.4541019" lon="11.1973418"><ele>118.4</ele><time>2026-04-19T12:15:43.824Z</time></trkpt><trkpt lat="44.4541626" lon="11.1974457"><ele>118.2</ele><time>2026-04-19T12:15:44.824Z</time></trkpt><trkpt lat="44.4542298" lon="11.1975811"><ele>118.0</ele><time>2026-04-19T12:15:45.824Z</time></trkpt><trkpt lat="44.4542937" lon="11.1977065"><ele>118.0</ele><time>2026-04-19T12:15:46.824Z</time></trkpt><trkpt lat="44.4543576" lon="11.1978315"><ele>118.00000000000001</ele><time>2026-04-19T12:15:47.824Z</time></trkpt><trkpt lat="44.4544183" lon="11.1979477"><ele>118.00000000000001</ele><time>2026-04-19T12:15:48.824Z</time></trkpt><trkpt lat="44.4544802" lon="11.1980676"><ele>118.0</ele><time>2026-04-19T12:15:49.825Z</time></trkpt><trkpt lat="44.4545515" lon="11.1981685"><ele>118.0</ele><time>2026-04-19T12:15:50.824Z</time></trkpt><trkpt lat="44.4546408" lon="11.198265"><ele>117.0</ele><time>2026-04-19T12:15:51.825Z</time></trkpt><trkpt lat="44.4547359" lon="11.198355"><ele>116.0</ele><time>2026-04-19T12:15:52.824Z</time></trkpt><trkpt lat="44.4548327" lon="11.1984472"><ele>115.0</ele><time>2026-04-19T12:15:53.825Z</time></trkpt><trkpt lat="44.454933" lon="11.1985377"><ele>114.0</ele><time>2026-04-19T12:15:54.825Z</time></trkpt><trkpt lat="44.4550303" lon="11.1986317"><ele>114.0</ele><time>2026-04-19T12:15:55.824Z</time></trkpt><trkpt lat="44.4551163" lon="11.198712"><ele>114.0</ele><time>2026-04-19T12:15:56.824Z</time></trkpt><trkpt lat="44.4551997" lon="11.1987867"><ele>114.0</ele><time>2026-04-19T12:15:57.824Z</time></trkpt><trkpt lat="44.4552782" lon="11.1988605"><ele>114.0</ele><time>2026-04-19T12:15:58.824Z</time></trkpt><trkpt lat="44.4553564" lon="11.1989241"><ele>114.0</ele><time>2026-04-19T12:15:59.824Z</time></trkpt><trkpt lat="44.4554287" lon="11.1989903"><ele>114.0</ele><time>2026-04-19T12:16:00.825Z</time></trkpt><trkpt lat="44.455498" lon="11.1990487"><ele>114.0</ele><time>2026-04-19T12:16:01.824Z</time></trkpt><trkpt lat="44.455559" lon="11.199096"><ele>114.0</ele><time>2026-04-19T12:16:02.824Z</time></trkpt><trkpt lat="44.4556599" lon="11.1991551"><ele>114.0</ele><time>2026-04-19T12:16:04.825Z</time></trkpt><trkpt lat="44.455729" lon="11.1991682"><ele>114.0</ele><time>2026-04-19T12:16:07.825Z</time></trkpt><trkpt lat="44.4557876" lon="11.1992057"><ele>114.0</ele><time>2026-04-19T12:16:30.824Z</time></trkpt><trkpt lat="44.4557035" lon="11.1991843"><ele>114.0</ele><time>2026-04-19T12:16:34.824Z</time></trkpt><trkpt lat="44.4556389" lon="11.1991438"><ele>114.0</ele><time>2026-04-19T12:16:41.824Z</time></trkpt><trkpt lat="44.4555806" lon="11.1991054"><ele>114.0</ele><time>2026-04-19T12:16:43.824Z</time></trkpt><trkpt lat="44.455499" lon="11.1990434"><ele>114.0</ele><time>2026-04-19T12:16:46.825Z</time></trkpt><trkpt lat="44.4554197" lon="11.1989727"><ele>114.0</ele><time>2026-04-19T12:16:49.825Z</time></trkpt><trkpt lat="44.4553676" lon="11.1989201"><ele>114.0</ele><time>2026-04-19T12:16:51.824Z</time></trkpt><trkpt lat="44.4552993" lon="11.198842"><ele>114.0</ele><time>2026-04-19T12:16:54.825Z</time></trkpt><trkpt lat="44.4552456" lon="11.1987921"><ele>114.0</ele><time>2026-04-19T12:16:56.824Z</time></trkpt><trkpt lat="44.4551839" lon="11.1987417"><ele>114.0</ele><time>2026-04-19T12:16:58.824Z</time></trkpt><trkpt lat="44.4551075" lon="11.1986669"><ele>114.0</ele><time>2026-04-19T12:17:00.824Z</time></trkpt><trkpt lat="44.4550314" lon="11.1986009"><ele>114.0</ele><time>2026-04-19T12:17:02.824Z</time></trkpt><trkpt lat="44.4549568" lon="11.1985306"><ele>114.0</ele><time>2026-04-19T12:17:04.824Z</time></trkpt><trkpt lat="44.4549056" lon="11.1984423"><ele>114.0</ele><time>2026-04-19T12:17:07.824Z</time></trkpt><trkpt lat="44.4548852" lon="11.1983444"><ele>114.0</ele><time>2026-04-19T12:17:10.825Z</time></trkpt><trkpt lat="44.4548462" lon="11.198266"><ele>114.0</ele><time>2026-04-19T12:17:12.824Z</time></trkpt><trkpt lat="44.4547845" lon="11.1981795"><ele>114.0</ele><time>2026-04-19T12:17:14.825Z</time></trkpt><trkpt lat="44.4547179" lon="11.19811"><ele>114.0</ele><time>2026-04-19T12:17:16.824Z</time></trkpt><trkpt lat="44.4546607" lon="11.1980528"><ele>114.0</ele><time>2026-04-19T12:17:18.824Z</time></trkpt><trkpt lat="44.4545761" lon="11.1979916"><ele>114.0</ele><time>2026-04-19T12:17:20.824Z</time></trkpt><trkpt lat="44.4544916" lon="11.1979271"><ele>114.0</ele><time>2026-04-19T12:17:22.824Z</time></trkpt><trkpt lat="44.4544115" lon="11.1978472"><ele>114.0</ele><time>2026-04-19T12:17:24.824Z</time></trkpt><trkpt lat="44.4543337" lon="11.1977661"><ele>114.0</ele><time>2026-04-19T12:17:26.824Z</time></trkpt><trkpt lat="44.4542719" lon="11.1976642"><ele>114.0</ele><time>2026-04-19T12:17:28.824Z</time></trkpt><trkpt lat="44.4542209" lon="11.1975754"><ele>114.0</ele><time>2026-04-19T12:17:30.824Z</time></trkpt><trkpt lat="44.4541747" lon="11.1974861"><ele>114.0</ele><time>2026-04-19T12:17:32.825Z</time></trkpt><trkpt lat="44.4541129" lon="11.1973685"><ele>114.0</ele><time>2026-04-19T12:17:34.824Z</time></trkpt><trkpt lat="44.4540465" lon="11.1972537"><ele>114.0</ele><time>2026-04-19T12:17:36.824Z</time></trkpt><trkpt lat="44.4539872" lon="11.1971656"><ele>114.0</ele><time>2026-04-19T12:17:38.824Z</time></trkpt><trkpt lat="44.4539186" lon="11.197059"><ele>114.80000000000001</ele><time>2026-04-19T12:17:40.824Z</time></trkpt><trkpt lat="44.4538322" lon="11.1969617"><ele>115.60000000000001</ele><time>2026-04-19T12:17:42.824Z</time></trkpt><trkpt lat="44.4537384" lon="11.1968853"><ele>116.4</ele><time>2026-04-19T12:17:44.824Z</time></trkpt><trkpt lat="44.4536369" lon="11.1968365"><ele>117.2</ele><time>2026-04-19T12:17:46.824Z</time></trkpt><trkpt lat="44.4535318" lon="11.1967743"><ele>118.0</ele><time>2026-04-19T12:17:48.824Z</time></trkpt><trkpt lat="44.4534222" lon="11.1967009"><ele>118.16666666666667</ele><time>2026-04-19T12:17:50.824Z</time></trkpt><trkpt lat="44.4533602" lon="11.1966581"><ele>118.33333333333334</ele><time>2026-04-19T12:17:51.824Z</time></trkpt><trkpt lat="44.4532527" lon="11.1965918"><ele>118.5</ele><time>2026-04-19T12:17:53.824Z</time></trkpt><trkpt lat="44.4531437" lon="11.1965428"><ele>118.66666666666666</ele><time>2026-04-19T12:17:55.824Z</time></trkpt><trkpt lat="44.4530806" lon="11.1965213"><ele>118.83333333333333</ele><time>2026-04-19T12:17:56.825Z</time></trkpt><trkpt lat="44.4530102" lon="11.1965031"><ele>119.0</ele><time>2026-04-19T12:17:57.824Z</time></trkpt><trkpt lat="44.4529317" lon="11.1964863"><ele>119.16666666666666</ele><time>2026-04-19T12:17:58.824Z</time></trkpt><trkpt lat="44.4528446" lon="11.1964775"><ele>119.33333333333333</ele><time>2026-04-19T12:17:59.824Z</time></trkpt><trkpt lat="44.4527605" lon="11.1964738"><ele>119.5</ele><time>2026-04-19T12:18:00.824Z</time></trkpt><trkpt lat="44.4526854" lon="11.1964851"><ele>119.66666666666666</ele><time>2026-04-19T12:18:01.824Z</time></trkpt><trkpt lat="44.452616" lon="11.1965123"><ele>119.83333333333333</ele><time>2026-04-19T12:18:02.824Z</time></trkpt><trkpt lat="44.452551" lon="11.1965388"><ele>120.0</ele><time>2026-04-19T12:18:03.824Z</time></trkpt><trkpt lat="44.4524828" lon="11.1965364"><ele>120.0</ele><time>2026-04-19T12:18:04.824Z</time></trkpt><trkpt lat="44.4524173" lon="11.1965195"><ele>120.0</ele><time>2026-04-19T12:18:05.824Z</time></trkpt><trkpt lat="44.4523515" lon="11.1964595"><ele>120.0</ele><time>2026-04-19T12:18:06.824Z</time></trkpt><trkpt lat="44.4523016" lon="11.1963707"><ele>120.0</ele><time>2026-04-19T12:18:07.825Z</time></trkpt><trkpt lat="44.452252" lon="11.1962736"><ele>120.0</ele><time>2026-04-19T12:18:08.824Z</time></trkpt><trkpt lat="44.4521746" lon="11.1962024"><ele>120.0</ele><time>2026-04-19T12:18:09.825Z</time></trkpt><trkpt lat="44.4520926" lon="11.1961475"><ele>119.83333333333333</ele><time>2026-04-19T12:18:10.824Z</time></trkpt><trkpt lat="44.4520175" lon="11.1961035"><ele>119.66666666666666</ele><time>2026-04-19T12:18:11.824Z</time></trkpt><trkpt lat="44.4519456" lon="11.1960578"><ele>119.5</ele><time>2026-04-19T12:18:12.824Z</time></trkpt><trkpt lat="44.4518753" lon="11.1960161"><ele>119.33333333333333</ele><time>2026-04-19T12:18:13.824Z</time></trkpt><trkpt lat="44.4518003" lon="11.195972"><ele>119.16666666666666</ele><time>2026-04-19T12:18:14.824Z</time></trkpt><trkpt lat="44.4517182" lon="11.1959224"><ele>119.0</ele><time>2026-04-19T12:18:15.824Z</time></trkpt><trkpt lat="44.4516348" lon="11.1958756"><ele>119.0</ele><time>2026-04-19T12:18:16.824Z</time></trkpt><trkpt lat="44.4515614" lon="11.1958347"><ele>119.0</ele><time>2026-04-19T12:18:17.824Z</time></trkpt><trkpt lat="44.4514903" lon="11.1957938"><ele>119.0</ele><time>2026-04-19T12:18:18.824Z</time></trkpt><trkpt lat="44.4514263" lon="11.1957564"><ele>119.0</ele><time>2026-04-19T12:18:19.824Z</time></trkpt><trkpt lat="44.4513666" lon="11.1957135"><ele>119.0</ele><time>2026-04-19T12:18:20.824Z</time></trkpt><trkpt lat="44.4513062" lon="11.1956685"><ele>119.0</ele><time>2026-04-19T12:18:21.825Z</time></trkpt><trkpt lat="44.451244" lon="11.1956266"><ele>119.0</ele><time>2026-04-19T12:18:22.824Z</time></trkpt><trkpt lat="44.4511802" lon="11.1955935"><ele>119.57142857142857</ele><time>2026-04-19T12:18:23.825Z</time></trkpt><trkpt lat="44.4511144" lon="11.1955647"><ele>120.14285714285714</ele><time>2026-04-19T12:18:24.824Z</time></trkpt><trkpt lat="44.4510529" lon="11.1955325"><ele>120.71428571428572</ele><time>2026-04-19T12:18:25.824Z</time></trkpt><trkpt lat="44.4509861" lon="11.1954929"><ele>121.28571428571429</ele><time>2026-04-19T12:18:26.824Z</time></trkpt><trkpt lat="44.4509137" lon="11.1954532"><ele>121.85714285714286</ele><time>2026-04-19T12:18:27.825Z</time></trkpt><trkpt lat="44.4508453" lon="11.1954132"><ele>122.42857142857144</ele><time>2026-04-19T12:18:28.825Z</time></trkpt><trkpt lat="44.4507788" lon="11.1953792"><ele>123.00000000000001</ele><time>2026-04-19T12:18:29.825Z</time></trkpt><trkpt lat="44.4507137" lon="11.1953484"><ele>123.0</ele><time>2026-04-19T12:18:30.824Z</time></trkpt><trkpt lat="44.4506546" lon="11.1953071"><ele>123.0</ele><time>2026-04-19T12:18:31.825Z</time></trkpt><trkpt lat="44.4505904" lon="11.1952124"><ele>123.0</ele><time>2026-04-19T12:18:33.824Z</time></trkpt><trkpt lat="44.4505814" lon="11.1951209"><ele>123.0</ele><time>2026-04-19T12:18:34.824Z</time></trkpt><trkpt lat="44.4506014" lon="11.1950145"><ele>123.0</ele><time>2026-04-19T12:18:35.825Z</time></trkpt><trkpt lat="44.450632" lon="11.194914"><ele>123.0</ele><time>2026-04-19T12:18:36.824Z</time></trkpt><trkpt lat="44.450662" lon="11.1948065"><ele>123.5</ele><time>2026-04-19T12:18:37.825Z</time></trkpt><trkpt lat="44.4506908" lon="11.1946982"><ele>124.0</ele><time>2026-04-19T12:18:38.824Z</time></trkpt><trkpt lat="44.4507206" lon="11.1946038"><ele>124.5</ele><time>2026-04-19T12:18:39.824Z</time></trkpt><trkpt lat="44.4507459" lon="11.1945108"><ele>125.0</ele><time>2026-04-19T12:18:40.824Z</time></trkpt><trkpt lat="44.4507729" lon="11.1944289"><ele>125.5</ele><time>2026-04-19T12:18:41.824Z</time></trkpt><trkpt lat="44.4508311" lon="11.1943149"><ele>126.0</ele><time>2026-04-19T12:18:43.824Z</time></trkpt><trkpt lat="44.4508906" lon="11.1942632"><ele>126.0</ele><time>2026-04-19T12:18:45.825Z</time></trkpt><trkpt lat="44.4509568" lon="11.1942786"><ele>126.0</ele><time>2026-04-19T12:18:46.824Z</time></trkpt><trkpt lat="44.4510423" lon="11.1943265"><ele>126.0</ele><time>2026-04-19T12:18:47.824Z</time></trkpt><trkpt lat="44.4511317" lon="11.1943909"><ele>126.0</ele><time>2026-04-19T12:18:48.825Z</time></trkpt><trkpt lat="44.4512388" lon="11.1944593"><ele>126.0</ele><time>2026-04-19T12:18:49.825Z</time></trkpt><trkpt lat="44.4513608" lon="11.1945323"><ele>126.75</ele><time>2026-04-19T12:18:50.824Z</time></trkpt><trkpt lat="44.4514889" lon="11.1946127"><ele>127.5</ele><time>2026-04-19T12:18:51.824Z</time></trkpt><trkpt lat="44.4516187" lon="11.1946904"><ele>128.25</ele><time>2026-04-19T12:18:52.824Z</time></trkpt><trkpt lat="44.4517476" lon="11.1947721"><ele>129.0</ele><time>2026-04-19T12:18:53.824Z</time></trkpt><trkpt lat="44.4518713" lon="11.1948452"><ele>128.25</ele><time>2026-04-19T12:18:54.824Z</time></trkpt><trkpt lat="44.4519943" lon="11.1949178"><ele>127.5</ele><time>2026-04-19T12:18:55.824Z</time></trkpt><trkpt lat="44.4521249" lon="11.1949976"><ele>126.75</ele><time>2026-04-19T12:18:56.824Z</time></trkpt><trkpt lat="44.4522578" lon="11.1950691"><ele>126.0</ele><time>2026-04-19T12:18:57.824Z</time></trkpt><trkpt lat="44.4523843" lon="11.1951417"><ele>126.0</ele><time>2026-04-19T12:18:58.824Z</time></trkpt><trkpt lat="44.4525021" lon="11.195218"><ele>126.0</ele><time>2026-04-19T12:18:59.824Z</time></trkpt><trkpt lat="44.452617" lon="11.1952904"><ele>126.0</ele><time>2026-04-19T12:19:00.824Z</time></trkpt><trkpt lat="44.4527334" lon="11.1953616"><ele>126.0</ele><time>2026-04-19T12:19:01.824Z</time></trkpt><trkpt lat="44.45285" lon="11.1954337"><ele>126.75</ele><time>2026-04-19T12:19:02.825Z</time></trkpt><trkpt lat="44.452966" lon="11.1955114"><ele>127.5</ele><time>2026-04-19T12:19:03.824Z</time></trkpt><trkpt lat="44.4530853" lon="11.1955948"><ele>128.25</ele><time>2026-04-19T12:19:04.825Z</time></trkpt><trkpt lat="44.4532081" lon="11.1956784"><ele>129.0</ele><time>2026-04-19T12:19:05.824Z</time></trkpt><trkpt lat="44.4533278" lon="11.1957603"><ele>128.25</ele><time>2026-04-19T12:19:06.824Z</time></trkpt><trkpt lat="44.4534435" lon="11.1958452"><ele>127.5</ele><time>2026-04-19T12:19:07.824Z</time></trkpt><trkpt lat="44.4535615" lon="11.1959396"><ele>126.75</ele><time>2026-04-19T12:19:08.825Z</time></trkpt><trkpt lat="44.4536803" lon="11.1960382"><ele>126.0</ele><time>2026-04-19T12:19:09.824Z</time></trkpt><trkpt lat="44.4538026" lon="11.1961387"><ele>126.0</ele><time>2026-04-19T12:19:10.825Z</time></trkpt><trkpt lat="44.453923" lon="11.1962612"><ele>126.0</ele><time>2026-04-19T12:19:11.825Z</time></trkpt><trkpt lat="44.4540481" lon="11.1963937"><ele>126.0</ele><time>2026-04-19T12:19:12.824Z</time></trkpt><trkpt lat="44.454186" lon="11.1965529"><ele>124.33333333333334</ele><time>2026-04-19T12:19:13.824Z</time></trkpt><trkpt lat="44.4543453" lon="11.1967282"><ele>122.66666666666667</ele><time>2026-04-19T12:19:14.825Z</time></trkpt><trkpt lat="44.4545222" lon="11.1969159"><ele>121.0</ele><time>2026-04-19T12:19:15.824Z</time></trkpt><trkpt lat="44.4547042" lon="11.1971231"><ele>121.0</ele><time>2026-04-19T12:19:16.824Z</time></trkpt><trkpt lat="44.4548825" lon="11.197333"><ele>121.0</ele><time>2026-04-19T12:19:17.825Z</time></trkpt><trkpt lat="44.4550548" lon="11.1975192"><ele>120.0</ele><time>2026-04-19T12:19:18.824Z</time></trkpt><trkpt lat="44.455208" lon="11.1976785"><ele>119.0</ele><time>2026-04-19T12:19:19.824Z</time></trkpt><trkpt lat="44.4553494" lon="11.1978255"><ele>118.0</ele><time>2026-04-19T12:19:20.825Z</time></trkpt><trkpt lat="44.4554813" lon="11.1979593"><ele>118.0</ele><time>2026-04-19T12:19:21.824Z</time></trkpt><trkpt lat="44.4556052" lon="11.1980907"><ele>118.0</ele><time>2026-04-19T12:19:22.825Z</time></trkpt><trkpt lat="44.4557227" lon="11.1982207"><ele>118.0</ele><time>2026-04-19T12:19:23.824Z</time></trkpt><trkpt lat="44.4559628" lon="11.19847"><ele>117.33333333333334</ele><time>2026-04-19T12:19:25.825Z</time></trkpt><trkpt lat="44.4560838" lon="11.1985961"><ele>116.66666666666666</ele><time>2026-04-19T12:19:26.824Z</time></trkpt><trkpt lat="44.4562096" lon="11.1987224"><ele>116.0</ele><time>2026-04-19T12:19:27.825Z</time></trkpt><trkpt lat="44.45633" lon="11.1988449"><ele>116.0</ele><time>2026-04-19T12:19:28.825Z</time></trkpt><trkpt lat="44.4564528" lon="11.1989443"><ele>116.0</ele><time>2026-04-19T12:19:29.824Z</time></trkpt><trkpt lat="44.4565678" lon="11.1990527"><ele>116.0</ele><time>2026-04-19T12:19:30.824Z</time></trkpt><trkpt lat="44.4566885" lon="11.199171"><ele>116.0</ele><time>2026-04-19T12:19:31.824Z</time></trkpt><trkpt lat="44.4568047" lon="11.1992843"><ele>115.25</ele><time>2026-04-19T12:19:32.825Z</time></trkpt><trkpt lat="44.4569327" lon="11.1994063"><ele>114.5</ele><time>2026-04-19T12:19:33.825Z</time></trkpt><trkpt lat="44.4570484" lon="11.1995288"><ele>113.75</ele><time>2026-04-19T12:19:34.825Z</time></trkpt><trkpt lat="44.4571583" lon="11.1996516"><ele>113.0</ele><time>2026-04-19T12:19:35.824Z</time></trkpt><trkpt lat="44.4572801" lon="11.1997656"><ele>112.0</ele><time>2026-04-19T12:19:36.825Z</time></trkpt><trkpt lat="44.4573971" lon="11.1998819"><ele>111.0</ele><time>2026-04-19T12:19:37.824Z</time></trkpt><trkpt lat="44.457577" lon="11.1999075"><ele>110.0</ele><time>2026-04-19T12:19:38.824Z</time></trkpt><trkpt lat="44.4577287" lon="11.1999338"><ele>110.0</ele><time>2026-04-19T12:19:39.824Z</time></trkpt><trkpt lat="44.4578742" lon="11.1999634"><ele>110.0</ele><time>2026-04-19T12:19:40.825Z</time></trkpt><trkpt lat="44.458038" lon="11.1999866"><ele>110.0</ele><time>2026-04-19T12:19:41.825Z</time></trkpt><trkpt lat="44.458199" lon="11.1999996"><ele>110.0</ele><time>2026-04-19T12:19:42.825Z</time></trkpt><trkpt lat="44.4583591" lon="11.2000128"><ele>110.0</ele><time>2026-04-19T12:19:43.824Z</time></trkpt><trkpt lat="44.4585208" lon="11.2000431"><ele>110.0</ele><time>2026-04-19T12:19:44.824Z</time></trkpt><trkpt lat="44.4586898" lon="11.2000425"><ele>110.33333333333333</ele><time>2026-04-19T12:19:45.824Z</time></trkpt><trkpt lat="44.4588639" lon="11.2000416"><ele>110.66666666666666</ele><time>2026-04-19T12:19:46.824Z</time></trkpt><trkpt lat="44.4590375" lon="11.2000148"><ele>111.0</ele><time>2026-04-19T12:19:47.824Z</time></trkpt><trkpt lat="44.4592124" lon="11.1999608"><ele>111.0</ele><time>2026-04-19T12:19:48.824Z</time></trkpt><trkpt lat="44.4593849" lon="11.199888"><ele>111.0</ele><time>2026-04-19T12:19:49.824Z</time></trkpt><trkpt lat="44.4595546" lon="11.1998051"><ele>111.0</ele><time>2026-04-19T12:19:50.824Z</time></trkpt><trkpt lat="44.4597285" lon="11.1997169"><ele>109.66666666666666</ele><time>2026-04-19T12:19:51.825Z</time></trkpt><trkpt lat="44.4598949" lon="11.199631"><ele>108.33333333333333</ele><time>2026-04-19T12:19:52.824Z</time></trkpt><trkpt lat="44.4600584" lon="11.1995376"><ele>107.0</ele><time>2026-04-19T12:19:53.825Z</time></trkpt><trkpt lat="44.4602204" lon="11.1994404"><ele>107.0</ele><time>2026-04-19T12:19:54.825Z</time></trkpt><trkpt lat="44.4603792" lon="11.1993339"><ele>107.0</ele><time>2026-04-19T12:19:55.824Z</time></trkpt><trkpt lat="44.4605357" lon="11.1992199"><ele>107.0</ele><time>2026-04-19T12:19:56.824Z</time></trkpt><trkpt lat="44.4606913" lon="11.199099"><ele>108.66666666666666</ele><time>2026-04-19T12:19:57.825Z</time></trkpt><trkpt lat="44.4608407" lon="11.1989715"><ele>110.33333333333334</ele><time>2026-04-19T12:19:58.824Z</time></trkpt><trkpt lat="44.4609951" lon="11.1988507"><ele>112.0</ele><time>2026-04-19T12:19:59.825Z</time></trkpt><trkpt lat="44.4611564" lon="11.1987588"><ele>110.66666666666667</ele><time>2026-04-19T12:20:00.825Z</time></trkpt><trkpt lat="44.4613243" lon="11.1986889"><ele>109.33333333333334</ele><time>2026-04-19T12:20:01.824Z</time></trkpt><trkpt lat="44.4614955" lon="11.1986366"><ele>108.0</ele><time>2026-04-19T12:20:02.824Z</time></trkpt><trkpt lat="44.4616732" lon="11.1985923"><ele>108.0</ele><time>2026-04-19T12:20:03.824Z</time></trkpt><trkpt lat="44.4618727" lon="11.198553"><ele>108.0</ele><time>2026-04-19T12:20:04.824Z</time></trkpt><trkpt lat="44.4620706" lon="11.1985158"><ele>108.0</ele><time>2026-04-19T12:20:05.824Z</time></trkpt><trkpt lat="44.4622505" lon="11.1984734"><ele>108.66666666666666</ele><time>2026-04-19T12:20:06.824Z</time></trkpt><trkpt lat="44.4624249" lon="11.1984273"><ele>109.33333333333333</ele><time>2026-04-19T12:20:07.825Z</time></trkpt><trkpt lat="44.4625955" lon="11.1983808"><ele>110.0</ele><time>2026-04-19T12:20:08.824Z</time></trkpt><trkpt lat="44.4627569" lon="11.1983362"><ele>110.0</ele><time>2026-04-19T12:20:09.824Z</time></trkpt><trkpt lat="44.4628924" lon="11.1982977"><ele>110.0</ele><time>2026-04-19T12:20:10.825Z</time></trkpt><trkpt lat="44.4630417" lon="11.198271"><ele>110.0</ele><time>2026-04-19T12:20:11.825Z</time></trkpt><trkpt lat="44.463181" lon="11.1982618"><ele>110.0</ele><time>2026-04-19T12:20:12.824Z</time></trkpt><trkpt lat="44.46331" lon="11.1982695"><ele>109.75</ele><time>2026-04-19T12:20:13.824Z</time></trkpt><trkpt lat="44.46343" lon="11.1982975"><ele>109.5</ele><time>2026-04-19T12:20:14.824Z</time></trkpt><trkpt lat="44.4635356" lon="11.1983801"><ele>109.25</ele><time>2026-04-19T12:20:15.824Z</time></trkpt><trkpt lat="44.4636185" lon="11.1985104"><ele>109.0</ele><time>2026-04-19T12:20:16.825Z</time></trkpt><trkpt lat="44.4636838" lon="11.198686"><ele>109.0</ele><time>2026-04-19T12:20:17.824Z</time></trkpt><trkpt lat="44.4637371" lon="11.1989103"><ele>109.0</ele><time>2026-04-19T12:20:18.824Z</time></trkpt><trkpt lat="44.4637701" lon="11.1991473"><ele>109.0</ele><time>2026-04-19T12:20:19.825Z</time></trkpt><trkpt lat="44.4637903" lon="11.1993646"><ele>107.5</ele><time>2026-04-19T12:20:20.824Z</time></trkpt><trkpt lat="44.4638187" lon="11.1995626"><ele>106.0</ele><time>2026-04-19T12:20:21.824Z</time></trkpt><trkpt lat="44.4638722" lon="11.1997428"><ele>104.5</ele><time>2026-04-19T12:20:22.824Z</time></trkpt><trkpt lat="44.4639501" lon="11.1998902"><ele>103.0</ele><time>2026-04-19T12:20:23.824Z</time></trkpt><trkpt lat="44.4640432" lon="11.1999938"><ele>103.0</ele><time>2026-04-19T12:20:24.824Z</time></trkpt><trkpt lat="44.4641447" lon="11.2000602"><ele>103.0</ele><time>2026-04-19T12:20:25.824Z</time></trkpt><trkpt lat="44.4642499" lon="11.2000743"><ele>103.0</ele><time>2026-04-19T12:20:26.824Z</time></trkpt><trkpt lat="44.464343" lon="11.2000442"><ele>103.0</ele><time>2026-04-19T12:20:27.824Z</time></trkpt><trkpt lat="44.4644142" lon="11.1999631"><ele>103.0</ele><time>2026-04-19T12:20:28.824Z</time></trkpt><trkpt lat="44.4644761" lon="11.1998254"><ele>103.0</ele><time>2026-04-19T12:20:29.824Z</time></trkpt><trkpt lat="44.4645361" lon="11.1996549"><ele>103.0</ele><time>2026-04-19T12:20:30.824Z</time></trkpt><trkpt lat="44.4645944" lon="11.199481"><ele>103.0</ele><time>2026-04-19T12:20:31.824Z</time></trkpt><trkpt lat="44.4646514" lon="11.1993198"><ele>103.0</ele><time>2026-04-19T12:20:32.825Z</time></trkpt><trkpt lat="44.4647113" lon="11.1991463"><ele>104.25</ele><time>2026-04-19T12:20:33.824Z</time></trkpt><trkpt lat="44.4647741" lon="11.1989753"><ele>105.5</ele><time>2026-04-19T12:20:34.825Z</time></trkpt><trkpt lat="44.4648373" lon="11.1988036"><ele>106.75</ele><time>2026-04-19T12:20:35.824Z</time></trkpt><trkpt lat="44.4649042" lon="11.1986284"><ele>108.0</ele><time>2026-04-19T12:20:36.824Z</time></trkpt><trkpt lat="44.464972" lon="11.1984535"><ele>108.0</ele><time>2026-04-19T12:20:37.825Z</time></trkpt><trkpt lat="44.4650382" lon="11.1982727"><ele>108.0</ele><time>2026-04-19T12:20:38.824Z</time></trkpt><trkpt lat="44.4651007" lon="11.1980944"><ele>108.0</ele><time>2026-04-19T12:20:39.824Z</time></trkpt><trkpt lat="44.4651585" lon="11.1979242"><ele>108.0</ele><time>2026-04-19T12:20:40.824Z</time></trkpt><trkpt lat="44.4652199" lon="11.1977663"><ele>109.0</ele><time>2026-04-19T12:20:41.825Z</time></trkpt><trkpt lat="44.4652886" lon="11.1976197"><ele>110.0</ele><time>2026-04-19T12:20:42.825Z</time></trkpt><trkpt lat="44.4653609" lon="11.197488"><ele>111.0</ele><time>2026-04-19T12:20:43.824Z</time></trkpt><trkpt lat="44.4654312" lon="11.1973706"><ele>112.0</ele><time>2026-04-19T12:20:44.824Z</time></trkpt><trkpt lat="44.4655033" lon="11.1972671"><ele>108.33333333333334</ele><time>2026-04-19T12:20:45.825Z</time></trkpt><trkpt lat="44.4655957" lon="11.197143"><ele>104.66666666666666</ele><time>2026-04-19T12:20:46.824Z</time></trkpt><trkpt lat="44.4657182" lon="11.196987"><ele>101.0</ele><time>2026-04-19T12:20:47.824Z</time></trkpt><trkpt lat="44.4658618" lon="11.196841"><ele>101.0</ele><time>2026-04-19T12:20:48.824Z</time></trkpt><trkpt lat="44.4660213" lon="11.1966825"><ele>101.0</ele><time>2026-04-19T12:20:49.825Z</time></trkpt><trkpt lat="44.4661774" lon="11.1965083"><ele>101.0</ele><time>2026-04-19T12:20:50.825Z</time></trkpt><trkpt lat="44.4663237" lon="11.1963417"><ele>101.0</ele><time>2026-04-19T12:20:51.825Z</time></trkpt><trkpt lat="44.4664676" lon="11.1961844"><ele>101.0</ele><time>2026-04-19T12:20:52.824Z</time></trkpt><trkpt lat="44.4666014" lon="11.1960351"><ele>101.0</ele><time>2026-04-19T12:20:53.824Z</time></trkpt><trkpt lat="44.4667327" lon="11.1958979"><ele>101.0</ele><time>2026-04-19T12:20:54.824Z</time></trkpt><trkpt lat="44.4668534" lon="11.1957662"><ele>101.0</ele><time>2026-04-19T12:20:55.824Z</time></trkpt><trkpt lat="44.4669612" lon="11.1956357"><ele>101.0</ele><time>2026-04-19T12:20:56.824Z</time></trkpt><trkpt lat="44.4670349" lon="11.1954842"><ele>101.0</ele><time>2026-04-19T12:20:57.825Z</time></trkpt><trkpt lat="44.4670563" lon="11.1953086"><ele>102.0</ele><time>2026-04-19T12:20:58.824Z</time></trkpt><trkpt lat="44.467048" lon="11.1951212"><ele>103.0</ele><time>2026-04-19T12:20:59.825Z</time></trkpt><trkpt lat="44.4670064" lon="11.1949069"><ele>104.0</ele><time>2026-04-19T12:21:00.825Z</time></trkpt><trkpt lat="44.4669459" lon="11.1946474"><ele>105.0</ele><time>2026-04-19T12:21:01.824Z</time></trkpt><trkpt lat="44.4668768" lon="11.19438"><ele>106.0</ele><time>2026-04-19T12:21:02.824Z</time></trkpt><trkpt lat="44.4667974" lon="11.1940963"><ele>107.0</ele><time>2026-04-19T12:21:03.824Z</time></trkpt><trkpt lat="44.4666976" lon="11.1937944"><ele>108.5</ele><time>2026-04-19T12:21:04.825Z</time></trkpt><trkpt lat="44.4665741" lon="11.1934929"><ele>110.0</ele><time>2026-04-19T12:21:05.824Z</time></trkpt><trkpt lat="44.4664295" lon="11.1931844"><ele>109.5</ele><time>2026-04-19T12:21:06.824Z</time></trkpt><trkpt lat="44.4662949" lon="11.1928908"><ele>109.0</ele><time>2026-04-19T12:21:07.825Z</time></trkpt><trkpt lat="44.4661693" lon="11.1926163"><ele>109.0</ele><time>2026-04-19T12:21:08.825Z</time></trkpt><trkpt lat="44.4660506" lon="11.1923529"><ele>109.0</ele><time>2026-04-19T12:21:09.825Z</time></trkpt><trkpt lat="44.4659441" lon="11.1921191"><ele>109.0</ele><time>2026-04-19T12:21:10.824Z</time></trkpt><trkpt lat="44.465824" lon="11.1919076"><ele>110.0</ele><time>2026-04-19T12:21:11.824Z</time></trkpt><trkpt lat="44.4656972" lon="11.1917205"><ele>111.0</ele><time>2026-04-19T12:21:12.825Z</time></trkpt><trkpt lat="44.4655737" lon="11.1915393"><ele>112.0</ele><time>2026-04-19T12:21:13.824Z</time></trkpt><trkpt lat="44.4654678" lon="11.1913542"><ele>111.0</ele><time>2026-04-19T12:21:14.824Z</time></trkpt><trkpt lat="44.4653832" lon="11.1911537"><ele>110.0</ele><time>2026-04-19T12:21:15.824Z</time></trkpt><trkpt lat="44.4653227" lon="11.1909412"><ele>109.0</ele><time>2026-04-19T12:21:16.824Z</time></trkpt><trkpt lat="44.465285" lon="11.1907263"><ele>110.0</ele><time>2026-04-19T12:21:17.824Z</time></trkpt><trkpt lat="44.4652692" lon="11.1905063"><ele>111.0</ele><time>2026-04-19T12:21:18.824Z</time></trkpt><trkpt lat="44.4652684" lon="11.1902873"><ele>112.0</ele><time>2026-04-19T12:21:19.824Z</time></trkpt><trkpt lat="44.4652585" lon="11.1900684"><ele>112.0</ele><time>2026-04-19T12:21:20.825Z</time></trkpt><trkpt lat="44.465228" lon="11.1898706"><ele>112.0</ele><time>2026-04-19T12:21:21.824Z</time></trkpt><trkpt lat="44.4651779" lon="11.1896772"><ele>112.0</ele><time>2026-04-19T12:21:22.824Z</time></trkpt><trkpt lat="44.4651138" lon="11.1894855"><ele>112.0</ele><time>2026-04-19T12:21:23.825Z</time></trkpt><trkpt lat="44.4650508" lon="11.1892921"><ele>112.5</ele><time>2026-04-19T12:21:24.824Z</time></trkpt><trkpt lat="44.4649884" lon="11.1891069"><ele>113.0</ele><time>2026-04-19T12:21:25.825Z</time></trkpt><trkpt lat="44.4649256" lon="11.1889144"><ele>113.5</ele><time>2026-04-19T12:21:26.824Z</time></trkpt><trkpt lat="44.4648587" lon="11.1887238"><ele>114.0</ele><time>2026-04-19T12:21:27.824Z</time></trkpt><trkpt lat="44.4647963" lon="11.1885299"><ele>115.75</ele><time>2026-04-19T12:21:28.824Z</time></trkpt><trkpt lat="44.4647415" lon="11.188337"><ele>117.5</ele><time>2026-04-19T12:21:29.824Z</time></trkpt><trkpt lat="44.4647017" lon="11.1881359"><ele>119.25</ele><time>2026-04-19T12:21:30.825Z</time></trkpt><trkpt lat="44.4646908" lon="11.1879298"><ele>121.0</ele><time>2026-04-19T12:21:31.825Z</time></trkpt><trkpt lat="44.4647047" lon="11.1877279"><ele>120.75</ele><time>2026-04-19T12:21:32.824Z</time></trkpt><trkpt lat="44.4647379" lon="11.1875302"><ele>120.5</ele><time>2026-04-19T12:21:33.824Z</time></trkpt><trkpt lat="44.4647939" lon="11.1873418"><ele>120.25</ele><time>2026-04-19T12:21:34.824Z</time></trkpt><trkpt lat="44.4648702" lon="11.187168"><ele>120.0</ele><time>2026-04-19T12:21:35.824Z</time></trkpt><trkpt lat="44.4649554" lon="11.1870051"><ele>120.0</ele><time>2026-04-19T12:21:36.824Z</time></trkpt><trkpt lat="44.4650305" lon="11.1868302"><ele>120.0</ele><time>2026-04-19T12:21:37.825Z</time></trkpt><trkpt lat="44.4650805" lon="11.186637"><ele>120.0</ele><time>2026-04-19T12:21:38.824Z</time></trkpt><trkpt lat="44.4650977" lon="11.1864333"><ele>120.0</ele><time>2026-04-19T12:21:39.824Z</time></trkpt><trkpt lat="44.4650836" lon="11.1862293"><ele>120.0</ele><time>2026-04-19T12:21:40.824Z</time></trkpt><trkpt lat="44.4650458" lon="11.1860335"><ele>120.0</ele><time>2026-04-19T12:21:41.825Z</time></trkpt><trkpt lat="44.4650061" lon="11.1858401"><ele>120.0</ele><time>2026-04-19T12:21:42.825Z</time></trkpt><trkpt lat="44.4649682" lon="11.1856589"><ele>120.0</ele><time>2026-04-19T12:21:43.824Z</time></trkpt><trkpt lat="44.4649477" lon="11.1854848"><ele>120.0</ele><time>2026-04-19T12:21:44.824Z</time></trkpt><trkpt lat="44.464934" lon="11.1853185"><ele>120.0</ele><time>2026-04-19T12:21:45.824Z</time></trkpt><trkpt lat="44.4649285" lon="11.1851691"><ele>120.0</ele><time>2026-04-19T12:21:46.824Z</time></trkpt><trkpt lat="44.4649286" lon="11.1850308"><ele>120.0</ele><time>2026-04-19T12:21:47.824Z</time></trkpt><trkpt lat="44.4649192" lon="11.1849113"><ele>120.0</ele><time>2026-04-19T12:21:48.824Z</time></trkpt><trkpt lat="44.4648621" lon="11.1848321"><ele>119.6</ele><time>2026-04-19T12:21:50.824Z</time></trkpt><trkpt lat="44.4647844" lon="11.1848146"><ele>119.2</ele><time>2026-04-19T12:21:52.825Z</time></trkpt><trkpt lat="44.4646825" lon="11.1848259"><ele>118.80000000000001</ele><time>2026-04-19T12:21:54.824Z</time></trkpt><trkpt lat="44.464587" lon="11.1847954"><ele>118.4</ele><time>2026-04-19T12:21:56.825Z</time></trkpt><trkpt lat="44.4645438" lon="11.1846189"><ele>118.0</ele><time>2026-04-19T12:21:58.825Z</time></trkpt><trkpt lat="44.4645406" lon="11.1844917"><ele>117.5</ele><time>2026-04-19T12:21:59.825Z</time></trkpt><trkpt lat="44.464533" lon="11.1843449"><ele>117.0</ele><time>2026-04-19T12:22:00.824Z</time></trkpt><trkpt lat="44.4645293" lon="11.1841891"><ele>116.5</ele><time>2026-04-19T12:22:01.825Z</time></trkpt><trkpt lat="44.4645241" lon="11.184019"><ele>116.0</ele><time>2026-04-19T12:22:02.825Z</time></trkpt><trkpt lat="44.4645191" lon="11.1838385"><ele>116.0</ele><time>2026-04-19T12:22:03.824Z</time></trkpt><trkpt lat="44.4645139" lon="11.1836714"><ele>116.0</ele><time>2026-04-19T12:22:04.825Z</time></trkpt><trkpt lat="44.46451" lon="11.1835156"><ele>116.0</ele><time>2026-04-19T12:22:05.824Z</time></trkpt><trkpt lat="44.4644947" lon="11.1833742"><ele>116.0</ele><time>2026-04-19T12:22:06.824Z</time></trkpt><trkpt lat="44.4644747" lon="11.1832497"><ele>116.0</ele><time>2026-04-19T12:22:07.825Z</time></trkpt><trkpt lat="44.464447" lon="11.1831373"><ele>116.33333333333333</ele><time>2026-04-19T12:22:08.824Z</time></trkpt><trkpt lat="44.4644203" lon="11.1830357"><ele>116.66666666666666</ele><time>2026-04-19T12:22:09.825Z</time></trkpt><trkpt lat="44.4643955" lon="11.182948"><ele>117.0</ele><time>2026-04-19T12:22:10.825Z</time></trkpt><trkpt lat="44.4643062" lon="11.1828937"><ele>117.33333333333334</ele><time>2026-04-19T12:22:12.825Z</time></trkpt><trkpt lat="44.4642258" lon="11.1829268"><ele>117.66666666666667</ele><time>2026-04-19T12:22:14.825Z</time></trkpt><trkpt lat="44.4641387" lon="11.182969"><ele>118.0</ele><time>2026-04-19T12:22:16.825Z</time></trkpt><trkpt lat="44.4640496" lon="11.1830097"><ele>118.00000000000001</ele><time>2026-04-19T12:22:18.824Z</time></trkpt><trkpt lat="44.4639664" lon="11.1830393"><ele>118.0</ele><time>2026-04-19T12:22:20.824Z</time></trkpt><trkpt lat="44.463904" lon="11.1830625"><ele>118.0</ele><time>2026-04-19T12:22:22.824Z</time></trkpt><trkpt lat="44.4638551" lon="11.1831304"><ele>118.0</ele><time>2026-04-19T12:22:33.824Z</time></trkpt><trkpt lat="44.4639352" lon="11.1830913"><ele>118.00000000000001</ele><time>2026-04-19T12:22:37.824Z</time></trkpt><trkpt lat="44.4640194" lon="11.1830475"><ele>118.0</ele><time>2026-04-19T12:22:40.824Z</time></trkpt><trkpt lat="44.4640956" lon="11.1830244"><ele>118.0</ele><time>2026-04-19T12:22:43.824Z</time></trkpt><trkpt lat="44.4641554" lon="11.1830703"><ele>118.0</ele><time>2026-04-19T12:23:53.825Z</time></trkpt><trkpt lat="44.4641997" lon="11.1831404"><ele>118.0</ele><time>2026-04-19T12:24:46.824Z</time></trkpt><trkpt lat="44.4641132" lon="11.1830309"><ele>118.0</ele><time>2026-04-19T12:26:48.825Z</time></trkpt></trkseg></trk></gpx>